<?xml version='1.0' encoding='UTF-8'?><gpx version="1.1" creator="JPX - https://github.com/jenetics/jpx" xmlns="http://www.topografix.com/GPX/1/1"><trk><trkseg><trkpt lat="45.19627043112121" lon="8.298892545665101"><ele>133.8</ele><time>2026-04-16T11:12:10.001Z</time></trkpt><trkpt lat="45.196168582781276" lon="8.299070736351585"><ele>133.60000000000002</ele><time>2026-04-16T11:12:13.001Z</time></trkpt><trkpt lat="45.19615408222994" lon="8.29916120245169"><ele>133.4</ele><time>2026-04-16T11:12:17.001Z</time></trkpt><trkpt lat="45.19623800877943" lon="8.299234307878693"><ele>133.20000000000002</ele><time>2026-04-16T11:12:19.001Z</time></trkpt><trkpt lat="45.1963061498606" lon="8.299288132067991"><ele>133.0</ele><time>2026-04-16T11:12:21.001Z</time></trkpt><trkpt lat="45.196356020562256" lon="8.299362840839574"><ele>133.0</ele><time>2026-04-16T11:12:29.001Z</time></trkpt><trkpt lat="45.19644936265714" lon="8.29920186108935"><ele>133.0</ele><time>2026-04-16T11:12:31.001Z</time></trkpt><trkpt lat="45.196522515723494" lon="8.299046411554189"><ele>133.0</ele><time>2026-04-16T11:12:33.001Z</time></trkpt><trkpt lat="45.1965643402087" lon="8.298952127530661"><ele>133.0</ele><time>2026-04-16T11:12:34.001Z</time></trkpt><trkpt lat="45.19661224410421" lon="8.298858469066284"><ele>133.0</ele><time>2026-04-16T11:12:35.001Z</time></trkpt><trkpt lat="45.19665217846329" lon="8.298759545160332"><ele>133.0</ele><time>2026-04-16T11:12:36.001Z</time></trkpt><trkpt lat="45.1966841498333" lon="8.298640040458695"><ele>133.0</ele><time>2026-04-16T11:12:37.001Z</time></trkpt><trkpt lat="45.19673283894694" lon="8.29851083294776"><ele>133.0</ele><time>2026-04-16T11:12:38.001Z</time></trkpt><trkpt lat="45.196803116584384" lon="8.298376479989098"><ele>133.0</ele><time>2026-04-16T11:12:39.001Z</time></trkpt><trkpt lat="45.19686828791398" lon="8.298250032001665"><ele>133.0</ele><time>2026-04-16T11:12:40.001Z</time></trkpt><trkpt lat="45.196928274040474" lon="8.298104723973283"><ele>133.4</ele><time>2026-04-16T11:12:41.001Z</time></trkpt><trkpt lat="45.196991044840004" lon="8.297946405451022"><ele>133.8</ele><time>2026-04-16T11:12:42.001Z</time></trkpt><trkpt lat="45.19705341569834" lon="8.297796107789187"><ele>134.2</ele><time>2026-04-16T11:12:43.001Z</time></trkpt><trkpt lat="45.19711034829662" lon="8.297671763142185"><ele>134.6</ele><time>2026-04-16T11:12:44.001Z</time></trkpt><trkpt lat="45.197158588264806" lon="8.297559910209245"><ele>135.0</ele><time>2026-04-16T11:12:45.001Z</time></trkpt><trkpt lat="45.19719587027204" lon="8.29746570275374"><ele>135.0</ele><time>2026-04-16T11:12:46.001Z</time></trkpt><trkpt lat="45.19725125451595" lon="8.297368078878403"><ele>135.0</ele><time>2026-04-16T11:12:48.001Z</time></trkpt><trkpt lat="45.19716038880852" lon="8.297295014960431"><ele>135.0</ele><time>2026-04-16T11:12:53.001Z</time></trkpt><trkpt lat="45.197094528184" lon="8.297277348811102"><ele>135.0</ele><time>2026-04-16T11:12:54.001Z</time></trkpt><trkpt lat="45.197010705542866" lon="8.297258922913523"><ele>135.0</ele><time>2026-04-16T11:12:55.001Z</time></trkpt><trkpt lat="45.196913080101154" lon="8.297239196362952"><ele>135.0</ele><time>2026-04-16T11:12:56.001Z</time></trkpt><trkpt lat="45.196820247830736" lon="8.297233327531288"><ele>135.0</ele><time>2026-04-16T11:12:57.001Z</time></trkpt><trkpt lat="45.19673050860074" lon="8.297212433683939"><ele>135.0</ele><time>2026-04-16T11:12:58.001Z</time></trkpt><trkpt lat="45.196655673199444" lon="8.297198130871413"><ele>135.0</ele><time>2026-04-16T11:12:59.001Z</time></trkpt><trkpt lat="45.196582745561095" lon="8.297177925436868"><ele>135.0</ele><time>2026-04-16T11:13:00.001Z</time></trkpt><trkpt lat="45.19650818359396" lon="8.297157563997091"><ele>135.0</ele><time>2026-04-16T11:13:01.001Z</time></trkpt><trkpt lat="45.19641903614739" lon="8.297129389735641"><ele>135.0</ele><time>2026-04-16T11:13:02.001Z</time></trkpt><trkpt lat="45.19632298558749" lon="8.297111889755659"><ele>135.0</ele><time>2026-04-16T11:13:03.001Z</time></trkpt><trkpt lat="45.19622328401041" lon="8.297096868747705"><ele>135.0</ele><time>2026-04-16T11:13:04.001Z</time></trkpt><trkpt lat="45.19612752560198" lon="8.297073770580958"><ele>135.0</ele><time>2026-04-16T11:13:05.001Z</time></trkpt><trkpt lat="45.196014978410396" lon="8.297036585561166"><ele>135.0</ele><time>2026-04-16T11:13:06.001Z</time></trkpt><trkpt lat="45.19591181981756" lon="8.2969981495633"><ele>135.0</ele><time>2026-04-16T11:13:07.001Z</time></trkpt><trkpt lat="45.19581020048627" lon="8.29697714355939"><ele>135.0</ele><time>2026-04-16T11:13:08.001Z</time></trkpt><trkpt lat="45.19571139538403" lon="8.296956600088695"><ele>135.0</ele><time>2026-04-16T11:13:09.001Z</time></trkpt><trkpt lat="45.19559624389261" lon="8.296936887365622"><ele>135.0</ele><time>2026-04-16T11:13:10.001Z</time></trkpt><trkpt lat="45.19548370864415" lon="8.296904088603087"><ele>135.0</ele><time>2026-04-16T11:13:11.001Z</time></trkpt><trkpt lat="45.195372151060006" lon="8.296871913764084"><ele>135.0</ele><time>2026-04-16T11:13:12.001Z</time></trkpt><trkpt lat="45.195252713679636" lon="8.296832773308578"><ele>135.5</ele><time>2026-04-16T11:13:13.001Z</time></trkpt><trkpt lat="45.19514181254109" lon="8.296808635020792"><ele>136.0</ele><time>2026-04-16T11:13:14.001Z</time></trkpt><trkpt lat="45.19502729632373" lon="8.296783338843312"><ele>136.5</ele><time>2026-04-16T11:13:15.001Z</time></trkpt><trkpt lat="45.194920570546216" lon="8.296756550863947"><ele>137.0</ele><time>2026-04-16T11:13:16.001Z</time></trkpt><trkpt lat="45.194807416197456" lon="8.296763368195988"><ele>137.5</ele><time>2026-04-16T11:13:17.001Z</time></trkpt><trkpt lat="45.19469186099491" lon="8.296727455925144"><ele>138.0</ele><time>2026-04-16T11:13:18.001Z</time></trkpt><trkpt lat="45.19458691066059" lon="8.296683890899043"><ele>138.5</ele><time>2026-04-16T11:13:19.001Z</time></trkpt><trkpt lat="45.19446602366638" lon="8.296669289169333"><ele>139.0</ele><time>2026-04-16T11:13:20.001Z</time></trkpt><trkpt lat="45.19434436505699" lon="8.296641070849544"><ele>139.0</ele><time>2026-04-16T11:13:21.001Z</time></trkpt><trkpt lat="45.1942269008155" lon="8.296614782045193"><ele>139.0</ele><time>2026-04-16T11:13:22.001Z</time></trkpt><trkpt lat="45.19409398761488" lon="8.296585431503502"><ele>139.0</ele><time>2026-04-16T11:13:23.001Z</time></trkpt><trkpt lat="45.193976236046595" lon="8.296541869378114"><ele>139.0</ele><time>2026-04-16T11:13:24.001Z</time></trkpt><trkpt lat="45.19384640886079" lon="8.296546042547424"><ele>138.5</ele><time>2026-04-16T11:13:25.001Z</time></trkpt><trkpt lat="45.1937262830277" lon="8.296512652436586"><ele>138.0</ele><time>2026-04-16T11:13:26.001Z</time></trkpt><trkpt lat="45.19361330268397" lon="8.296465804466573"><ele>137.5</ele><time>2026-04-16T11:13:27.001Z</time></trkpt><trkpt lat="45.19349800719794" lon="8.296450728662826"><ele>137.0</ele><time>2026-04-16T11:13:28.001Z</time></trkpt><trkpt lat="45.19338505887472" lon="8.296416207045324"><ele>137.0</ele><time>2026-04-16T11:13:29.001Z</time></trkpt><trkpt lat="45.193266581842295" lon="8.29640323376453"><ele>137.0</ele><time>2026-04-16T11:13:30.001Z</time></trkpt><trkpt lat="45.193144546115384" lon="8.29637258052895"><ele>137.0</ele><time>2026-04-16T11:13:31.001Z</time></trkpt><trkpt lat="45.19303118489405" lon="8.296347956234724"><ele>137.0</ele><time>2026-04-16T11:13:32.001Z</time></trkpt><trkpt lat="45.19292969758431" lon="8.296310812718367"><ele>136.4</ele><time>2026-04-16T11:13:33.001Z</time></trkpt><trkpt lat="45.19282181458407" lon="8.29627840469751"><ele>135.79999999999998</ele><time>2026-04-16T11:13:34.001Z</time></trkpt><trkpt lat="45.19273037856139" lon="8.296257279992384"><ele>135.2</ele><time>2026-04-16T11:13:35.001Z</time></trkpt><trkpt lat="45.19263922574072" lon="8.29623911171556"><ele>134.6</ele><time>2026-04-16T11:13:36.001Z</time></trkpt><trkpt lat="45.19254060989935" lon="8.296231926317985"><ele>134.0</ele><time>2026-04-16T11:13:37.001Z</time></trkpt><trkpt lat="45.192431077850856" lon="8.296247600335509"><ele>134.0</ele><time>2026-04-16T11:13:38.001Z</time></trkpt><trkpt lat="45.19231213121846" lon="8.29624902804496"><ele>134.0</ele><time>2026-04-16T11:13:39.001Z</time></trkpt><trkpt lat="45.1921892778927" lon="8.296247466666118"><ele>134.0</ele><time>2026-04-16T11:13:40.001Z</time></trkpt><trkpt lat="45.19205830701077" lon="8.296230384946305"><ele>134.0</ele><time>2026-04-16T11:13:41.001Z</time></trkpt><trkpt lat="45.19193165111755" lon="8.29623009868315"><ele>134.0</ele><time>2026-04-16T11:13:42.001Z</time></trkpt><trkpt lat="45.19181005882887" lon="8.296195191945007"><ele>134.0</ele><time>2026-04-16T11:13:43.001Z</time></trkpt><trkpt lat="45.19168240109244" lon="8.296200689629702"><ele>134.0</ele><time>2026-04-16T11:13:44.001Z</time></trkpt><trkpt lat="45.19154558516058" lon="8.296192974945368"><ele>134.0</ele><time>2026-04-16T11:13:45.001Z</time></trkpt><trkpt lat="45.19140505757993" lon="8.296180738655934"><ele>133.33333333333331</ele><time>2026-04-16T11:13:46.001Z</time></trkpt><trkpt lat="45.19125845767766" lon="8.296172354726677"><ele>132.66666666666666</ele><time>2026-04-16T11:13:47.001Z</time></trkpt><trkpt lat="45.19110616793456" lon="8.29616371211851"><ele>132.0</ele><time>2026-04-16T11:13:48.001Z</time></trkpt><trkpt lat="45.190954565407296" lon="8.296150871441286"><ele>132.0</ele><time>2026-04-16T11:13:49.001Z</time></trkpt><trkpt lat="45.19080046818451" lon="8.296143673101202"><ele>132.0</ele><time>2026-04-16T11:13:50.001Z</time></trkpt><trkpt lat="45.19065055905744" lon="8.29613177519228"><ele>132.0</ele><time>2026-04-16T11:13:51.001Z</time></trkpt><trkpt lat="45.19050617237077" lon="8.296125504187904"><ele>132.0</ele><time>2026-04-16T11:13:52.001Z</time></trkpt><trkpt lat="45.19036508096043" lon="8.296116078006996"><ele>132.0</ele><time>2026-04-16T11:13:53.001Z</time></trkpt><trkpt lat="45.19021239571095" lon="8.296107294247149"><ele>132.0</ele><time>2026-04-16T11:13:54.001Z</time></trkpt><trkpt lat="45.190052966569695" lon="8.29609592791316"><ele>132.0</ele><time>2026-04-16T11:13:55.001Z</time></trkpt><trkpt lat="45.189904824510705" lon="8.296081999612808"><ele>131.66666666666666</ele><time>2026-04-16T11:13:56.001Z</time></trkpt><trkpt lat="45.18975166389172" lon="8.296059140347214"><ele>131.33333333333331</ele><time>2026-04-16T11:13:57.001Z</time></trkpt><trkpt lat="45.18959406044818" lon="8.296042447236825"><ele>131.0</ele><time>2026-04-16T11:13:58.001Z</time></trkpt><trkpt lat="45.18943412913124" lon="8.29603676197721"><ele>131.0</ele><time>2026-04-16T11:13:59.001Z</time></trkpt><trkpt lat="45.18926926814202" lon="8.296035452341975"><ele>131.0</ele><time>2026-04-16T11:14:00.001Z</time></trkpt><trkpt lat="45.18909558141177" lon="8.296031380772646"><ele>131.0</ele><time>2026-04-16T11:14:01.001Z</time></trkpt><trkpt lat="45.18892058503235" lon="8.296027301539555"><ele>131.0</ele><time>2026-04-16T11:14:02.001Z</time></trkpt><trkpt lat="45.188744995935004" lon="8.296018734527431"><ele>131.0</ele><time>2026-04-16T11:14:03.001Z</time></trkpt><trkpt lat="45.18856989826607" lon="8.296014136728171"><ele>131.0</ele><time>2026-04-16T11:14:04.001Z</time></trkpt><trkpt lat="45.188393503427136" lon="8.296005186157208"><ele>131.0</ele><time>2026-04-16T11:14:05.001Z</time></trkpt><trkpt lat="45.18823046400919" lon="8.295995209498859"><ele>131.0</ele><time>2026-04-16T11:14:06.001Z</time></trkpt><trkpt lat="45.18807933213055" lon="8.295985729890313"><ele>131.0</ele><time>2026-04-16T11:14:07.001Z</time></trkpt><trkpt lat="45.18794676931517" lon="8.295980029010178"><ele>131.0</ele><time>2026-04-16T11:14:08.001Z</time></trkpt><trkpt lat="45.18781799969427" lon="8.295969088781415"><ele>131.0</ele><time>2026-04-16T11:14:09.001Z</time></trkpt><trkpt lat="45.18770668019068" lon="8.295964660792631"><ele>131.0</ele><time>2026-04-16T11:14:10.001Z</time></trkpt><trkpt lat="45.18761638567605" lon="8.295953561589394"><ele>131.0</ele><time>2026-04-16T11:14:11.001Z</time></trkpt><trkpt lat="45.18753877864534" lon="8.295947301544421"><ele>131.0</ele><time>2026-04-16T11:14:12.001Z</time></trkpt><trkpt lat="45.187470481551664" lon="8.295925607043257"><ele>131.0</ele><time>2026-04-16T11:14:13.001Z</time></trkpt><trkpt lat="45.18732286615069" lon="8.295865906560255"><ele>131.0</ele><time>2026-04-16T11:14:15.001Z</time></trkpt><trkpt lat="45.18721827528258" lon="8.295905700959347"><ele>131.0</ele><time>2026-04-16T11:14:16.001Z</time></trkpt><trkpt lat="45.187113426422734" lon="8.295952215207535"><ele>131.0</ele><time>2026-04-16T11:14:17.001Z</time></trkpt><trkpt lat="45.18697536012255" lon="8.295914962572061"><ele>131.0</ele><time>2026-04-16T11:14:18.001Z</time></trkpt><trkpt lat="45.18683210994542" lon="8.295911253950184"><ele>131.0</ele><time>2026-04-16T11:14:19.001Z</time></trkpt><trkpt lat="45.186684079948314" lon="8.295900965258436"><ele>131.0</ele><time>2026-04-16T11:14:20.001Z</time></trkpt><trkpt lat="45.18652243628374" lon="8.295893905518863"><ele>131.0</ele><time>2026-04-16T11:14:21.001Z</time></trkpt><trkpt lat="45.18637449270537" lon="8.295892772489573"><ele>130.66666666666666</ele><time>2026-04-16T11:14:22.001Z</time></trkpt><trkpt lat="45.186235077923115" lon="8.295882757257392"><ele>130.33333333333334</ele><time>2026-04-16T11:14:23.001Z</time></trkpt><trkpt lat="45.18607843903578" lon="8.295871013476608"><ele>130.0</ele><time>2026-04-16T11:14:24.001Z</time></trkpt><trkpt lat="45.185913472996596" lon="8.295859452318952"><ele>130.0</ele><time>2026-04-16T11:14:25.001Z</time></trkpt><trkpt lat="45.185740331930916" lon="8.295850857944654"><ele>130.0</ele><time>2026-04-16T11:14:26.001Z</time></trkpt><trkpt lat="45.18556234335516" lon="8.295843095723185"><ele>130.0</ele><time>2026-04-16T11:14:27.001Z</time></trkpt><trkpt lat="45.18537829724476" lon="8.295835375686348"><ele>130.33333333333334</ele><time>2026-04-16T11:14:28.001Z</time></trkpt><trkpt lat="45.185193521972856" lon="8.295820879999816"><ele>130.66666666666666</ele><time>2026-04-16T11:14:29.001Z</time></trkpt><trkpt lat="45.18502172407504" lon="8.295806881357262"><ele>131.0</ele><time>2026-04-16T11:14:30.001Z</time></trkpt><trkpt lat="45.1848622046142" lon="8.295803107705037"><ele>131.0</ele><time>2026-04-16T11:14:31.001Z</time></trkpt><trkpt lat="45.18469579091122" lon="8.29579523927989"><ele>131.0</ele><time>2026-04-16T11:14:32.001Z</time></trkpt><trkpt lat="45.18453151001405" lon="8.295786504287571"><ele>131.0</ele><time>2026-04-16T11:14:33.001Z</time></trkpt><trkpt lat="45.18436463306037" lon="8.295777547448814"><ele>131.0</ele><time>2026-04-16T11:14:34.001Z</time></trkpt><trkpt lat="45.18419346763216" lon="8.295762648644162"><ele>131.0</ele><time>2026-04-16T11:14:35.001Z</time></trkpt><trkpt lat="45.18402069285169" lon="8.295752948461491"><ele>131.0</ele><time>2026-04-16T11:14:36.001Z</time></trkpt><trkpt lat="45.18384594565997" lon="8.295742897849745"><ele>129.66666666666666</ele><time>2026-04-16T11:14:37.001Z</time></trkpt><trkpt lat="45.1836710123074" lon="8.29573632387767"><ele>128.33333333333334</ele><time>2026-04-16T11:14:38.001Z</time></trkpt><trkpt lat="45.183490292728685" lon="8.295731489266268"><ele>127.0</ele><time>2026-04-16T11:14:39.001Z</time></trkpt><trkpt lat="45.18330202466196" lon="8.295716749100647"><ele>126.66666666666667</ele><time>2026-04-16T11:14:40.001Z</time></trkpt><trkpt lat="45.183099018702535" lon="8.295685274725896"><ele>126.33333333333334</ele><time>2026-04-16T11:14:41.001Z</time></trkpt><trkpt lat="45.182893976924" lon="8.295661921109142"><ele>126.0</ele><time>2026-04-16T11:14:42.001Z</time></trkpt><trkpt lat="45.18267585768231" lon="8.295647842448645"><ele>126.0</ele><time>2026-04-16T11:14:43.001Z</time></trkpt><trkpt lat="45.18246322012169" lon="8.295636154858837"><ele>126.0</ele><time>2026-04-16T11:14:44.001Z</time></trkpt><trkpt lat="45.18225896421075" lon="8.29563504685081"><ele>126.0</ele><time>2026-04-16T11:14:45.001Z</time></trkpt><trkpt lat="45.18204904734899" lon="8.295634212398914"><ele>126.33333333333334</ele><time>2026-04-16T11:14:46.001Z</time></trkpt><trkpt lat="45.18183447791909" lon="8.295627073721457"><ele>126.66666666666667</ele><time>2026-04-16T11:14:47.001Z</time></trkpt><trkpt lat="45.18161647707167" lon="8.29561775107515"><ele>127.0</ele><time>2026-04-16T11:14:48.001Z</time></trkpt><trkpt lat="45.18139317543879" lon="8.295600879208253"><ele>128.0</ele><time>2026-04-16T11:14:49.001Z</time></trkpt><trkpt lat="45.18116757333498" lon="8.295594403365806"><ele>129.0</ele><time>2026-04-16T11:14:50.001Z</time></trkpt><trkpt lat="45.1809437350778" lon="8.295580888397065"><ele>129.0</ele><time>2026-04-16T11:14:51.001Z</time></trkpt><trkpt lat="45.18071954579652" lon="8.295566991946748"><ele>129.0</ele><time>2026-04-16T11:14:52.001Z</time></trkpt><trkpt lat="45.18049836741907" lon="8.295549185758366"><ele>129.0</ele><time>2026-04-16T11:14:53.001Z</time></trkpt><trkpt lat="45.180274087011" lon="8.295535236346018"><ele>128.33333333333334</ele><time>2026-04-16T11:14:54.001Z</time></trkpt><trkpt lat="45.18005086085509" lon="8.295516431195717"><ele>127.66666666666667</ele><time>2026-04-16T11:14:55.001Z</time></trkpt><trkpt lat="45.17982628074407" lon="8.295485933960066"><ele>127.0</ele><time>2026-04-16T11:14:56.001Z</time></trkpt><trkpt lat="45.17960202049402" lon="8.295443629830068"><ele>127.0</ele><time>2026-04-16T11:14:57.001Z</time></trkpt><trkpt lat="45.1793805668662" lon="8.295379986965726"><ele>127.0</ele><time>2026-04-16T11:14:58.001Z</time></trkpt><trkpt lat="45.179162185225614" lon="8.29528892448617"><ele>127.0</ele><time>2026-04-16T11:14:59.001Z</time></trkpt><trkpt lat="45.17894315040572" lon="8.295184491074338"><ele>127.0</ele><time>2026-04-16T11:15:00.001Z</time></trkpt><trkpt lat="45.178724414163185" lon="8.295072043632382"><ele>127.0</ele><time>2026-04-16T11:15:01.001Z</time></trkpt><trkpt lat="45.17850652747173" lon="8.294960249017151"><ele>127.0</ele><time>2026-04-16T11:15:02.001Z</time></trkpt><trkpt lat="45.178288738070755" lon="8.294854425131875"><ele>127.5</ele><time>2026-04-16T11:15:03.001Z</time></trkpt><trkpt lat="45.17806993208898" lon="8.294748125459723"><ele>128.0</ele><time>2026-04-16T11:15:04.001Z</time></trkpt><trkpt lat="45.17784898287579" lon="8.294643850002794"><ele>128.0</ele><time>2026-04-16T11:15:05.001Z</time></trkpt><trkpt lat="45.17762794328107" lon="8.29453977737944"><ele>128.0</ele><time>2026-04-16T11:15:06.001Z</time></trkpt><trkpt lat="45.177404483056975" lon="8.294430965705397"><ele>128.5</ele><time>2026-04-16T11:15:07.001Z</time></trkpt><trkpt lat="45.17718303844962" lon="8.29432618677847"><ele>129.0</ele><time>2026-04-16T11:15:08.001Z</time></trkpt><trkpt lat="45.17696064439364" lon="8.294217161320057"><ele>129.0</ele><time>2026-04-16T11:15:09.001Z</time></trkpt><trkpt lat="45.176739478640904" lon="8.294106746453267"><ele>129.0</ele><time>2026-04-16T11:15:10.001Z</time></trkpt><trkpt lat="45.17652271005829" lon="8.294000949063948"><ele>128.66666666666666</ele><time>2026-04-16T11:15:11.001Z</time></trkpt><trkpt lat="45.17631398941755" lon="8.29389541775051"><ele>128.33333333333331</ele><time>2026-04-16T11:15:12.001Z</time></trkpt><trkpt lat="45.17612457163862" lon="8.293768706474195"><ele>128.0</ele><time>2026-04-16T11:15:13.001Z</time></trkpt><trkpt lat="45.17595489314543" lon="8.293598645203215"><ele>128.0</ele><time>2026-04-16T11:15:14.001Z</time></trkpt><trkpt lat="45.17581507038219" lon="8.29339039912157"><ele>128.0</ele><time>2026-04-16T11:15:15.001Z</time></trkpt><trkpt lat="45.17567157806173" lon="8.293168386999248"><ele>128.0</ele><time>2026-04-16T11:15:16.001Z</time></trkpt><trkpt lat="45.17554459960715" lon="8.292919264426931"><ele>126.0</ele><time>2026-04-16T11:15:17.001Z</time></trkpt><trkpt lat="45.17540464452141" lon="8.292669266421488"><ele>124.0</ele><time>2026-04-16T11:15:18.001Z</time></trkpt><trkpt lat="45.17526364128616" lon="8.292409370863117"><ele>124.0</ele><time>2026-04-16T11:15:19.001Z</time></trkpt><trkpt lat="45.17511552575541" lon="8.292146051761987"><ele>124.0</ele><time>2026-04-16T11:15:20.001Z</time></trkpt><trkpt lat="45.17496399712876" lon="8.29188038375206"><ele>124.5</ele><time>2026-04-16T11:15:21.001Z</time></trkpt><trkpt lat="45.17480925362864" lon="8.291615082171104"><ele>125.0</ele><time>2026-04-16T11:15:22.001Z</time></trkpt><trkpt lat="45.17465458554066" lon="8.291341330169429"><ele>128.0</ele><time>2026-04-16T11:15:23.001Z</time></trkpt><trkpt lat="45.174499938255096" lon="8.291065386032798"><ele>131.0</ele><time>2026-04-16T11:15:24.001Z</time></trkpt><trkpt lat="45.17434793804662" lon="8.290795792405326"><ele>132.0</ele><time>2026-04-16T11:15:25.001Z</time></trkpt><trkpt lat="45.17419817810296" lon="8.290530712813792"><ele>133.0</ele><time>2026-04-16T11:15:26.001Z</time></trkpt><trkpt lat="45.174051162130425" lon="8.290271487945462"><ele>133.0</ele><time>2026-04-16T11:15:27.001Z</time></trkpt><trkpt lat="45.17390124415038" lon="8.290036845034283"><ele>133.0</ele><time>2026-04-16T11:15:28.001Z</time></trkpt><trkpt lat="45.173744454045355" lon="8.289838755194708"><ele>133.0</ele><time>2026-04-16T11:15:29.001Z</time></trkpt><trkpt lat="45.17357677428484" lon="8.289671438747114"><ele>133.0</ele><time>2026-04-16T11:15:30.001Z</time></trkpt><trkpt lat="45.173396241400084" lon="8.28952256765236"><ele>133.0</ele><time>2026-04-16T11:15:31.001Z</time></trkpt><trkpt lat="45.1732061897767" lon="8.289382001782846"><ele>133.0</ele><time>2026-04-16T11:15:32.001Z</time></trkpt><trkpt lat="45.17301623253655" lon="8.28923435475761"><ele>132.66666666666669</ele><time>2026-04-16T11:15:33.001Z</time></trkpt><trkpt lat="45.172819504259685" lon="8.289086089446407"><ele>132.33333333333334</ele><time>2026-04-16T11:15:34.001Z</time></trkpt><trkpt lat="45.17262372839286" lon="8.288929615045959"><ele>132.0</ele><time>2026-04-16T11:15:35.001Z</time></trkpt><trkpt lat="45.17242186895606" lon="8.288781464304748"><ele>135.0</ele><time>2026-04-16T11:15:36.001Z</time></trkpt><trkpt lat="45.17223101573264" lon="8.28862750726694"><ele>138.0</ele><time>2026-04-16T11:15:37.001Z</time></trkpt><trkpt lat="45.17205167897856" lon="8.288456563166967"><ele>141.0</ele><time>2026-04-16T11:15:38.001Z</time></trkpt><trkpt lat="45.171909613715" lon="8.288263170162306"><ele>141.66666666666666</ele><time>2026-04-16T11:15:39.001Z</time></trkpt><trkpt lat="45.17178610490789" lon="8.288060594250942"><ele>142.33333333333331</ele><time>2026-04-16T11:15:40.001Z</time></trkpt><trkpt lat="45.17169703963151" lon="8.287833337996403"><ele>143.0</ele><time>2026-04-16T11:15:41.001Z</time></trkpt><trkpt lat="45.17163656116726" lon="8.28758286151113"><ele>143.0</ele><time>2026-04-16T11:15:42.001Z</time></trkpt><trkpt lat="45.17160140443002" lon="8.287314978715136"><ele>143.0</ele><time>2026-04-16T11:15:43.001Z</time></trkpt><trkpt lat="45.17158305941604" lon="8.287038492750279"><ele>143.0</ele><time>2026-04-16T11:15:44.001Z</time></trkpt><trkpt lat="45.171594986297855" lon="8.2867556651089"><ele>144.66666666666666</ele><time>2026-04-16T11:15:45.001Z</time></trkpt><trkpt lat="45.17163283335646" lon="8.28646648094321"><ele>146.33333333333334</ele><time>2026-04-16T11:15:46.001Z</time></trkpt><trkpt lat="45.17167568633458" lon="8.286175866916194"><ele>148.0</ele><time>2026-04-16T11:15:47.001Z</time></trkpt><trkpt lat="45.17171861923317" lon="8.285889229046285"><ele>148.33333333333334</ele><time>2026-04-16T11:15:48.001Z</time></trkpt><trkpt lat="45.17177378515906" lon="8.285596772585924"><ele>148.66666666666666</ele><time>2026-04-16T11:15:49.001Z</time></trkpt><trkpt lat="45.17182683891676" lon="8.285286444977771"><ele>149.0</ele><time>2026-04-16T11:15:50.001Z</time></trkpt><trkpt lat="45.1718729602249" lon="8.284969145390676"><ele>150.5</ele><time>2026-04-16T11:15:51.001Z</time></trkpt><trkpt lat="45.17188683317782" lon="8.284640332250609"><ele>152.0</ele><time>2026-04-16T11:15:52.001Z</time></trkpt><trkpt lat="45.17189865382243" lon="8.284327305676333"><ele>152.0</ele><time>2026-04-16T11:15:53.001Z</time></trkpt><trkpt lat="45.171928297699246" lon="8.284032228653361"><ele>152.0</ele><time>2026-04-16T11:15:54.001Z</time></trkpt><trkpt lat="45.17199000111358" lon="8.283744419218873"><ele>152.0</ele><time>2026-04-16T11:15:55.001Z</time></trkpt><trkpt lat="45.17206846191004" lon="8.283471259274974"><ele>153.0</ele><time>2026-04-16T11:15:56.001Z</time></trkpt><trkpt lat="45.17216527761425" lon="8.283212547082005"><ele>154.0</ele><time>2026-04-16T11:15:57.001Z</time></trkpt><trkpt lat="45.172300727236916" lon="8.282957282107258"><ele>155.0</ele><time>2026-04-16T11:15:58.001Z</time></trkpt><trkpt lat="45.17244294085694" lon="8.282694911682842"><ele>155.0</ele><time>2026-04-16T11:15:59.001Z</time></trkpt><trkpt lat="45.172582953032375" lon="8.282428821512623"><ele>155.0</ele><time>2026-04-16T11:16:00.001Z</time></trkpt><trkpt lat="45.17271225128203" lon="8.282157092746706"><ele>157.33333333333331</ele><time>2026-04-16T11:16:01.001Z</time></trkpt><trkpt lat="45.17283899805056" lon="8.281893276689608"><ele>159.66666666666666</ele><time>2026-04-16T11:16:02.001Z</time></trkpt><trkpt lat="45.17295829853949" lon="8.281638119516671"><ele>162.0</ele><time>2026-04-16T11:16:03.001Z</time></trkpt><trkpt lat="45.173068694503506" lon="8.281412233863255"><ele>161.0</ele><time>2026-04-16T11:16:04.001Z</time></trkpt><trkpt lat="45.17316420526903" lon="8.28119545890387"><ele>160.0</ele><time>2026-04-16T11:16:05.001Z</time></trkpt><trkpt lat="45.17325406546652" lon="8.2809999953392"><ele>159.0</ele><time>2026-04-16T11:16:06.001Z</time></trkpt><trkpt lat="45.17332190839989" lon="8.280810814421013"><ele>159.0</ele><time>2026-04-16T11:16:07.001Z</time></trkpt><trkpt lat="45.17336587046059" lon="8.280631209608334"><ele>159.0</ele><time>2026-04-16T11:16:08.001Z</time></trkpt><trkpt lat="45.17336982066216" lon="8.280442664925353"><ele>159.0</ele><time>2026-04-16T11:16:09.001Z</time></trkpt><trkpt lat="45.1733459039689" lon="8.280267909902921"><ele>159.0</ele><time>2026-04-16T11:16:10.001Z</time></trkpt><trkpt lat="45.173289359645246" lon="8.280109404917138"><ele>158.6</ele><time>2026-04-16T11:16:11.001Z</time></trkpt><trkpt lat="45.17321097085595" lon="8.279984770048523"><ele>158.2</ele><time>2026-04-16T11:16:12.001Z</time></trkpt><trkpt lat="45.173126294710386" lon="8.279897373567808"><ele>157.79999999999998</ele><time>2026-04-16T11:16:13.001Z</time></trkpt><trkpt lat="45.17302940200064" lon="8.279854783992262"><ele>157.4</ele><time>2026-04-16T11:16:14.001Z</time></trkpt><trkpt lat="45.17294298173876" lon="8.279846793644902"><ele>157.0</ele><time>2026-04-16T11:16:15.001Z</time></trkpt><trkpt lat="45.17286580386561" lon="8.27976199777434"><ele>160.0</ele><time>2026-04-16T11:16:17.001Z</time></trkpt><trkpt lat="45.172846466786176" lon="8.279635881961534"><ele>163.0</ele><time>2026-04-16T11:16:18.001Z</time></trkpt><trkpt lat="45.17282010590132" lon="8.279462652601632"><ele>166.0</ele><time>2026-04-16T11:16:19.001Z</time></trkpt><trkpt lat="45.172803293097125" lon="8.27926542079004"><ele>169.0</ele><time>2026-04-16T11:16:20.001Z</time></trkpt><trkpt lat="45.172797475374935" lon="8.279054181709036"><ele>169.0</ele><time>2026-04-16T11:16:21.001Z</time></trkpt><trkpt lat="45.17278982301743" lon="8.278828214073961"><ele>169.0</ele><time>2026-04-16T11:16:22.001Z</time></trkpt><trkpt lat="45.172783829105825" lon="8.27860213085385"><ele>169.0</ele><time>2026-04-16T11:16:23.001Z</time></trkpt><trkpt lat="45.17277716710004" lon="8.278406194778416"><ele>169.0</ele><time>2026-04-16T11:16:24.001Z</time></trkpt><trkpt lat="45.1727879816127" lon="8.278233361974308"><ele>169.0</ele><time>2026-04-16T11:16:25.001Z</time></trkpt><trkpt lat="45.172814339624864" lon="8.278089381713675"><ele>169.0</ele><time>2026-04-16T11:16:26.001Z</time></trkpt><trkpt lat="45.17288150000906" lon="8.278010619822762"><ele>169.0</ele><time>2026-04-16T11:16:27.001Z</time></trkpt><trkpt lat="45.17297917156077" lon="8.277950785139803"><ele>169.0</ele><time>2026-04-16T11:16:28.001Z</time></trkpt><trkpt lat="45.173085871801206" lon="8.277874409775615"><ele>170.33333333333334</ele><time>2026-04-16T11:16:29.001Z</time></trkpt><trkpt lat="45.173211166494596" lon="8.277801376714601"><ele>171.66666666666666</ele><time>2026-04-16T11:16:30.001Z</time></trkpt><trkpt lat="45.17335871303142" lon="8.277721065318046"><ele>173.0</ele><time>2026-04-16T11:16:31.001Z</time></trkpt><trkpt lat="45.173511736391625" lon="8.277665619134844"><ele>173.0</ele><time>2026-04-16T11:16:32.001Z</time></trkpt><trkpt lat="45.173637033364685" lon="8.277633610252348"><ele>173.0</ele><time>2026-04-16T11:16:33.001Z</time></trkpt><trkpt lat="45.17370366218246" lon="8.277585816533481"><ele>173.0</ele><time>2026-04-16T11:16:34.001Z</time></trkpt><trkpt lat="45.17375259079338" lon="8.277525395900243"><ele>173.0</ele><time>2026-04-16T11:16:35.001Z</time></trkpt><trkpt lat="45.17373027440214" lon="8.277354151500202"><ele>173.0</ele><time>2026-04-16T11:16:37.001Z</time></trkpt><trkpt lat="45.17364300928219" lon="8.277266158124986"><ele>175.75</ele><time>2026-04-16T11:16:38.001Z</time></trkpt><trkpt lat="45.173545947545215" lon="8.27717227048418"><ele>178.5</ele><time>2026-04-16T11:16:39.001Z</time></trkpt><trkpt lat="45.17343785623109" lon="8.277069618590309"><ele>181.25</ele><time>2026-04-16T11:16:40.001Z</time></trkpt><trkpt lat="45.17331240885659" lon="8.276966139182589"><ele>184.0</ele><time>2026-04-16T11:16:41.001Z</time></trkpt><trkpt lat="45.1731950820656" lon="8.27683723550019"><ele>185.25</ele><time>2026-04-16T11:16:42.001Z</time></trkpt><trkpt lat="45.17307442382665" lon="8.27673595767092"><ele>186.5</ele><time>2026-04-16T11:16:43.002Z</time></trkpt><trkpt lat="45.172939110539645" lon="8.276673274041034"><ele>187.75</ele><time>2026-04-16T11:16:44.002Z</time></trkpt><trkpt lat="45.1727838030605" lon="8.276660731297552"><ele>189.0</ele><time>2026-04-16T11:16:45.002Z</time></trkpt><trkpt lat="45.17262063425462" lon="8.27666778375972"><ele>189.0</ele><time>2026-04-16T11:16:46.002Z</time></trkpt><trkpt lat="45.17245150979467" lon="8.276692488812852"><ele>189.0</ele><time>2026-04-16T11:16:47.002Z</time></trkpt><trkpt lat="45.17227567033492" lon="8.276723384773257"><ele>189.0</ele><time>2026-04-16T11:16:48.002Z</time></trkpt><trkpt lat="45.17208846985899" lon="8.276763940193831"><ele>190.66666666666669</ele><time>2026-04-16T11:16:49.002Z</time></trkpt><trkpt lat="45.17191639322662" lon="8.276797620883535"><ele>192.33333333333334</ele><time>2026-04-16T11:16:50.002Z</time></trkpt><trkpt lat="45.17175360392526" lon="8.276821925541615"><ele>194.0</ele><time>2026-04-16T11:16:51.002Z</time></trkpt><trkpt lat="45.17159358158233" lon="8.276848010670149"><ele>199.33333333333334</ele><time>2026-04-16T11:16:52.002Z</time></trkpt><trkpt lat="45.1714441341965" lon="8.276882716343884"><ele>204.66666666666669</ele><time>2026-04-16T11:16:53.002Z</time></trkpt><trkpt lat="45.17130589429796" lon="8.276941744805166"><ele>210.0</ele><time>2026-04-16T11:16:54.002Z</time></trkpt><trkpt lat="45.17118865444377" lon="8.27709423526526"><ele>210.0</ele><time>2026-04-16T11:16:55.002Z</time></trkpt><trkpt lat="45.17106634449921" lon="8.277244212984167"><ele>210.0</ele><time>2026-04-16T11:16:56.002Z</time></trkpt><trkpt lat="45.17093660573701" lon="8.277390189596304"><ele>210.0</ele><time>2026-04-16T11:16:57.002Z</time></trkpt><trkpt lat="45.17081659038968" lon="8.277517480076192"><ele>212.0</ele><time>2026-04-16T11:16:58.002Z</time></trkpt><trkpt lat="45.17072057104499" lon="8.277673369311374"><ele>214.0</ele><time>2026-04-16T11:16:59.002Z</time></trkpt><trkpt lat="45.170652415472354" lon="8.277846724014346"><ele>216.0</ele><time>2026-04-16T11:17:00.002Z</time></trkpt><trkpt lat="45.170587179588736" lon="8.277986351436352"><ele>218.0</ele><time>2026-04-16T11:17:01.002Z</time></trkpt><trkpt lat="45.170499393648335" lon="8.278097881294151"><ele>221.0</ele><time>2026-04-16T11:17:02.002Z</time></trkpt><trkpt lat="45.17039197805512" lon="8.278159191450502"><ele>224.0</ele><time>2026-04-16T11:17:03.002Z</time></trkpt><trkpt lat="45.17028212855012" lon="8.27816054952583"><ele>227.0</ele><time>2026-04-16T11:17:04.002Z</time></trkpt><trkpt lat="45.17016817764561" lon="8.278133038988395"><ele>230.0</ele><time>2026-04-16T11:17:05.002Z</time></trkpt><trkpt lat="45.170042138065924" lon="8.278108758131566"><ele>229.25</ele><time>2026-04-16T11:17:06.002Z</time></trkpt><trkpt lat="45.16991102204647" lon="8.278101497175234"><ele>228.5</ele><time>2026-04-16T11:17:07.002Z</time></trkpt><trkpt lat="45.16977207947681" lon="8.278088147091198"><ele>227.75</ele><time>2026-04-16T11:17:08.002Z</time></trkpt><trkpt lat="45.16963931944095" lon="8.278071643405706"><ele>227.0</ele><time>2026-04-16T11:17:09.002Z</time></trkpt><trkpt lat="45.16951592047707" lon="8.278059588009903"><ele>230.75</ele><time>2026-04-16T11:17:10.002Z</time></trkpt><trkpt lat="45.16940245905031" lon="8.278016963270039"><ele>234.5</ele><time>2026-04-16T11:17:11.002Z</time></trkpt><trkpt lat="45.16928890521572" lon="8.277952911934022"><ele>238.25</ele><time>2026-04-16T11:17:12.002Z</time></trkpt><trkpt lat="45.16916271848697" lon="8.277884685696351"><ele>242.0</ele><time>2026-04-16T11:17:13.002Z</time></trkpt><trkpt lat="45.169039422604996" lon="8.27781608398337"><ele>242.0</ele><time>2026-04-16T11:17:14.002Z</time></trkpt><trkpt lat="45.168901318794994" lon="8.277748035893907"><ele>242.0</ele><time>2026-04-16T11:17:15.002Z</time></trkpt><trkpt lat="45.16874853087164" lon="8.27771280036132"><ele>242.0</ele><time>2026-04-16T11:17:16.002Z</time></trkpt><trkpt lat="45.16859616437999" lon="8.27765348328992"><ele>242.0</ele><time>2026-04-16T11:17:17.002Z</time></trkpt><trkpt lat="45.16841695594397" lon="8.277637492680169"><ele>242.0</ele><time>2026-04-16T11:17:18.002Z</time></trkpt><trkpt lat="45.16826161207596" lon="8.277653625346836"><ele>242.0</ele><time>2026-04-16T11:17:19.002Z</time></trkpt><trkpt lat="45.168074761760764" lon="8.277664178135419"><ele>241.33333333333334</ele><time>2026-04-16T11:17:20.002Z</time></trkpt><trkpt lat="45.167896707758565" lon="8.277674986005511"><ele>240.66666666666669</ele><time>2026-04-16T11:17:21.002Z</time></trkpt><trkpt lat="45.16772520084065" lon="8.277659679491896"><ele>240.0</ele><time>2026-04-16T11:17:22.002Z</time></trkpt><trkpt lat="45.167556088443106" lon="8.277658773449359"><ele>240.0</ele><time>2026-04-16T11:17:23.002Z</time></trkpt><trkpt lat="45.16739946669073" lon="8.277665472337478"><ele>240.0</ele><time>2026-04-16T11:17:24.002Z</time></trkpt><trkpt lat="45.16727412980783" lon="8.277708060386987"><ele>240.0</ele><time>2026-04-16T11:17:25.002Z</time></trkpt><trkpt lat="45.1671645983356" lon="8.27780286061571"><ele>240.0</ele><time>2026-04-16T11:17:26.002Z</time></trkpt><trkpt lat="45.16706154607809" lon="8.277938564402664"><ele>238.33333333333331</ele><time>2026-04-16T11:17:27.002Z</time></trkpt><trkpt lat="45.166958940028366" lon="8.27810391963832"><ele>236.66666666666666</ele><time>2026-04-16T11:17:28.002Z</time></trkpt><trkpt lat="45.16684646189255" lon="8.278279251978613"><ele>235.0</ele><time>2026-04-16T11:17:29.002Z</time></trkpt><trkpt lat="45.166720714133554" lon="8.278465739971605"><ele>235.0</ele><time>2026-04-16T11:17:30.002Z</time></trkpt><trkpt lat="45.166588154598884" lon="8.278654840448178"><ele>235.0</ele><time>2026-04-16T11:17:31.002Z</time></trkpt><trkpt lat="45.16645903641931" lon="8.278845603925747"><ele>235.0</ele><time>2026-04-16T11:17:32.002Z</time></trkpt><trkpt lat="45.16631399396045" lon="8.279026903927559"><ele>236.66666666666666</ele><time>2026-04-16T11:17:33.002Z</time></trkpt><trkpt lat="45.16618776699264" lon="8.279247548940349"><ele>238.33333333333331</ele><time>2026-04-16T11:17:34.002Z</time></trkpt><trkpt lat="45.16606905316972" lon="8.279492288101231"><ele>240.0</ele><time>2026-04-16T11:17:35.002Z</time></trkpt><trkpt lat="45.16593699048147" lon="8.279719810802568"><ele>237.66666666666669</ele><time>2026-04-16T11:17:36.002Z</time></trkpt><trkpt lat="45.16580995479618" lon="8.279922024676726"><ele>235.33333333333334</ele><time>2026-04-16T11:17:37.002Z</time></trkpt><trkpt lat="45.165700048939" lon="8.280123110789743"><ele>233.0</ele><time>2026-04-16T11:17:38.002Z</time></trkpt><trkpt lat="45.1656143341377" lon="8.280331045838942"><ele>240.0</ele><time>2026-04-16T11:17:39.002Z</time></trkpt><trkpt lat="45.16554123909174" lon="8.280544610231653"><ele>247.0</ele><time>2026-04-16T11:17:40.002Z</time></trkpt><trkpt lat="45.165465434627706" lon="8.280774638776808"><ele>254.0</ele><time>2026-04-16T11:17:41.002Z</time></trkpt><trkpt lat="45.16538990905538" lon="8.281003821115904"><ele>254.0</ele><time>2026-04-16T11:17:42.002Z</time></trkpt><trkpt lat="45.165314363525454" lon="8.281226987910046"><ele>254.0</ele><time>2026-04-16T11:17:43.002Z</time></trkpt><trkpt lat="45.165239410903276" lon="8.281447969641283"><ele>254.0</ele><time>2026-04-16T11:17:44.002Z</time></trkpt><trkpt lat="45.165166467442" lon="8.281636721248669"><ele>257.0</ele><time>2026-04-16T11:17:45.002Z</time></trkpt><trkpt lat="45.165091382052815" lon="8.281773636825505"><ele>260.0</ele><time>2026-04-16T11:17:46.002Z</time></trkpt><trkpt lat="45.16500620346666" lon="8.281866365485715"><ele>263.0</ele><time>2026-04-16T11:17:47.002Z</time></trkpt><trkpt lat="45.164898372469885" lon="8.281923355838817"><ele>266.0</ele><time>2026-04-16T11:17:48.002Z</time></trkpt><trkpt lat="45.16477438464805" lon="8.281945816008552"><ele>266.0</ele><time>2026-04-16T11:17:49.002Z</time></trkpt><trkpt lat="45.16464461334119" lon="8.281958572967179"><ele>266.0</ele><time>2026-04-16T11:17:50.002Z</time></trkpt><trkpt lat="45.164527720535496" lon="8.282024911279358"><ele>266.0</ele><time>2026-04-16T11:17:51.002Z</time></trkpt><trkpt lat="45.164431040871655" lon="8.282134178423947"><ele>266.0</ele><time>2026-04-16T11:17:52.002Z</time></trkpt><trkpt lat="45.164344446238786" lon="8.28225863271421"><ele>262.5</ele><time>2026-04-16T11:17:53.002Z</time></trkpt><trkpt lat="45.164264017043834" lon="8.282414501300206"><ele>259.0</ele><time>2026-04-16T11:17:54.002Z</time></trkpt><trkpt lat="45.16421174306105" lon="8.28256466805423"><ele>255.5</ele><time>2026-04-16T11:17:55.002Z</time></trkpt><trkpt lat="45.16419089931347" lon="8.282725899087083"><ele>252.0</ele><time>2026-04-16T11:17:56.002Z</time></trkpt><trkpt lat="45.164209430902226" lon="8.282869241776648"><ele>252.0</ele><time>2026-04-16T11:17:57.002Z</time></trkpt><trkpt lat="45.164264490124125" lon="8.28300087267188"><ele>252.0</ele><time>2026-04-16T11:17:58.002Z</time></trkpt><trkpt lat="45.16436837837335" lon="8.283087302391177"><ele>252.0</ele><time>2026-04-16T11:17:59.002Z</time></trkpt><trkpt lat="45.16448639652301" lon="8.283120076007156"><ele>252.0</ele><time>2026-04-16T11:18:00.002Z</time></trkpt><trkpt lat="45.164599229606026" lon="8.283208141065318"><ele>251.0</ele><time>2026-04-16T11:18:01.002Z</time></trkpt><trkpt lat="45.1647207544482" lon="8.283302070856067"><ele>250.0</ele><time>2026-04-16T11:18:02.002Z</time></trkpt><trkpt lat="45.1648498440468" lon="8.28341840175802"><ele>249.0</ele><time>2026-04-16T11:18:03.002Z</time></trkpt><trkpt lat="45.164984098733434" lon="8.283540165981012"><ele>248.5</ele><time>2026-04-16T11:18:04.002Z</time></trkpt><trkpt lat="45.165118747358214" lon="8.283656639489115"><ele>248.0</ele><time>2026-04-16T11:18:05.002Z</time></trkpt><trkpt lat="45.16521816832474" lon="8.283791515118628"><ele>247.5</ele><time>2026-04-16T11:18:06.002Z</time></trkpt><trkpt lat="45.16530202493919" lon="8.283922283467877"><ele>247.0</ele><time>2026-04-16T11:18:07.002Z</time></trkpt><trkpt lat="45.16534233479057" lon="8.284068329160013"><ele>247.0</ele><time>2026-04-16T11:18:08.002Z</time></trkpt><trkpt lat="45.16535876427129" lon="8.284199912000064"><ele>247.0</ele><time>2026-04-16T11:18:09.002Z</time></trkpt><trkpt lat="45.16535050099681" lon="8.28433849846551"><ele>247.0</ele><time>2026-04-16T11:18:10.002Z</time></trkpt><trkpt lat="45.16531603339332" lon="8.28446708329821"><ele>247.0</ele><time>2026-04-16T11:18:11.002Z</time></trkpt><trkpt lat="45.165270235575086" lon="8.284564478083027"><ele>247.0</ele><time>2026-04-16T11:18:12.002Z</time></trkpt><trkpt lat="45.16516188969083" lon="8.284599621866075"><ele>247.0</ele><time>2026-04-16T11:18:13.002Z</time></trkpt><trkpt lat="45.16503348516123" lon="8.28462418945894"><ele>247.0</ele><time>2026-04-16T11:18:14.002Z</time></trkpt><trkpt lat="45.164894652444694" lon="8.28470467463061"><ele>247.0</ele><time>2026-04-16T11:18:15.002Z</time></trkpt><trkpt lat="45.16474987771204" lon="8.284771015429259"><ele>247.0</ele><time>2026-04-16T11:18:16.002Z</time></trkpt><trkpt lat="45.16462653305473" lon="8.284910552138143"><ele>249.5</ele><time>2026-04-16T11:18:17.002Z</time></trkpt><trkpt lat="45.164539222623105" lon="8.285073072186194"><ele>252.0</ele><time>2026-04-16T11:18:18.002Z</time></trkpt><trkpt lat="45.16448148424102" lon="8.28525398987574"><ele>254.5</ele><time>2026-04-16T11:18:19.002Z</time></trkpt><trkpt lat="45.16444624778258" lon="8.28545617168826"><ele>257.0</ele><time>2026-04-16T11:18:20.002Z</time></trkpt><trkpt lat="45.16440987185356" lon="8.285652279413789"><ele>257.0</ele><time>2026-04-16T11:18:21.002Z</time></trkpt><trkpt lat="45.164356713087166" lon="8.28583323857183"><ele>257.0</ele><time>2026-04-16T11:18:22.002Z</time></trkpt><trkpt lat="45.16428738919968" lon="8.285990853716136"><ele>257.0</ele><time>2026-04-16T11:18:23.002Z</time></trkpt><trkpt lat="45.164211147155164" lon="8.286122480296777"><ele>257.0</ele><time>2026-04-16T11:18:24.002Z</time></trkpt><trkpt lat="45.16414082965237" lon="8.286224577434453"><ele>257.0</ele><time>2026-04-16T11:18:25.002Z</time></trkpt><trkpt lat="45.16407019899479" lon="8.286290240039559"><ele>257.0</ele><time>2026-04-16T11:18:26.002Z</time></trkpt><trkpt lat="45.16397413956818" lon="8.286354666862966"><ele>257.0</ele><time>2026-04-16T11:18:27.002Z</time></trkpt><trkpt lat="45.16385374246937" lon="8.286429403433774"><ele>257.0</ele><time>2026-04-16T11:18:28.002Z</time></trkpt><trkpt lat="45.16373020267963" lon="8.28649249692381"><ele>256.5</ele><time>2026-04-16T11:18:29.002Z</time></trkpt><trkpt lat="45.163600354982066" lon="8.28657347135007"><ele>256.0</ele><time>2026-04-16T11:18:30.002Z</time></trkpt><trkpt lat="45.163463798807925" lon="8.286624452824453"><ele>255.5</ele><time>2026-04-16T11:18:31.002Z</time></trkpt><trkpt lat="45.16333726523133" lon="8.286685915067803"><ele>255.0</ele><time>2026-04-16T11:18:32.002Z</time></trkpt><trkpt lat="45.16320951883833" lon="8.28674417925582"><ele>254.5</ele><time>2026-04-16T11:18:33.002Z</time></trkpt><trkpt lat="45.16309032376024" lon="8.286810620615059"><ele>254.0</ele><time>2026-04-16T11:18:34.002Z</time></trkpt><trkpt lat="45.16297233749057" lon="8.286870531080513"><ele>253.5</ele><time>2026-04-16T11:18:35.002Z</time></trkpt><trkpt lat="45.16286053416449" lon="8.286931037686992"><ele>253.0</ele><time>2026-04-16T11:18:36.002Z</time></trkpt><trkpt lat="45.162757927574425" lon="8.2869905545646"><ele>252.99999999999997</ele><time>2026-04-16T11:18:37.002Z</time></trkpt><trkpt lat="45.16265884430752" lon="8.287050052235"><ele>253.0</ele><time>2026-04-16T11:18:38.002Z</time></trkpt><trkpt lat="45.16257523480397" lon="8.287097113720357"><ele>253.0</ele><time>2026-04-16T11:18:39.002Z</time></trkpt><trkpt lat="45.16249910869421" lon="8.287125612716476"><ele>253.0</ele><time>2026-04-16T11:18:40.002Z</time></trkpt><trkpt lat="45.162434067292" lon="8.287141384362306"><ele>252.99999999999997</ele><time>2026-04-16T11:18:41.002Z</time></trkpt><trkpt lat="45.16236255789778" lon="8.287172253287029"><ele>253.0</ele><time>2026-04-16T11:18:43.002Z</time></trkpt><trkpt lat="45.16227678069161" lon="8.287228562599966"><ele>249.4</ele><time>2026-04-16T11:18:47.002Z</time></trkpt><trkpt lat="45.162249297695794" lon="8.287358137721059"><ele>245.8</ele><time>2026-04-16T11:18:48.002Z</time></trkpt><trkpt lat="45.16221720249362" lon="8.287456365375865"><ele>242.2</ele><time>2026-04-16T11:18:49.002Z</time></trkpt><trkpt lat="45.16218125373484" lon="8.287558498362124"><ele>238.6</ele><time>2026-04-16T11:18:50.002Z</time></trkpt><trkpt lat="45.16214425362342" lon="8.287681118538558"><ele>235.0</ele><time>2026-04-16T11:18:51.002Z</time></trkpt><trkpt lat="45.162101166878" lon="8.287820145751686"><ele>235.0</ele><time>2026-04-16T11:18:52.002Z</time></trkpt><trkpt lat="45.16205148206164" lon="8.287976916486432"><ele>235.0</ele><time>2026-04-16T11:18:53.002Z</time></trkpt><trkpt lat="45.16199905798959" lon="8.288143530341944"><ele>235.0</ele><time>2026-04-16T11:18:54.002Z</time></trkpt><trkpt lat="45.16194985322554" lon="8.288305202978377"><ele>235.0</ele><time>2026-04-16T11:18:55.002Z</time></trkpt><trkpt lat="45.16190583766981" lon="8.288461987048578"><ele>234.0</ele><time>2026-04-16T11:18:56.002Z</time></trkpt><trkpt lat="45.161860322150595" lon="8.288626258603419"><ele>233.0</ele><time>2026-04-16T11:18:57.002Z</time></trkpt><trkpt lat="45.16181173187852" lon="8.288801483748498"><ele>232.0</ele><time>2026-04-16T11:18:58.002Z</time></trkpt><trkpt lat="45.161762975180416" lon="8.288982043361226"><ele>231.0</ele><time>2026-04-16T11:18:59.002Z</time></trkpt><trkpt lat="45.16170770894011" lon="8.289163043115547"><ele>230.5</ele><time>2026-04-16T11:19:00.002Z</time></trkpt><trkpt lat="45.161652138285305" lon="8.28934985339317"><ele>230.0</ele><time>2026-04-16T11:19:01.002Z</time></trkpt><trkpt lat="45.16159551605824" lon="8.289538113031098"><ele>229.5</ele><time>2026-04-16T11:19:02.002Z</time></trkpt><trkpt lat="45.16154486659259" lon="8.28971792521676"><ele>229.0</ele><time>2026-04-16T11:19:03.002Z</time></trkpt><trkpt lat="45.16149241836999" lon="8.289889931159786"><ele>227.75</ele><time>2026-04-16T11:19:04.002Z</time></trkpt><trkpt lat="45.161433271464055" lon="8.290052514630409"><ele>226.5</ele><time>2026-04-16T11:19:05.002Z</time></trkpt><trkpt lat="45.16136245737427" lon="8.290193215173053"><ele>225.25</ele><time>2026-04-16T11:19:06.002Z</time></trkpt><trkpt lat="45.16127022517187" lon="8.290298170409118"><ele>224.0</ele><time>2026-04-16T11:19:07.002Z</time></trkpt><trkpt lat="45.16115346593531" lon="8.29036197347273"><ele>224.0</ele><time>2026-04-16T11:19:08.002Z</time></trkpt><trkpt lat="45.16102113587069" lon="8.290400050929797"><ele>224.0</ele><time>2026-04-16T11:19:09.002Z</time></trkpt><trkpt lat="45.16088262881216" lon="8.29045215631226"><ele>224.0</ele><time>2026-04-16T11:19:10.002Z</time></trkpt><trkpt lat="45.160752974185584" lon="8.290510501505445"><ele>224.0</ele><time>2026-04-16T11:19:11.002Z</time></trkpt><trkpt lat="45.160636543755594" lon="8.2905829561315"><ele>223.25</ele><time>2026-04-16T11:19:12.002Z</time></trkpt><trkpt lat="45.16051447712639" lon="8.290669316780157"><ele>222.5</ele><time>2026-04-16T11:19:13.002Z</time></trkpt><trkpt lat="45.16039362045109" lon="8.290765148064095"><ele>221.75</ele><time>2026-04-16T11:19:14.002Z</time></trkpt><trkpt lat="45.160279651337895" lon="8.290875240995861"><ele>221.0</ele><time>2026-04-16T11:19:15.002Z</time></trkpt><trkpt lat="45.16017028682061" lon="8.29099140288628"><ele>221.0</ele><time>2026-04-16T11:19:16.002Z</time></trkpt><trkpt lat="45.16007979149972" lon="8.291115951880128"><ele>221.00000000000003</ele><time>2026-04-16T11:19:17.002Z</time></trkpt><trkpt lat="45.160005724802865" lon="8.29124119985133"><ele>221.00000000000003</ele><time>2026-04-16T11:19:18.002Z</time></trkpt><trkpt lat="45.15994549375959" lon="8.29135132871155"><ele>221.0</ele><time>2026-04-16T11:19:19.002Z</time></trkpt><trkpt lat="45.159893384283386" lon="8.291447428554923"><ele>221.0</ele><time>2026-04-16T11:19:20.002Z</time></trkpt><trkpt lat="45.15984726891629" lon="8.291530378405616"><ele>220.8</ele><time>2026-04-16T11:19:21.002Z</time></trkpt><trkpt lat="45.15979733985549" lon="8.29159436079806"><ele>220.60000000000002</ele><time>2026-04-16T11:19:22.002Z</time></trkpt><trkpt lat="45.15967784154672" lon="8.291664425299972"><ele>220.4</ele><time>2026-04-16T11:19:24.002Z</time></trkpt><trkpt lat="45.15957808789004" lon="8.291654127574434"><ele>220.2</ele><time>2026-04-16T11:19:25.002Z</time></trkpt><trkpt lat="45.15943801786059" lon="8.291628828045685"><ele>220.0</ele><time>2026-04-16T11:19:26.002Z</time></trkpt><trkpt lat="45.15928758849966" lon="8.291644296385172"><ele>220.0</ele><time>2026-04-16T11:19:27.002Z</time></trkpt><trkpt lat="45.1591325880561" lon="8.291664457150226"><ele>220.0</ele><time>2026-04-16T11:19:28.002Z</time></trkpt><trkpt lat="45.15898776540127" lon="8.291679441280536"><ele>220.0</ele><time>2026-04-16T11:19:29.002Z</time></trkpt><trkpt lat="45.15884595254214" lon="8.291711013886522"><ele>220.0</ele><time>2026-04-16T11:19:30.002Z</time></trkpt><trkpt lat="45.15869253895677" lon="8.291763582643501"><ele>217.0</ele><time>2026-04-16T11:19:31.002Z</time></trkpt><trkpt lat="45.158538338447684" lon="8.29184046126556"><ele>214.0</ele><time>2026-04-16T11:19:32.002Z</time></trkpt><trkpt lat="45.15838286535429" lon="8.291930054768239"><ele>211.0</ele><time>2026-04-16T11:19:33.002Z</time></trkpt><trkpt lat="45.15822477018938" lon="8.292015078006344"><ele>212.33333333333331</ele><time>2026-04-16T11:19:34.002Z</time></trkpt><trkpt lat="45.15806693948051" lon="8.292100546051952"><ele>213.66666666666669</ele><time>2026-04-16T11:19:35.002Z</time></trkpt><trkpt lat="45.15791006965362" lon="8.292189336235175"><ele>215.0</ele><time>2026-04-16T11:19:36.002Z</time></trkpt><trkpt lat="45.157753302561034" lon="8.292280577527421"><ele>215.0</ele><time>2026-04-16T11:19:37.002Z</time></trkpt><trkpt lat="45.15759759024077" lon="8.29237730542719"><ele>215.0</ele><time>2026-04-16T11:19:38.002Z</time></trkpt><trkpt lat="45.15744554235655" lon="8.292489673198599"><ele>215.0</ele><time>2026-04-16T11:19:39.002Z</time></trkpt><trkpt lat="45.157297814640806" lon="8.292602632970624"><ele>212.66666666666669</ele><time>2026-04-16T11:19:40.002Z</time></trkpt><trkpt lat="45.157154477041665" lon="8.292713607366911"><ele>210.33333333333331</ele><time>2026-04-16T11:19:41.002Z</time></trkpt><trkpt lat="45.15701381321668" lon="8.292820433636583"><ele>208.0</ele><time>2026-04-16T11:19:42.002Z</time></trkpt><trkpt lat="45.156870113743864" lon="8.292912889474428"><ele>208.0</ele><time>2026-04-16T11:19:43.002Z</time></trkpt><trkpt lat="45.15671509763502" lon="8.292969180071369"><ele>208.0</ele><time>2026-04-16T11:19:44.002Z</time></trkpt><trkpt lat="45.156555366563424" lon="8.293007740510337"><ele>208.0</ele><time>2026-04-16T11:19:45.002Z</time></trkpt><trkpt lat="45.15639139039902" lon="8.29301703988264"><ele>205.33333333333331</ele><time>2026-04-16T11:19:46.002Z</time></trkpt><trkpt lat="45.15621856915532" lon="8.293022284892709"><ele>202.66666666666669</ele><time>2026-04-16T11:19:47.002Z</time></trkpt><trkpt lat="45.156039798086056" lon="8.29302073051196"><ele>200.0</ele><time>2026-04-16T11:19:48.002Z</time></trkpt><trkpt lat="45.15586207301018" lon="8.293022635704432"><ele>199.0</ele><time>2026-04-16T11:19:49.002Z</time></trkpt><trkpt lat="45.155681811977736" lon="8.293028804114336"><ele>198.0</ele><time>2026-04-16T11:19:50.002Z</time></trkpt><trkpt lat="45.155511625724564" lon="8.293035434418364"><ele>197.0</ele><time>2026-04-16T11:19:51.002Z</time></trkpt><trkpt lat="45.1553396242164" lon="8.293038365849164"><ele>197.0</ele><time>2026-04-16T11:19:52.002Z</time></trkpt><trkpt lat="45.155163876398845" lon="8.293026663611169"><ele>197.0</ele><time>2026-04-16T11:19:53.002Z</time></trkpt><trkpt lat="45.15499055562869" lon="8.293006664860735"><ele>197.0</ele><time>2026-04-16T11:19:54.002Z</time></trkpt><trkpt lat="45.15482389635996" lon="8.292974490972082"><ele>196.66666666666669</ele><time>2026-04-16T11:19:55.002Z</time></trkpt><trkpt lat="45.15466441214786" lon="8.29293827592968"><ele>196.33333333333331</ele><time>2026-04-16T11:19:56.002Z</time></trkpt><trkpt lat="45.154513563103535" lon="8.292897378201385"><ele>196.0</ele><time>2026-04-16T11:19:57.002Z</time></trkpt><trkpt lat="45.15437247674671" lon="8.29287350063488"><ele>196.0</ele><time>2026-04-16T11:19:58.002Z</time></trkpt><trkpt lat="45.154239327768735" lon="8.292872178380867"><ele>196.0</ele><time>2026-04-16T11:19:59.002Z</time></trkpt><trkpt lat="45.15411513673585" lon="8.292895154696348"><ele>196.0</ele><time>2026-04-16T11:20:00.002Z</time></trkpt><trkpt lat="45.15399307252639" lon="8.292950561123195"><ele>196.0</ele><time>2026-04-16T11:20:01.002Z</time></trkpt><trkpt lat="45.15388759792343" lon="8.293028340933642"><ele>195.49999999999997</ele><time>2026-04-16T11:20:02.002Z</time></trkpt><trkpt lat="45.15379517072428" lon="8.293102231148165"><ele>195.0</ele><time>2026-04-16T11:20:03.002Z</time></trkpt><trkpt lat="45.153716892726564" lon="8.293154864032589"><ele>194.5</ele><time>2026-04-16T11:20:04.002Z</time></trkpt><trkpt lat="45.15363895875947" lon="8.29318875985356"><ele>194.0</ele><time>2026-04-16T11:20:05.002Z</time></trkpt><trkpt lat="45.153560805462" lon="8.293202226043126"><ele>193.49999999999997</ele><time>2026-04-16T11:20:06.002Z</time></trkpt><trkpt lat="45.15348873837211" lon="8.293161325889823"><ele>193.0</ele><time>2026-04-16T11:20:07.002Z</time></trkpt><trkpt lat="45.15342574664839" lon="8.29308242324199"><ele>192.25</ele><time>2026-04-16T11:20:08.002Z</time></trkpt><trkpt lat="45.1533760665505" lon="8.292906392684937"><ele>191.5</ele><time>2026-04-16T11:20:09.002Z</time></trkpt><trkpt lat="45.15335527846517" lon="8.292715228491543"><ele>190.75</ele><time>2026-04-16T11:20:10.002Z</time></trkpt><trkpt lat="45.153359227634596" lon="8.29254156206021"><ele>190.0</ele><time>2026-04-16T11:20:11.002Z</time></trkpt><trkpt lat="45.15340013634249" lon="8.292421142975781"><ele>190.0</ele><time>2026-04-16T11:20:12.002Z</time></trkpt><trkpt lat="45.15345827786898" lon="8.292324661321695"><ele>190.0</ele><time>2026-04-16T11:20:13.002Z</time></trkpt><trkpt lat="45.15349325282171" lon="8.292169397129356"><ele>190.0</ele><time>2026-04-16T11:20:15.002Z</time></trkpt><trkpt lat="45.153496724962714" lon="8.292046942378509"><ele>190.0</ele><time>2026-04-16T11:20:16.002Z</time></trkpt><trkpt lat="45.153428701994564" lon="8.291949922819693"><ele>190.0</ele><time>2026-04-16T11:20:17.002Z</time></trkpt><trkpt lat="45.153353765831646" lon="8.291893226917677"><ele>188.0</ele><time>2026-04-16T11:20:18.002Z</time></trkpt><trkpt lat="45.153260345305675" lon="8.291880328537587"><ele>186.0</ele><time>2026-04-16T11:20:19.002Z</time></trkpt><trkpt lat="45.15316775231604" lon="8.291928405571696"><ele>184.0</ele><time>2026-04-16T11:20:20.002Z</time></trkpt><trkpt lat="45.153111019575626" lon="8.292029342530192"><ele>182.0</ele><time>2026-04-16T11:20:21.002Z</time></trkpt><trkpt lat="45.15305749651882" lon="8.292154299547306"><ele>180.0</ele><time>2026-04-16T11:20:22.002Z</time></trkpt><trkpt lat="45.15300624036827" lon="8.292317112455985"><ele>179.0</ele><time>2026-04-16T11:20:23.002Z</time></trkpt><trkpt lat="45.152944457344866" lon="8.292497927384773"><ele>178.0</ele><time>2026-04-16T11:20:24.002Z</time></trkpt><trkpt lat="45.15286996823434" lon="8.292669045976488"><ele>177.0</ele><time>2026-04-16T11:20:25.002Z</time></trkpt><trkpt lat="45.15280490141333" lon="8.292821012502365"><ele>176.0</ele><time>2026-04-16T11:20:26.002Z</time></trkpt><trkpt lat="45.1527374529871" lon="8.2929867379983"><ele>176.25</ele><time>2026-04-16T11:20:27.002Z</time></trkpt><trkpt lat="45.15265931964025" lon="8.293156626407708"><ele>176.5</ele><time>2026-04-16T11:20:28.002Z</time></trkpt><trkpt lat="45.15256297863355" lon="8.293318775022223"><ele>176.75</ele><time>2026-04-16T11:20:29.002Z</time></trkpt><trkpt lat="45.152458746037745" lon="8.293480516297477"><ele>177.0</ele><time>2026-04-16T11:20:30.002Z</time></trkpt><trkpt lat="45.152349415289216" lon="8.293639912374527"><ele>173.0</ele><time>2026-04-16T11:20:31.002Z</time></trkpt><trkpt lat="45.152238758622374" lon="8.293803580506493"><ele>169.0</ele><time>2026-04-16T11:20:32.002Z</time></trkpt><trkpt lat="45.152132055024474" lon="8.293974167082391"><ele>165.0</ele><time>2026-04-16T11:20:33.002Z</time></trkpt><trkpt lat="45.15203598216604" lon="8.294143439065087"><ele>164.75</ele><time>2026-04-16T11:20:34.002Z</time></trkpt><trkpt lat="45.15194524411341" lon="8.294307687517165"><ele>164.5</ele><time>2026-04-16T11:20:35.002Z</time></trkpt><trkpt lat="45.15185615039843" lon="8.294464529001122"><ele>164.25</ele><time>2026-04-16T11:20:36.002Z</time></trkpt><trkpt lat="45.15176902700023" lon="8.294612832982324"><ele>164.0</ele><time>2026-04-16T11:20:37.002Z</time></trkpt><trkpt lat="45.151686225271284" lon="8.294750789051367"><ele>164.39999999999998</ele><time>2026-04-16T11:20:38.002Z</time></trkpt><trkpt lat="45.15161111791383" lon="8.294873573482556"><ele>164.8</ele><time>2026-04-16T11:20:39.002Z</time></trkpt><trkpt lat="45.15156071986778" lon="8.29496563891983"><ele>165.2</ele><time>2026-04-16T11:20:40.002Z</time></trkpt><trkpt lat="45.15148352001276" lon="8.295036953208728"><ele>165.60000000000002</ele><time>2026-04-16T11:20:42.002Z</time></trkpt><trkpt lat="45.15137121622981" lon="8.295110741111484"><ele>166.0</ele><time>2026-04-16T11:20:44.002Z</time></trkpt><trkpt lat="45.151330979014574" lon="8.295278108047343"><ele>165.0</ele><time>2026-04-16T11:20:45.002Z</time></trkpt><trkpt lat="45.15126416539044" lon="8.295404803786196"><ele>164.0</ele><time>2026-04-16T11:20:46.002Z</time></trkpt><trkpt lat="45.151189208405825" lon="8.295552446054383"><ele>163.0</ele><time>2026-04-16T11:20:47.002Z</time></trkpt><trkpt lat="45.15110097964044" lon="8.295704565406359"><ele>162.0</ele><time>2026-04-16T11:20:48.002Z</time></trkpt><trkpt lat="45.151006929082456" lon="8.295855648026892"><ele>162.0</ele><time>2026-04-16T11:20:49.002Z</time></trkpt><trkpt lat="45.1509203342377" lon="8.295995202340444"><ele>162.0</ele><time>2026-04-16T11:20:50.002Z</time></trkpt><trkpt lat="45.15083476218039" lon="8.296138392226217"><ele>162.0</ele><time>2026-04-16T11:20:51.002Z</time></trkpt><trkpt lat="45.15074494265848" lon="8.29630478828215"><ele>162.0</ele><time>2026-04-16T11:20:52.002Z</time></trkpt><trkpt lat="45.15065718371975" lon="8.296495204219616"><ele>161.33333333333334</ele><time>2026-04-16T11:20:53.002Z</time></trkpt><trkpt lat="45.15057198518762" lon="8.296694306120402"><ele>160.66666666666669</ele><time>2026-04-16T11:20:54.002Z</time></trkpt><trkpt lat="45.15046563640261" lon="8.296887880023306"><ele>160.0</ele><time>2026-04-16T11:20:55.002Z</time></trkpt><trkpt lat="45.150366805380635" lon="8.297091113244809"><ele>160.66666666666669</ele><time>2026-04-16T11:20:56.002Z</time></trkpt><trkpt lat="45.150267654354465" lon="8.29730214375466"><ele>161.33333333333334</ele><time>2026-04-16T11:20:57.002Z</time></trkpt><trkpt lat="45.15017064242707" lon="8.297513494831138"><ele>162.0</ele><time>2026-04-16T11:20:58.002Z</time></trkpt><trkpt lat="45.15007999726065" lon="8.297714293379297"><ele>162.0</ele><time>2026-04-16T11:20:59.002Z</time></trkpt><trkpt lat="45.14999003426619" lon="8.297917262147358"><ele>162.0</ele><time>2026-04-16T11:21:00.002Z</time></trkpt><trkpt lat="45.14989556469756" lon="8.298123854334115"><ele>162.0</ele><time>2026-04-16T11:21:01.002Z</time></trkpt><trkpt lat="45.14979943642777" lon="8.298335643299122"><ele>162.0</ele><time>2026-04-16T11:21:02.002Z</time></trkpt><trkpt lat="45.14970404075435" lon="8.298551573126332"><ele>162.0</ele><time>2026-04-16T11:21:03.002Z</time></trkpt><trkpt lat="45.14960875317455" lon="8.298775246943391"><ele>162.0</ele><time>2026-04-16T11:21:04.002Z</time></trkpt><trkpt lat="45.149508580621834" lon="8.298999763205849"><ele>161.0</ele><time>2026-04-16T11:21:05.002Z</time></trkpt><trkpt lat="45.149406631416134" lon="8.299227583051307"><ele>160.0</ele><time>2026-04-16T11:21:06.002Z</time></trkpt><trkpt lat="45.14930157851876" lon="8.299458695520878"><ele>159.0</ele><time>2026-04-16T11:21:07.002Z</time></trkpt><trkpt lat="45.14919851650245" lon="8.299690557383016"><ele>159.33333333333334</ele><time>2026-04-16T11:21:08.002Z</time></trkpt><trkpt lat="45.14909252233704" lon="8.29992501184267"><ele>159.66666666666669</ele><time>2026-04-16T11:21:09.002Z</time></trkpt><trkpt lat="45.14897938784757" lon="8.30015825800257"><ele>160.0</ele><time>2026-04-16T11:21:10.002Z</time></trkpt><trkpt lat="45.14886619414738" lon="8.30038780615726"><ele>160.0</ele><time>2026-04-16T11:21:11.002Z</time></trkpt><trkpt lat="45.148746309747686" lon="8.300613641221736"><ele>160.0</ele><time>2026-04-16T11:21:12.002Z</time></trkpt><trkpt lat="45.14861958443659" lon="8.300834187821136"><ele>160.0</ele><time>2026-04-16T11:21:13.002Z</time></trkpt><trkpt lat="45.148487560861945" lon="8.30105232684264"><ele>160.0</ele><time>2026-04-16T11:21:14.002Z</time></trkpt><trkpt lat="45.148345848583226" lon="8.301259147594637"><ele>160.0</ele><time>2026-04-16T11:21:15.002Z</time></trkpt><trkpt lat="45.14819973566236" lon="8.301464179759712"><ele>160.0</ele><time>2026-04-16T11:21:16.002Z</time></trkpt><trkpt lat="45.14805235382749" lon="8.301663993462284"><ele>160.33333333333334</ele><time>2026-04-16T11:21:17.002Z</time></trkpt><trkpt lat="45.147899340426186" lon="8.301852288331492"><ele>160.66666666666666</ele><time>2026-04-16T11:21:18.002Z</time></trkpt><trkpt lat="45.14775335555391" lon="8.302034211892504"><ele>161.0</ele><time>2026-04-16T11:21:19.002Z</time></trkpt><trkpt lat="45.14761056257952" lon="8.302205717919458"><ele>160.33333333333331</ele><time>2026-04-16T11:21:20.002Z</time></trkpt><trkpt lat="45.14747176946746" lon="8.302370193918609"><ele>159.66666666666666</ele><time>2026-04-16T11:21:21.002Z</time></trkpt><trkpt lat="45.14734767384058" lon="8.302518851195325"><ele>159.0</ele><time>2026-04-16T11:21:22.002Z</time></trkpt><trkpt lat="45.147244750784004" lon="8.302647927079574"><ele>159.0</ele><time>2026-04-16T11:21:23.002Z</time></trkpt><trkpt lat="45.147166487764494" lon="8.302764259955337"><ele>159.0</ele><time>2026-04-16T11:21:24.002Z</time></trkpt><trkpt lat="45.1470975882495" lon="8.302878291214066"><ele>159.0</ele><time>2026-04-16T11:21:25.002Z</time></trkpt><trkpt lat="45.147072381260244" lon="8.303009240123872"><ele>159.0</ele><time>2026-04-16T11:21:26.002Z</time></trkpt><trkpt lat="45.14695442203153" lon="8.303124172961901"><ele>159.0</ele><time>2026-04-16T11:21:27.002Z</time></trkpt><trkpt lat="45.14686630237149" lon="8.303280826855712"><ele>159.0</ele><time>2026-04-16T11:21:28.002Z</time></trkpt><trkpt lat="45.14677190286078" lon="8.303453863752907"><ele>159.0</ele><time>2026-04-16T11:21:29.002Z</time></trkpt><trkpt lat="45.146668357438365" lon="8.303643276241848"><ele>159.0</ele><time>2026-04-16T11:21:30.002Z</time></trkpt><trkpt lat="45.146577417891955" lon="8.303844809619331"><ele>159.0</ele><time>2026-04-16T11:21:31.002Z</time></trkpt><trkpt lat="45.1464966388102" lon="8.304030233298983"><ele>159.0</ele><time>2026-04-16T11:21:32.002Z</time></trkpt><trkpt lat="45.14642688269478" lon="8.3042365154883"><ele>157.66666666666666</ele><time>2026-04-16T11:21:33.002Z</time></trkpt><trkpt lat="45.14635838293485" lon="8.304460090985595"><ele>156.33333333333331</ele><time>2026-04-16T11:21:34.002Z</time></trkpt><trkpt lat="45.146291732940526" lon="8.304695783012193"><ele>155.0</ele><time>2026-04-16T11:21:35.002Z</time></trkpt><trkpt lat="45.146219675183495" lon="8.304938367583464"><ele>155.0</ele><time>2026-04-16T11:21:36.002Z</time></trkpt><trkpt lat="45.14614071429228" lon="8.305183872523507"><ele>155.0</ele><time>2026-04-16T11:21:37.002Z</time></trkpt><trkpt lat="45.14606423954799" lon="8.305440235013897"><ele>155.0</ele><time>2026-04-16T11:21:38.002Z</time></trkpt><trkpt lat="45.145988553687054" lon="8.30570327354766"><ele>155.0</ele><time>2026-04-16T11:21:39.002Z</time></trkpt><trkpt lat="45.14591340432576" lon="8.305973721283737"><ele>155.0</ele><time>2026-04-16T11:21:40.002Z</time></trkpt><trkpt lat="45.14583309233319" lon="8.30624586179734"><ele>155.0</ele><time>2026-04-16T11:21:41.002Z</time></trkpt><trkpt lat="45.14575375973882" lon="8.306518928420994"><ele>154.33333333333331</ele><time>2026-04-16T11:21:42.002Z</time></trkpt><trkpt lat="45.14567916421193" lon="8.306788211241594"><ele>153.66666666666666</ele><time>2026-04-16T11:21:43.002Z</time></trkpt><trkpt lat="45.14561048788811" lon="8.307035673826087"><ele>153.0</ele><time>2026-04-16T11:21:44.002Z</time></trkpt><trkpt lat="45.145533674131265" lon="8.307272261456488"><ele>153.0</ele><time>2026-04-16T11:21:45.002Z</time></trkpt><trkpt lat="45.14543499375433" lon="8.307492250828034"><ele>153.0</ele><time>2026-04-16T11:21:46.002Z</time></trkpt><trkpt lat="45.145300766905045" lon="8.307672500213593"><ele>153.0</ele><time>2026-04-16T11:21:47.002Z</time></trkpt><trkpt lat="45.14515649067783" lon="8.307851756005979"><ele>153.0</ele><time>2026-04-16T11:21:48.002Z</time></trkpt><trkpt lat="45.145001919282734" lon="8.30804067967222"><ele>153.0</ele><time>2026-04-16T11:21:49.002Z</time></trkpt><trkpt lat="45.14484848499231" lon="8.308249957229942"><ele>153.0</ele><time>2026-04-16T11:21:50.002Z</time></trkpt><trkpt lat="45.14468608689671" lon="8.308444647644667"><ele>154.0</ele><time>2026-04-16T11:21:51.002Z</time></trkpt><trkpt lat="45.14453499939514" lon="8.308622407973113"><ele>155.0</ele><time>2026-04-16T11:21:52.002Z</time></trkpt><trkpt lat="45.144386455215155" lon="8.30879823635264"><ele>156.0</ele><time>2026-04-16T11:21:53.002Z</time></trkpt><trkpt lat="45.14424155807875" lon="8.308975295901776"><ele>156.33333333333334</ele><time>2026-04-16T11:21:54.002Z</time></trkpt><trkpt lat="45.14410876933756" lon="8.3091405879768"><ele>156.66666666666669</ele><time>2026-04-16T11:21:55.002Z</time></trkpt><trkpt lat="45.14398406605539" lon="8.309299180655097"><ele>157.0</ele><time>2026-04-16T11:21:56.002Z</time></trkpt><trkpt lat="45.14387351323505" lon="8.30944222767237"><ele>156.0</ele><time>2026-04-16T11:21:57.002Z</time></trkpt><trkpt lat="45.14378040588177" lon="8.309558029467917"><ele>155.0</ele><time>2026-04-16T11:21:58.002Z</time></trkpt><trkpt lat="45.14370591769096" lon="8.30964819697897"><ele>154.0</ele><time>2026-04-16T11:21:59.002Z</time></trkpt><trkpt lat="45.14365007081469" lon="8.30971585495897"><ele>153.0</ele><time>2026-04-16T11:22:00.002Z</time></trkpt><trkpt lat="45.143569598585515" lon="8.309773662642101"><ele>152.0</ele><time>2026-04-16T11:22:02.002Z</time></trkpt><trkpt lat="45.14347869065547" lon="8.309623973384603"><ele>151.75</ele><time>2026-04-16T11:22:04.002Z</time></trkpt><trkpt lat="45.14342043916448" lon="8.309489255568137"><ele>151.5</ele><time>2026-04-16T11:22:05.002Z</time></trkpt><trkpt lat="45.14334364795233" lon="8.309311660439194"><ele>151.25</ele><time>2026-04-16T11:22:06.002Z</time></trkpt><trkpt lat="45.14324859533884" lon="8.309093331335536"><ele>151.0</ele><time>2026-04-16T11:22:07.002Z</time></trkpt><trkpt lat="45.143129319959954" lon="8.308863749872886"><ele>151.0</ele><time>2026-04-16T11:22:08.002Z</time></trkpt><trkpt lat="45.14304156494737" lon="8.308653536635772"><ele>151.0</ele><time>2026-04-16T11:22:09.002Z</time></trkpt><trkpt lat="45.142951858477076" lon="8.308450935021085"><ele>151.0</ele><time>2026-04-16T11:22:10.002Z</time></trkpt><trkpt lat="45.14285801897783" lon="8.308237310984868"><ele>151.0</ele><time>2026-04-16T11:22:11.002Z</time></trkpt><trkpt lat="45.14276296055615" lon="8.308023976869089"><ele>151.0</ele><time>2026-04-16T11:22:12.002Z</time></trkpt><trkpt lat="45.14268443390261" lon="8.30780694906197"><ele>151.0</ele><time>2026-04-16T11:22:13.002Z</time></trkpt><trkpt lat="45.14260236405972" lon="8.30762102166937"><ele>151.0</ele><time>2026-04-16T11:22:14.002Z</time></trkpt><trkpt lat="45.14252933895031" lon="8.307451404714364"><ele>151.0</ele><time>2026-04-16T11:22:15.002Z</time></trkpt><trkpt lat="45.14247610090129" lon="8.307293254944305"><ele>151.0</ele><time>2026-04-16T11:22:16.002Z</time></trkpt><trkpt lat="45.14246305099583" lon="8.307141136042976"><ele>151.0</ele><time>2026-04-16T11:22:17.002Z</time></trkpt><trkpt lat="45.142477374729886" lon="8.306985290332806"><ele>151.75</ele><time>2026-04-16T11:22:18.002Z</time></trkpt><trkpt lat="45.142569640370546" lon="8.306859619956317"><ele>152.5</ele><time>2026-04-16T11:22:19.002Z</time></trkpt><trkpt lat="45.14266879068539" lon="8.30673190632588"><ele>153.25</ele><time>2026-04-16T11:22:20.002Z</time></trkpt><trkpt lat="45.14274670318216" lon="8.306599581242144"><ele>154.0</ele><time>2026-04-16T11:22:21.002Z</time></trkpt><trkpt lat="45.14277323618979" lon="8.30645426350667"><ele>155.75</ele><time>2026-04-16T11:22:22.002Z</time></trkpt><trkpt lat="45.142774385246824" lon="8.30632049421457"><ele>157.5</ele><time>2026-04-16T11:22:23.002Z</time></trkpt><trkpt lat="45.142773216675714" lon="8.3061677632193"><ele>159.25</ele><time>2026-04-16T11:22:24.002Z</time></trkpt><trkpt lat="45.14274829693622" lon="8.306006673112064"><ele>161.0</ele><time>2026-04-16T11:22:25.002Z</time></trkpt><trkpt lat="45.142718071446055" lon="8.305823954469721"><ele>161.0</ele><time>2026-04-16T11:22:26.002Z</time></trkpt><trkpt lat="45.14268191863367" lon="8.305623366132977"><ele>161.0</ele><time>2026-04-16T11:22:27.002Z</time></trkpt><trkpt lat="45.14263095099207" lon="8.305421711693775"><ele>161.0</ele><time>2026-04-16T11:22:28.002Z</time></trkpt><trkpt lat="45.14254522461633" lon="8.305227413181889"><ele>163.33333333333331</ele><time>2026-04-16T11:22:29.002Z</time></trkpt><trkpt lat="45.14246425159379" lon="8.305024189178933"><ele>165.66666666666666</ele><time>2026-04-16T11:22:30.002Z</time></trkpt><trkpt lat="45.14238368589515" lon="8.304829260158883"><ele>168.0</ele><time>2026-04-16T11:22:31.002Z</time></trkpt><trkpt lat="45.142312464432834" lon="8.304661404970714"><ele>171.0</ele><time>2026-04-16T11:22:32.002Z</time></trkpt><trkpt lat="45.1422590270969" lon="8.304515533132733"><ele>174.0</ele><time>2026-04-16T11:22:33.002Z</time></trkpt><trkpt lat="45.14218097053527" lon="8.30441292532994"><ele>177.0</ele><time>2026-04-16T11:22:34.002Z</time></trkpt><trkpt lat="45.1420591271721" lon="8.304372197051874"><ele>180.0</ele><time>2026-04-16T11:22:35.002Z</time></trkpt><trkpt lat="45.14194144116874" lon="8.304422305940086"><ele>180.0</ele><time>2026-04-16T11:22:36.002Z</time></trkpt><trkpt lat="45.14182715193795" lon="8.304473462579214"><ele>180.0</ele><time>2026-04-16T11:22:37.002Z</time></trkpt><trkpt lat="45.14171662343036" lon="8.304474086588435"><ele>180.0</ele><time>2026-04-16T11:22:38.002Z</time></trkpt><trkpt lat="45.14160374432428" lon="8.304431974496811"><ele>180.0</ele><time>2026-04-16T11:22:39.002Z</time></trkpt><trkpt lat="45.141478520242224" lon="8.30435734194051"><ele>181.66666666666666</ele><time>2026-04-16T11:22:40.002Z</time></trkpt><trkpt lat="45.141345452562625" lon="8.304259795954707"><ele>183.33333333333331</ele><time>2026-04-16T11:22:41.002Z</time></trkpt><trkpt lat="45.14118909217921" lon="8.304195359790247"><ele>185.0</ele><time>2026-04-16T11:22:42.002Z</time></trkpt><trkpt lat="45.14104025718957" lon="8.304082911260615"><ele>185.0</ele><time>2026-04-16T11:22:43.002Z</time></trkpt><trkpt lat="45.14088681837278" lon="8.303984315327913"><ele>185.0</ele><time>2026-04-16T11:22:44.002Z</time></trkpt><trkpt lat="45.14075068356372" lon="8.303910625643365"><ele>185.0</ele><time>2026-04-16T11:22:45.002Z</time></trkpt><trkpt lat="45.14061488533972" lon="8.303861254301449"><ele>191.33333333333331</ele><time>2026-04-16T11:22:46.002Z</time></trkpt><trkpt lat="45.1404658128165" lon="8.303836462715765"><ele>197.66666666666666</ele><time>2026-04-16T11:22:47.002Z</time></trkpt><trkpt lat="45.14031313088863" lon="8.303812235163123"><ele>204.0</ele><time>2026-04-16T11:22:48.002Z</time></trkpt><trkpt lat="45.14014191986657" lon="8.303799841805933"><ele>204.0</ele><time>2026-04-16T11:22:49.002Z</time></trkpt><trkpt lat="45.13996266106737" lon="8.303805016541212"><ele>204.0</ele><time>2026-04-16T11:22:50.002Z</time></trkpt><trkpt lat="45.13978891932914" lon="8.303790444856393"><ele>204.0</ele><time>2026-04-16T11:22:51.002Z</time></trkpt><trkpt lat="45.139620175105094" lon="8.303770514646276"><ele>204.0</ele><time>2026-04-16T11:22:52.002Z</time></trkpt><trkpt lat="45.13946783261538" lon="8.303761840451093"><ele>204.0</ele><time>2026-04-16T11:22:53.002Z</time></trkpt><trkpt lat="45.1393565136897" lon="8.30375798667966"><ele>204.0</ele><time>2026-04-16T11:22:54.002Z</time></trkpt><trkpt lat="45.139263137856624" lon="8.303757779141947"><ele>204.0</ele><time>2026-04-16T11:22:55.002Z</time></trkpt><trkpt lat="45.13917629481725" lon="8.30382955708667"><ele>203.75</ele><time>2026-04-16T11:22:56.002Z</time></trkpt><trkpt lat="45.13911022548641" lon="8.303976500219301"><ele>203.5</ele><time>2026-04-16T11:22:57.002Z</time></trkpt><trkpt lat="45.139065772912005" lon="8.30415448464307"><ele>203.25</ele><time>2026-04-16T11:22:58.002Z</time></trkpt><trkpt lat="45.139015283650686" lon="8.304340369319636"><ele>203.0</ele><time>2026-04-16T11:22:59.002Z</time></trkpt><trkpt lat="45.13896520313661" lon="8.304514965904739"><ele>207.0</ele><time>2026-04-16T11:23:00.002Z</time></trkpt><trkpt lat="45.1389226443149" lon="8.304665927994444"><ele>211.0</ele><time>2026-04-16T11:23:01.002Z</time></trkpt><trkpt lat="45.13889035465091" lon="8.304779864042773"><ele>215.0</ele><time>2026-04-16T11:23:02.002Z</time></trkpt><trkpt lat="45.1388244831701" lon="8.304901067348537"><ele>219.0</ele><time>2026-04-16T11:23:04.002Z</time></trkpt><trkpt lat="45.13871082519101" lon="8.304803696795457"><ele>223.0</ele><time>2026-04-16T11:23:06.002Z</time></trkpt><trkpt lat="45.13868500810019" lon="8.304669390848096"><ele>223.0</ele><time>2026-04-16T11:23:07.002Z</time></trkpt><trkpt lat="45.13865506700419" lon="8.304501858573369"><ele>223.0</ele><time>2026-04-16T11:23:08.002Z</time></trkpt><trkpt lat="45.13862587308729" lon="8.304310357809326"><ele>223.0</ele><time>2026-04-16T11:23:09.002Z</time></trkpt><trkpt lat="45.138627775210836" lon="8.304099886292775"><ele>223.0</ele><time>2026-04-16T11:23:10.002Z</time></trkpt><trkpt lat="45.138641599173475" lon="8.303910845943609"><ele>222.4</ele><time>2026-04-16T11:23:11.002Z</time></trkpt><trkpt lat="45.138656974424926" lon="8.303743417821844"><ele>221.8</ele><time>2026-04-16T11:23:12.002Z</time></trkpt><trkpt lat="45.13866129403605" lon="8.303583980272625"><ele>221.2</ele><time>2026-04-16T11:23:13.002Z</time></trkpt><trkpt lat="45.13864447848676" lon="8.303448349993074"><ele>220.6</ele><time>2026-04-16T11:23:14.002Z</time></trkpt><trkpt lat="45.1385971644823" lon="8.303325392744402"><ele>220.0</ele><time>2026-04-16T11:23:15.002Z</time></trkpt><trkpt lat="45.13851920157086" lon="8.303219414328733"><ele>220.0</ele><time>2026-04-16T11:23:16.002Z</time></trkpt><trkpt lat="45.13841995531898" lon="8.30312793975919"><ele>220.0</ele><time>2026-04-16T11:23:17.002Z</time></trkpt><trkpt lat="45.13831402457767" lon="8.303033019716835"><ele>220.0</ele><time>2026-04-16T11:23:18.002Z</time></trkpt><trkpt lat="45.138200330795826" lon="8.302928671039846"><ele>220.0</ele><time>2026-04-16T11:23:19.002Z</time></trkpt><trkpt lat="45.13808347299386" lon="8.302818681650816"><ele>220.25</ele><time>2026-04-16T11:23:20.002Z</time></trkpt><trkpt lat="45.13797362727631" lon="8.302722149338035"><ele>220.5</ele><time>2026-04-16T11:23:21.002Z</time></trkpt><trkpt lat="45.137868529611765" lon="8.302651448752272"><ele>220.75</ele><time>2026-04-16T11:23:22.002Z</time></trkpt><trkpt lat="45.137755575565635" lon="8.302604237593807"><ele>221.0</ele><time>2026-04-16T11:23:23.002Z</time></trkpt><trkpt lat="45.13764745995273" lon="8.302601334827497"><ele>221.0</ele><time>2026-04-16T11:23:24.002Z</time></trkpt><trkpt lat="45.137556992549676" lon="8.302618695319898"><ele>221.00000000000003</ele><time>2026-04-16T11:23:25.002Z</time></trkpt><trkpt lat="45.13748644908033" lon="8.302637031615465"><ele>221.00000000000003</ele><time>2026-04-16T11:23:26.002Z</time></trkpt><trkpt lat="45.1373687690445" lon="8.302665603313631"><ele>221.0</ele><time>2026-04-16T11:23:28.002Z</time></trkpt><trkpt lat="45.13730445636621" lon="8.302785985015907"><ele>221.0</ele><time>2026-04-16T11:23:29.002Z</time></trkpt><trkpt lat="45.1372284123288" lon="8.302872992419708"><ele>219.8</ele><time>2026-04-16T11:23:30.002Z</time></trkpt><trkpt lat="45.137147766408695" lon="8.30298490328561"><ele>218.60000000000002</ele><time>2026-04-16T11:23:31.002Z</time></trkpt><trkpt lat="45.137055668290955" lon="8.303095188018842"><ele>217.4</ele><time>2026-04-16T11:23:32.002Z</time></trkpt><trkpt lat="45.13699044885672" lon="8.303217124546096"><ele>216.2</ele><time>2026-04-16T11:23:33.002Z</time></trkpt><trkpt lat="45.13692871164404" lon="8.303341940347583"><ele>215.0</ele><time>2026-04-16T11:23:34.002Z</time></trkpt><trkpt lat="45.13685851296646" lon="8.303470112248554"><ele>215.0</ele><time>2026-04-16T11:23:35.002Z</time></trkpt><trkpt lat="45.13678599080385" lon="8.303594907657555"><ele>215.0</ele><time>2026-04-16T11:23:36.002Z</time></trkpt><trkpt lat="45.13670898066961" lon="8.303692241971094"><ele>215.0</ele><time>2026-04-16T11:23:37.002Z</time></trkpt><trkpt lat="45.13662563089218" lon="8.303763536812708"><ele>215.0</ele><time>2026-04-16T11:23:38.002Z</time></trkpt><trkpt lat="45.1365254657226" lon="8.303793445068745"><ele>215.0</ele><time>2026-04-16T11:23:39.002Z</time></trkpt><trkpt lat="45.13641292623006" lon="8.303795063311576"><ele>213.25</ele><time>2026-04-16T11:23:40.002Z</time></trkpt><trkpt lat="45.136282556676214" lon="8.303786597932413"><ele>211.5</ele><time>2026-04-16T11:23:41.002Z</time></trkpt><trkpt lat="45.13614171334936" lon="8.303771184568445"><ele>209.75</ele><time>2026-04-16T11:23:42.002Z</time></trkpt><trkpt lat="45.13599648759108" lon="8.303750681987335"><ele>208.0</ele><time>2026-04-16T11:23:43.002Z</time></trkpt><trkpt lat="45.13585495415291" lon="8.303728610319858"><ele>208.0</ele><time>2026-04-16T11:23:44.002Z</time></trkpt><trkpt lat="45.13572609549914" lon="8.303711437355924"><ele>208.0</ele><time>2026-04-16T11:23:45.002Z</time></trkpt><trkpt lat="45.13562212421792" lon="8.303697451255841"><ele>208.0</ele><time>2026-04-16T11:23:46.002Z</time></trkpt><trkpt lat="45.13555046239784" lon="8.303681675131976"><ele>208.0</ele><time>2026-04-16T11:23:47.002Z</time></trkpt><trkpt lat="45.13547142753693" lon="8.303648984407287"><ele>208.0</ele><time>2026-04-16T11:23:49.002Z</time></trkpt><trkpt lat="45.13538911285211" lon="8.303632603651193"><ele>207.60000000000002</ele><time>2026-04-16T11:24:16.002Z</time></trkpt><trkpt lat="45.13528030896087" lon="8.303566456115426"><ele>207.20000000000002</ele><time>2026-04-16T11:24:18.002Z</time></trkpt><trkpt lat="45.13522596456692" lon="8.303515505162665"><ele>206.8</ele><time>2026-04-16T11:24:19.002Z</time></trkpt><trkpt lat="45.135169940802925" lon="8.303470664864205"><ele>206.4</ele><time>2026-04-16T11:24:20.002Z</time></trkpt><trkpt lat="45.13505197513815" lon="8.303416220035468"><ele>206.0</ele><time>2026-04-16T11:24:22.002Z</time></trkpt><trkpt lat="45.13490928548274" lon="8.303447432962852"><ele>205.20000000000002</ele><time>2026-04-16T11:24:24.002Z</time></trkpt><trkpt lat="45.13483301416512" lon="8.303542263063278"><ele>204.4</ele><time>2026-04-16T11:24:25.002Z</time></trkpt><trkpt lat="45.13474446162849" lon="8.303637229635834"><ele>203.6</ele><time>2026-04-16T11:24:26.002Z</time></trkpt><trkpt lat="45.1346516875854" lon="8.3037263562339"><ele>202.8</ele><time>2026-04-16T11:24:27.002Z</time></trkpt><trkpt lat="45.13455645215718" lon="8.303773156211673"><ele>202.0</ele><time>2026-04-16T11:24:28.002Z</time></trkpt><trkpt lat="45.13446231393446" lon="8.30377972296855"><ele>202.0</ele><time>2026-04-16T11:24:29.002Z</time></trkpt><trkpt lat="45.134380319331406" lon="8.30377816854419"><ele>202.0</ele><time>2026-04-16T11:24:30.002Z</time></trkpt><trkpt lat="45.13429465480879" lon="8.303746639318248"><ele>202.0</ele><time>2026-04-16T11:24:31.002Z</time></trkpt><trkpt lat="45.134209098608444" lon="8.303683081549517"><ele>202.0</ele><time>2026-04-16T11:24:32.002Z</time></trkpt><trkpt lat="45.13412463156682" lon="8.303595249068897"><ele>202.0</ele><time>2026-04-16T11:24:33.002Z</time></trkpt><trkpt lat="45.13406585120099" lon="8.30348223767661"><ele>200.8</ele><time>2026-04-16T11:24:34.002Z</time></trkpt><trkpt lat="45.133994845718505" lon="8.303396354859705"><ele>199.6</ele><time>2026-04-16T11:24:35.002Z</time></trkpt><trkpt lat="45.13392548876964" lon="8.303331084928264"><ele>198.4</ele><time>2026-04-16T11:24:36.002Z</time></trkpt><trkpt lat="45.13384286513406" lon="8.303288063832623"><ele>197.20000000000002</ele><time>2026-04-16T11:24:37.002Z</time></trkpt><trkpt lat="45.133748083792895" lon="8.303286333715722"><ele>196.0</ele><time>2026-04-16T11:24:38.002Z</time></trkpt><trkpt lat="45.13364811166614" lon="8.30332566523433"><ele>196.0</ele><time>2026-04-16T11:24:39.002Z</time></trkpt><trkpt lat="45.13355304840945" lon="8.303396043472656"><ele>196.0</ele><time>2026-04-16T11:24:40.002Z</time></trkpt><trkpt lat="45.13347491022225" lon="8.303489001671663"><ele>196.0</ele><time>2026-04-16T11:24:41.002Z</time></trkpt><trkpt lat="45.133426186564684" lon="8.303606541569952"><ele>196.0</ele><time>2026-04-16T11:24:42.002Z</time></trkpt><trkpt lat="45.133405655449" lon="8.30374081878273"><ele>196.0</ele><time>2026-04-16T11:24:43.002Z</time></trkpt><trkpt lat="45.13341415569933" lon="8.303892331054143"><ele>197.25</ele><time>2026-04-16T11:24:44.002Z</time></trkpt><trkpt lat="45.13339546745694" lon="8.304058030902906"><ele>198.5</ele><time>2026-04-16T11:24:45.002Z</time></trkpt><trkpt lat="45.13340160801528" lon="8.304235787704796"><ele>199.75</ele><time>2026-04-16T11:24:46.002Z</time></trkpt><trkpt lat="45.13338732367513" lon="8.304425788080124"><ele>201.0</ele><time>2026-04-16T11:24:47.002Z</time></trkpt><trkpt lat="45.13336483077092" lon="8.304615723083643"><ele>201.20000000000002</ele><time>2026-04-16T11:24:48.002Z</time></trkpt><trkpt lat="45.13332187372963" lon="8.304786296421167"><ele>201.4</ele><time>2026-04-16T11:24:49.002Z</time></trkpt><trkpt lat="45.13328149531271" lon="8.304944657637023"><ele>201.6</ele><time>2026-04-16T11:24:50.002Z</time></trkpt><trkpt lat="45.133248750171255" lon="8.305081564480504"><ele>201.8</ele><time>2026-04-16T11:24:51.002Z</time></trkpt><trkpt lat="45.1331823632529" lon="8.305169074312545"><ele>202.0</ele><time>2026-04-16T11:24:52.002Z</time></trkpt><trkpt lat="45.13308922743271" lon="8.305198505085322"><ele>202.0</ele><time>2026-04-16T11:24:53.002Z</time></trkpt><trkpt lat="45.13299346553401" lon="8.305209117608443"><ele>202.0</ele><time>2026-04-16T11:24:54.002Z</time></trkpt><trkpt lat="45.13288968165244" lon="8.305225812179271"><ele>202.0</ele><time>2026-04-16T11:24:55.002Z</time></trkpt><trkpt lat="45.13267299815237" lon="8.305187449683627"><ele>202.0</ele><time>2026-04-16T11:24:57.002Z</time></trkpt><trkpt lat="45.13255209148709" lon="8.305168291824176"><ele>202.0</ele><time>2026-04-16T11:24:58.002Z</time></trkpt><trkpt lat="45.13242936020196" lon="8.305153379318009"><ele>202.0</ele><time>2026-04-16T11:24:59.002Z</time></trkpt><trkpt lat="45.13231283583251" lon="8.305136475061149"><ele>202.0</ele><time>2026-04-16T11:25:00.002Z</time></trkpt><trkpt lat="45.13219196856766" lon="8.305090808906462"><ele>202.0</ele><time>2026-04-16T11:25:01.002Z</time></trkpt><trkpt lat="45.13208830681774" lon="8.305014197725404"><ele>201.5</ele><time>2026-04-16T11:25:02.002Z</time></trkpt><trkpt lat="45.13198745014332" lon="8.304927947716173"><ele>201.0</ele><time>2026-04-16T11:25:03.002Z</time></trkpt><trkpt lat="45.131885759398166" lon="8.304843752906196"><ele>200.5</ele><time>2026-04-16T11:25:04.002Z</time></trkpt><trkpt lat="45.13177844197073" lon="8.304748754879087"><ele>200.0</ele><time>2026-04-16T11:25:05.002Z</time></trkpt><trkpt lat="45.13167383546083" lon="8.304665646478561"><ele>199.2</ele><time>2026-04-16T11:25:06.002Z</time></trkpt><trkpt lat="45.13156750090292" lon="8.304595114891972"><ele>198.4</ele><time>2026-04-16T11:25:07.002Z</time></trkpt><trkpt lat="45.131476203337705" lon="8.304510251468633"><ele>197.60000000000002</ele><time>2026-04-16T11:25:08.002Z</time></trkpt><trkpt lat="45.131377235465" lon="8.30445138316359"><ele>196.8</ele><time>2026-04-16T11:25:09.002Z</time></trkpt><trkpt lat="45.13127737880546" lon="8.304413890204511"><ele>196.0</ele><time>2026-04-16T11:25:10.002Z</time></trkpt><trkpt lat="45.13116985457521" lon="8.304382103739558"><ele>196.0</ele><time>2026-04-16T11:25:11.002Z</time></trkpt><trkpt lat="45.131055123675445" lon="8.304373396215535"><ele>196.0</ele><time>2026-04-16T11:25:12.002Z</time></trkpt><trkpt lat="45.13094097121431" lon="8.304345167686376"><ele>196.0</ele><time>2026-04-16T11:25:13.002Z</time></trkpt><trkpt lat="45.130824282813506" lon="8.304314203155476"><ele>196.0</ele><time>2026-04-16T11:25:14.002Z</time></trkpt><trkpt lat="45.13070850154674" lon="8.304275082393103"><ele>196.0</ele><time>2026-04-16T11:25:15.002Z</time></trkpt><trkpt lat="45.130591004724884" lon="8.30423908570564"><ele>196.0</ele><time>2026-04-16T11:25:16.002Z</time></trkpt><trkpt lat="45.130463531322995" lon="8.304229471886758"><ele>196.0</ele><time>2026-04-16T11:25:17.002Z</time></trkpt><trkpt lat="45.13032555478534" lon="8.304234925286845"><ele>196.0</ele><time>2026-04-16T11:25:18.002Z</time></trkpt><trkpt lat="45.13018238291386" lon="8.304250054251774"><ele>196.0</ele><time>2026-04-16T11:25:19.002Z</time></trkpt><trkpt lat="45.13002992885904" lon="8.304245525050414"><ele>196.0</ele><time>2026-04-16T11:25:20.002Z</time></trkpt><trkpt lat="45.129871214410144" lon="8.304263438017847"><ele>196.0</ele><time>2026-04-16T11:25:21.002Z</time></trkpt><trkpt lat="45.12971430235296" lon="8.304254502340338"><ele>196.0</ele><time>2026-04-16T11:25:22.002Z</time></trkpt><trkpt lat="45.12956520649929" lon="8.304227232302217"><ele>196.0</ele><time>2026-04-16T11:25:23.002Z</time></trkpt><trkpt lat="45.12942878856789" lon="8.304188645173348"><ele>196.0</ele><time>2026-04-16T11:25:24.002Z</time></trkpt><trkpt lat="45.129287206481585" lon="8.304148334394533"><ele>196.0</ele><time>2026-04-16T11:25:25.002Z</time></trkpt><trkpt lat="45.12914461289477" lon="8.304108875157171"><ele>195.4</ele><time>2026-04-16T11:25:26.002Z</time></trkpt><trkpt lat="45.12901135701253" lon="8.304062764636395"><ele>194.8</ele><time>2026-04-16T11:25:27.002Z</time></trkpt><trkpt lat="45.1288909239102" lon="8.304018770212638"><ele>194.20000000000002</ele><time>2026-04-16T11:25:28.002Z</time></trkpt><trkpt lat="45.128796172565664" lon="8.30398442276513"><ele>193.60000000000002</ele><time>2026-04-16T11:25:29.002Z</time></trkpt><trkpt lat="45.12872099492958" lon="8.303960539736547"><ele>193.0</ele><time>2026-04-16T11:25:30.002Z</time></trkpt><trkpt lat="45.128621319336474" lon="8.303931386790156"><ele>192.99999999999997</ele><time>2026-04-16T11:25:32.002Z</time></trkpt><trkpt lat="45.12853257328458" lon="8.303958990729402"><ele>193.0</ele><time>2026-04-16T11:28:23.003Z</time></trkpt><trkpt lat="45.12845896007172" lon="8.303961798179971"><ele>193.0</ele><time>2026-04-16T11:28:24.003Z</time></trkpt><trkpt lat="45.128393389038756" lon="8.303963218603137"><ele>193.0</ele><time>2026-04-16T11:28:25.003Z</time></trkpt><trkpt lat="45.12832967254407" lon="8.30394451102821"><ele>192.99999999999997</ele><time>2026-04-16T11:28:26.003Z</time></trkpt><trkpt lat="45.12825395985666" lon="8.30398520678635"><ele>193.0</ele><time>2026-04-16T11:28:27.003Z</time></trkpt><trkpt lat="45.12817464694973" lon="8.304052945700567"><ele>192.5</ele><time>2026-04-16T11:28:28.003Z</time></trkpt><trkpt lat="45.12810565403196" lon="8.30416735544995"><ele>192.0</ele><time>2026-04-16T11:28:29.003Z</time></trkpt><trkpt lat="45.128024494956755" lon="8.304297849423222"><ele>191.5</ele><time>2026-04-16T11:28:30.003Z</time></trkpt><trkpt lat="45.127928189350555" lon="8.304437724898506"><ele>191.0</ele><time>2026-04-16T11:28:31.003Z</time></trkpt><trkpt lat="45.127841809311846" lon="8.304593435277315"><ele>191.0</ele><time>2026-04-16T11:28:32.003Z</time></trkpt><trkpt lat="45.12776187314298" lon="8.30473545854938"><ele>191.0</ele><time>2026-04-16T11:28:33.003Z</time></trkpt><trkpt lat="45.127681526259025" lon="8.304863347623908"><ele>191.0</ele><time>2026-04-16T11:28:34.003Z</time></trkpt><trkpt lat="45.12758817440842" lon="8.304991301853864"><ele>191.0</ele><time>2026-04-16T11:28:35.003Z</time></trkpt><trkpt lat="45.12747675762735" lon="8.30510235597065"><ele>189.0</ele><time>2026-04-16T11:28:36.003Z</time></trkpt><trkpt lat="45.127356521697294" lon="8.305203510503647"><ele>187.0</ele><time>2026-04-16T11:28:37.003Z</time></trkpt><trkpt lat="45.12723143469489" lon="8.305298830099765"><ele>185.0</ele><time>2026-04-16T11:28:38.003Z</time></trkpt><trkpt lat="45.12711916324696" lon="8.30542855863548"><ele>183.0</ele><time>2026-04-16T11:28:39.003Z</time></trkpt><trkpt lat="45.126988219796" lon="8.305531871692722"><ele>183.66666666666666</ele><time>2026-04-16T11:28:40.003Z</time></trkpt><trkpt lat="45.12685411906086" lon="8.3056477756287"><ele>184.33333333333331</ele><time>2026-04-16T11:28:41.003Z</time></trkpt><trkpt lat="45.12671863759164" lon="8.305768627774484"><ele>185.0</ele><time>2026-04-16T11:28:42.003Z</time></trkpt><trkpt lat="45.12657849423131" lon="8.305894090169877"><ele>183.0</ele><time>2026-04-16T11:28:43.003Z</time></trkpt><trkpt lat="45.12643543484065" lon="8.306018927703962"><ele>181.0</ele><time>2026-04-16T11:28:44.003Z</time></trkpt><trkpt lat="45.12629779853316" lon="8.30613747419274"><ele>179.0</ele><time>2026-04-16T11:28:45.003Z</time></trkpt><trkpt lat="45.12615945923741" lon="8.306224856530926"><ele>179.0</ele><time>2026-04-16T11:28:46.003Z</time></trkpt><trkpt lat="45.12604048932994" lon="8.306325155438648"><ele>179.0</ele><time>2026-04-16T11:28:47.003Z</time></trkpt><trkpt lat="45.125921524755896" lon="8.306428670347344"><ele>179.0</ele><time>2026-04-16T11:28:48.003Z</time></trkpt><trkpt lat="45.125797816931026" lon="8.306538003673442"><ele>179.0</ele><time>2026-04-16T11:28:49.003Z</time></trkpt><trkpt lat="45.12566777589962" lon="8.306645957846957"><ele>177.75</ele><time>2026-04-16T11:28:50.003Z</time></trkpt><trkpt lat="45.12553446930561" lon="8.306752222684773"><ele>176.5</ele><time>2026-04-16T11:28:51.003Z</time></trkpt><trkpt lat="45.12540257972867" lon="8.306840412130333"><ele>175.25</ele><time>2026-04-16T11:28:52.003Z</time></trkpt><trkpt lat="45.12526510146168" lon="8.306920653322955"><ele>174.0</ele><time>2026-04-16T11:28:53.003Z</time></trkpt><trkpt lat="45.12513045734505" lon="8.306996545658942"><ele>174.0</ele><time>2026-04-16T11:28:54.003Z</time></trkpt><trkpt lat="45.125001415040444" lon="8.30705947312934"><ele>174.0</ele><time>2026-04-16T11:28:55.003Z</time></trkpt><trkpt lat="45.1248677047142" lon="8.307120018663332"><ele>174.0</ele><time>2026-04-16T11:28:56.003Z</time></trkpt><trkpt lat="45.12473655452386" lon="8.30718086606825"><ele>174.0</ele><time>2026-04-16T11:28:57.003Z</time></trkpt><trkpt lat="45.12460198045425" lon="8.307264541756709"><ele>173.25</ele><time>2026-04-16T11:28:58.003Z</time></trkpt><trkpt lat="45.124470013775436" lon="8.307365592006246"><ele>172.5</ele><time>2026-04-16T11:28:59.003Z</time></trkpt><trkpt lat="45.12434863705954" lon="8.307491097759039"><ele>171.75</ele><time>2026-04-16T11:29:00.003Z</time></trkpt><trkpt lat="45.124239957350596" lon="8.30760360427191"><ele>171.0</ele><time>2026-04-16T11:29:01.003Z</time></trkpt><trkpt lat="45.12412743083987" lon="8.307681968644758"><ele>169.0</ele><time>2026-04-16T11:29:02.003Z</time></trkpt><trkpt lat="45.123990932088724" lon="8.30770704041222"><ele>167.0</ele><time>2026-04-16T11:29:03.003Z</time></trkpt><trkpt lat="45.12384333661927" lon="8.30769760586099"><ele>165.0</ele><time>2026-04-16T11:29:04.003Z</time></trkpt><trkpt lat="45.12370293933684" lon="8.307647995535774"><ele>163.0</ele><time>2026-04-16T11:29:05.003Z</time></trkpt><trkpt lat="45.12357552848074" lon="8.307565153071119"><ele>163.0</ele><time>2026-04-16T11:29:06.003Z</time></trkpt><trkpt lat="45.12345395900282" lon="8.30743192766762"><ele>163.0</ele><time>2026-04-16T11:29:07.003Z</time></trkpt><trkpt lat="45.12333930373339" lon="8.30725995378471"><ele>163.0</ele><time>2026-04-16T11:29:08.003Z</time></trkpt><trkpt lat="45.123221567051736" lon="8.307071032741641"><ele>162.33333333333334</ele><time>2026-04-16T11:29:09.003Z</time></trkpt><trkpt lat="45.123101382377236" lon="8.306887871288698"><ele>161.66666666666666</ele><time>2026-04-16T11:29:10.003Z</time></trkpt><trkpt lat="45.122987158337594" lon="8.30671592336094"><ele>161.0</ele><time>2026-04-16T11:29:11.003Z</time></trkpt><trkpt lat="45.12287259030357" lon="8.306563208286606"><ele>161.0</ele><time>2026-04-16T11:29:12.003Z</time></trkpt><trkpt lat="45.122754998716566" lon="8.30644997801867"><ele>161.0</ele><time>2026-04-16T11:29:13.003Z</time></trkpt><trkpt lat="45.12262271745677" lon="8.30637762439228"><ele>161.0</ele><time>2026-04-16T11:29:14.003Z</time></trkpt><trkpt lat="45.12247382818315" lon="8.306348214845972"><ele>161.0</ele><time>2026-04-16T11:29:15.003Z</time></trkpt><trkpt lat="45.12231937736851" lon="8.30637487180622"><ele>160.0</ele><time>2026-04-16T11:29:16.003Z</time></trkpt><trkpt lat="45.12216687070878" lon="8.30644029976978"><ele>159.0</ele><time>2026-04-16T11:29:17.003Z</time></trkpt><trkpt lat="45.121999850052376" lon="8.306511559559828"><ele>158.0</ele><time>2026-04-16T11:29:18.003Z</time></trkpt><trkpt lat="45.121825173572724" lon="8.306587273689383"><ele>158.0</ele><time>2026-04-16T11:29:19.003Z</time></trkpt><trkpt lat="45.12164237787285" lon="8.306667553564344"><ele>158.0</ele><time>2026-04-16T11:29:20.003Z</time></trkpt><trkpt lat="45.12145313132248" lon="8.306750666386634"><ele>158.0</ele><time>2026-04-16T11:29:21.003Z</time></trkpt><trkpt lat="45.121259206272775" lon="8.306835334105108"><ele>158.0</ele><time>2026-04-16T11:29:22.003Z</time></trkpt><trkpt lat="45.1210621182931" lon="8.306921163660588"><ele>158.0</ele><time>2026-04-16T11:29:23.003Z</time></trkpt><trkpt lat="45.12087867945632" lon="8.30702512296142"><ele>158.0</ele><time>2026-04-16T11:29:24.003Z</time></trkpt><trkpt lat="45.12069318874285" lon="8.30710265572993"><ele>157.33333333333331</ele><time>2026-04-16T11:29:25.003Z</time></trkpt><trkpt lat="45.12050381407744" lon="8.3071837482836"><ele>156.66666666666666</ele><time>2026-04-16T11:29:26.003Z</time></trkpt><trkpt lat="45.120312049185465" lon="8.307266401036152"><ele>156.0</ele><time>2026-04-16T11:29:27.003Z</time></trkpt><trkpt lat="45.120119443713996" lon="8.307351695551384"><ele>155.33333333333334</ele><time>2026-04-16T11:29:28.003Z</time></trkpt><trkpt lat="45.11992192656041" lon="8.30742788319341"><ele>154.66666666666669</ele><time>2026-04-16T11:29:29.003Z</time></trkpt><trkpt lat="45.11972445038286" lon="8.30751005445844"><ele>154.0</ele><time>2026-04-16T11:29:30.003Z</time></trkpt><trkpt lat="45.11952782062251" lon="8.307594545761974"><ele>153.66666666666669</ele><time>2026-04-16T11:29:31.003Z</time></trkpt><trkpt lat="45.11932868579816" lon="8.307683024088215"><ele>153.33333333333334</ele><time>2026-04-16T11:29:32.003Z</time></trkpt><trkpt lat="45.11913021380251" lon="8.307775573419036"><ele>153.0</ele><time>2026-04-16T11:29:33.003Z</time></trkpt><trkpt lat="45.11892957535921" lon="8.307866392566716"><ele>152.33333333333334</ele><time>2026-04-16T11:29:34.003Z</time></trkpt><trkpt lat="45.118728366181195" lon="8.30795347309054"><ele>151.66666666666669</ele><time>2026-04-16T11:29:35.003Z</time></trkpt><trkpt lat="45.11852666245799" lon="8.308042340428788"><ele>151.0</ele><time>2026-04-16T11:29:36.003Z</time></trkpt><trkpt lat="45.11832364384413" lon="8.308135580181988"><ele>149.33333333333334</ele><time>2026-04-16T11:29:37.003Z</time></trkpt><trkpt lat="45.1181224359336" lon="8.308231078111456"><ele>147.66666666666666</ele><time>2026-04-16T11:29:38.003Z</time></trkpt><trkpt lat="45.11791748147561" lon="8.308298255870312"><ele>146.0</ele><time>2026-04-16T11:29:39.003Z</time></trkpt><trkpt lat="45.11771782794037" lon="8.308385359342157"><ele>146.0</ele><time>2026-04-16T11:29:40.003Z</time></trkpt><trkpt lat="45.11752465230171" lon="8.308495674155237"><ele>146.0</ele><time>2026-04-16T11:29:41.003Z</time></trkpt><trkpt lat="45.117330945003395" lon="8.308582244065887"><ele>146.0</ele><time>2026-04-16T11:29:42.003Z</time></trkpt><trkpt lat="45.11713580217313" lon="8.308643466595298"><ele>144.66666666666666</ele><time>2026-04-16T11:29:43.003Z</time></trkpt><trkpt lat="45.11694680570241" lon="8.308725923126733"><ele>143.33333333333334</ele><time>2026-04-16T11:29:44.003Z</time></trkpt><trkpt lat="45.11676444136815" lon="8.308805486171371"><ele>142.0</ele><time>2026-04-16T11:29:45.003Z</time></trkpt><trkpt lat="45.11658744051723" lon="8.30888386111744"><ele>142.33333333333334</ele><time>2026-04-16T11:29:46.003Z</time></trkpt><trkpt lat="45.11641684533283" lon="8.308959729119412"><ele>142.66666666666666</ele><time>2026-04-16T11:29:47.003Z</time></trkpt><trkpt lat="45.116258840936005" lon="8.309051368366369"><ele>143.0</ele><time>2026-04-16T11:29:48.003Z</time></trkpt><trkpt lat="45.11609805886547" lon="8.309107980735973"><ele>143.0</ele><time>2026-04-16T11:29:49.003Z</time></trkpt><trkpt lat="45.11594896539428" lon="8.309173116889452"><ele>143.0</ele><time>2026-04-16T11:29:50.003Z</time></trkpt><trkpt lat="45.11580850496371" lon="8.30923627309678"><ele>143.0</ele><time>2026-04-16T11:29:51.003Z</time></trkpt><trkpt lat="45.11567408243183" lon="8.309296436325344"><ele>143.0</ele><time>2026-04-16T11:29:52.003Z</time></trkpt><trkpt lat="45.11554632851299" lon="8.30935660811524"><ele>142.5</ele><time>2026-04-16T11:29:53.003Z</time></trkpt><trkpt lat="45.115424085037176" lon="8.309412852072844"><ele>142.0</ele><time>2026-04-16T11:29:54.003Z</time></trkpt><trkpt lat="45.11530714927183" lon="8.309461096490878"><ele>141.5</ele><time>2026-04-16T11:29:55.003Z</time></trkpt><trkpt lat="45.11519161254289" lon="8.309513956605999"><ele>141.0</ele><time>2026-04-16T11:29:56.003Z</time></trkpt><trkpt lat="45.11506863989425" lon="8.30956582295545"><ele>141.0</ele><time>2026-04-16T11:29:57.003Z</time></trkpt><trkpt lat="45.11495188837136" lon="8.309619604813538"><ele>141.0</ele><time>2026-04-16T11:29:58.003Z</time></trkpt><trkpt lat="45.11484266377376" lon="8.309668133276304"><ele>141.0</ele><time>2026-04-16T11:29:59.003Z</time></trkpt><trkpt lat="45.11473794287281" lon="8.309715484824004"><ele>141.0</ele><time>2026-04-16T11:30:00.003Z</time></trkpt><trkpt lat="45.11464003205886" lon="8.309762428431348"><ele>141.0</ele><time>2026-04-16T11:30:01.003Z</time></trkpt><trkpt lat="45.11454228981224" lon="8.309789945214122"><ele>141.0</ele><time>2026-04-16T11:30:02.003Z</time></trkpt><trkpt lat="45.114458617673925" lon="8.30982833709708"><ele>141.0</ele><time>2026-04-16T11:30:03.003Z</time></trkpt><trkpt lat="45.11437684004113" lon="8.30986682597688"><ele>141.0</ele><time>2026-04-16T11:30:04.003Z</time></trkpt><trkpt lat="45.11430860161344" lon="8.309900134522364"><ele>141.0</ele><time>2026-04-16T11:30:05.003Z</time></trkpt><trkpt lat="45.11424710923796" lon="8.309926806911049"><ele>141.0</ele><time>2026-04-16T11:30:06.003Z</time></trkpt><trkpt lat="45.11418637824395" lon="8.309954543753376"><ele>141.0</ele><time>2026-04-16T11:30:07.003Z</time></trkpt><trkpt lat="45.114079846528874" lon="8.310005457615077"><ele>141.0</ele><time>2026-04-16T11:30:09.003Z</time></trkpt><trkpt lat="45.11398145460947" lon="8.31003920606773"><ele>141.0</ele><time>2026-04-16T11:30:11.003Z</time></trkpt><trkpt lat="45.11389893834683" lon="8.31007731784132"><ele>141.0</ele><time>2026-04-16T11:30:13.003Z</time></trkpt><trkpt lat="45.11381861716663" lon="8.310088871277916"><ele>141.0</ele><time>2026-04-16T11:30:22.003Z</time></trkpt><trkpt lat="45.113747556095106" lon="8.310112159941303"><ele>141.0</ele><time>2026-04-16T11:30:26.003Z</time></trkpt><trkpt lat="45.11374570022565" lon="8.31031473485315"><ele>141.0</ele><time>2026-04-16T11:30:27.003Z</time></trkpt><trkpt lat="45.11375361765378" lon="8.31041906255951"><ele>141.0</ele><time>2026-04-16T11:30:28.003Z</time></trkpt><trkpt lat="45.11375717332581" lon="8.310620480082425"><ele>141.0</ele><time>2026-04-16T11:30:30.003Z</time></trkpt><trkpt lat="45.11376070640411" lon="8.310751416210536"><ele>141.0</ele><time>2026-04-16T11:30:31.003Z</time></trkpt><trkpt lat="45.11376216650079" lon="8.310898659172057"><ele>141.0</ele><time>2026-04-16T11:30:32.003Z</time></trkpt><trkpt lat="45.113768848577394" lon="8.31106365719653"><ele>141.0</ele><time>2026-04-16T11:30:33.003Z</time></trkpt><trkpt lat="45.11377717283549" lon="8.311241440349178"><ele>141.0</ele><time>2026-04-16T11:30:34.003Z</time></trkpt><trkpt lat="45.11378559014377" lon="8.311423500979116"><ele>141.25</ele><time>2026-04-16T11:30:35.003Z</time></trkpt><trkpt lat="45.11378629853717" lon="8.311589735353252"><ele>141.5</ele><time>2026-04-16T11:30:36.003Z</time></trkpt><trkpt lat="45.11378396282266" lon="8.311744592190848"><ele>141.75</ele><time>2026-04-16T11:30:37.003Z</time></trkpt><trkpt lat="45.11378486418663" lon="8.31190766101557"><ele>142.0</ele><time>2026-04-16T11:30:38.003Z</time></trkpt><trkpt lat="45.113789691099996" lon="8.31207578727095"><ele>141.75</ele><time>2026-04-16T11:30:39.003Z</time></trkpt><trkpt lat="45.1137970830406" lon="8.312249209243808"><ele>141.5</ele><time>2026-04-16T11:30:40.003Z</time></trkpt><trkpt lat="45.113802262687" lon="8.312428433681266"><ele>141.25</ele><time>2026-04-16T11:30:41.003Z</time></trkpt><trkpt lat="45.113805246150726" lon="8.3126140842207"><ele>141.0</ele><time>2026-04-16T11:30:42.003Z</time></trkpt><trkpt lat="45.113807150867316" lon="8.312804800733758"><ele>141.0</ele><time>2026-04-16T11:30:43.003Z</time></trkpt><trkpt lat="45.113809825214034" lon="8.313003471456334"><ele>141.0</ele><time>2026-04-16T11:30:44.003Z</time></trkpt><trkpt lat="45.113812285595984" lon="8.313208014652613"><ele>141.0</ele><time>2026-04-16T11:30:45.003Z</time></trkpt><trkpt lat="45.113817701400905" lon="8.313415625588085"><ele>141.0</ele><time>2026-04-16T11:30:46.003Z</time></trkpt><trkpt lat="45.11382507730377" lon="8.31363019358464"><ele>140.66666666666666</ele><time>2026-04-16T11:30:47.003Z</time></trkpt><trkpt lat="45.11383173720625" lon="8.31384821534921"><ele>140.33333333333331</ele><time>2026-04-16T11:30:48.003Z</time></trkpt><trkpt lat="45.113837264626696" lon="8.31407213891296"><ele>140.0</ele><time>2026-04-16T11:30:49.003Z</time></trkpt><trkpt lat="45.11384489644433" lon="8.314295206169902"><ele>140.25</ele><time>2026-04-16T11:30:50.003Z</time></trkpt><trkpt lat="45.113854742402964" lon="8.314505953257378"><ele>140.5</ele><time>2026-04-16T11:30:51.003Z</time></trkpt><trkpt lat="45.113859702616736" lon="8.314714958170946"><ele>140.75</ele><time>2026-04-16T11:30:52.003Z</time></trkpt><trkpt lat="45.113865167502716" lon="8.314919417805328"><ele>141.0</ele><time>2026-04-16T11:30:53.003Z</time></trkpt><trkpt lat="45.113871250262484" lon="8.31512123807251"><ele>141.0</ele><time>2026-04-16T11:30:54.003Z</time></trkpt><trkpt lat="45.1138785306312" lon="8.31532119268475"><ele>141.0</ele><time>2026-04-16T11:30:55.003Z</time></trkpt><trkpt lat="45.1138832299326" lon="8.315523285621696"><ele>141.0</ele><time>2026-04-16T11:30:56.003Z</time></trkpt><trkpt lat="45.11389135322786" lon="8.315726122625609"><ele>141.0</ele><time>2026-04-16T11:30:57.003Z</time></trkpt><trkpt lat="45.11389709771044" lon="8.315930399324115"><ele>141.0</ele><time>2026-04-16T11:30:58.003Z</time></trkpt><trkpt lat="45.11390284083663" lon="8.31613735784889"><ele>141.0</ele><time>2026-04-16T11:30:59.003Z</time></trkpt><trkpt lat="45.113909994954675" lon="8.316347723290088"><ele>141.0</ele><time>2026-04-16T11:31:00.003Z</time></trkpt><trkpt lat="45.113919294877974" lon="8.316559708183203"><ele>141.0</ele><time>2026-04-16T11:31:01.003Z</time></trkpt><trkpt lat="45.11392822109979" lon="8.316765491406288"><ele>140.75</ele><time>2026-04-16T11:31:02.003Z</time></trkpt><trkpt lat="45.11393423698279" lon="8.316963456454536"><ele>140.5</ele><time>2026-04-16T11:31:03.003Z</time></trkpt><trkpt lat="45.113941187296795" lon="8.31715976927027"><ele>140.25</ele><time>2026-04-16T11:31:03.976Z</time></trkpt><trkpt lat="45.11394803648695" lon="8.317367660145107"><ele>140.0</ele><time>2026-04-16T11:31:04.976Z</time></trkpt><trkpt lat="45.11394293898825" lon="8.317582244166747"><ele>140.0</ele><time>2026-04-16T11:31:05.976Z</time></trkpt><trkpt lat="45.11393565150098" lon="8.31780350368626"><ele>140.0</ele><time>2026-04-16T11:31:06.976Z</time></trkpt><trkpt lat="45.113914246438966" lon="8.318026870432703"><ele>140.0</ele><time>2026-04-16T11:31:07.976Z</time></trkpt><trkpt lat="45.11387379452128" lon="8.318255533190165"><ele>140.33333333333331</ele><time>2026-04-16T11:31:08.976Z</time></trkpt><trkpt lat="45.113823036705895" lon="8.318487941654356"><ele>140.66666666666666</ele><time>2026-04-16T11:31:09.976Z</time></trkpt><trkpt lat="45.11376887867304" lon="8.318732681792461"><ele>141.0</ele><time>2026-04-16T11:31:10.976Z</time></trkpt><trkpt lat="45.11371054793526" lon="8.318985180451348"><ele>141.0</ele><time>2026-04-16T11:31:11.976Z</time></trkpt><trkpt lat="45.11364980505321" lon="8.319242508100523"><ele>141.0</ele><time>2026-04-16T11:31:12.976Z</time></trkpt><trkpt lat="45.11358735669744" lon="8.319506705532472"><ele>141.0</ele><time>2026-04-16T11:31:13.976Z</time></trkpt><trkpt lat="45.113523572856096" lon="8.319774831286034"><ele>141.0</ele><time>2026-04-16T11:31:14.976Z</time></trkpt><trkpt lat="45.11345970640255" lon="8.320046283205581"><ele>141.0</ele><time>2026-04-16T11:31:15.976Z</time></trkpt><trkpt lat="45.11339281242093" lon="8.320317166844713"><ele>141.0</ele><time>2026-04-16T11:31:16.976Z</time></trkpt><trkpt lat="45.113328546264064" lon="8.320587326895133"><ele>140.66666666666666</ele><time>2026-04-16T11:31:17.976Z</time></trkpt><trkpt lat="45.11326873907187" lon="8.32084482028819"><ele>140.33333333333331</ele><time>2026-04-16T11:31:18.976Z</time></trkpt><trkpt lat="45.11321494624785" lon="8.32108966265605"><ele>140.0</ele><time>2026-04-16T11:31:19.976Z</time></trkpt><trkpt lat="45.11316209637127" lon="8.321319420892612"><ele>139.75</ele><time>2026-04-16T11:31:20.976Z</time></trkpt><trkpt lat="45.11311227759051" lon="8.321536414954547"><ele>139.5</ele><time>2026-04-16T11:31:21.976Z</time></trkpt><trkpt lat="45.113065022008996" lon="8.321735723674797"><ele>139.25</ele><time>2026-04-16T11:31:22.976Z</time></trkpt><trkpt lat="45.11301987829363" lon="8.32192333134735"><ele>139.0</ele><time>2026-04-16T11:31:23.976Z</time></trkpt><trkpt lat="45.112970866458014" lon="8.322105410945774"><ele>138.75</ele><time>2026-04-16T11:31:24.976Z</time></trkpt><trkpt lat="45.112923096357974" lon="8.32228835130764"><ele>138.5</ele><time>2026-04-16T11:31:25.976Z</time></trkpt><trkpt lat="45.11287937500889" lon="8.322470094515703"><ele>138.25</ele><time>2026-04-16T11:31:26.976Z</time></trkpt><trkpt lat="45.1128416159941" lon="8.322647852104868"><ele>138.0</ele><time>2026-04-16T11:31:27.976Z</time></trkpt><trkpt lat="45.1128084234631" lon="8.32281544043058"><ele>138.0</ele><time>2026-04-16T11:31:28.976Z</time></trkpt><trkpt lat="45.11278218500661" lon="8.322972340510125"><ele>138.0</ele><time>2026-04-16T11:31:29.976Z</time></trkpt><trkpt lat="45.11275517049955" lon="8.323126134569678"><ele>138.0</ele><time>2026-04-16T11:31:30.976Z</time></trkpt><trkpt lat="45.11272497978403" lon="8.323277668631036"><ele>138.0</ele><time>2026-04-16T11:31:31.976Z</time></trkpt><trkpt lat="45.11268389421443" lon="8.32341844011495"><ele>138.0</ele><time>2026-04-16T11:31:32.976Z</time></trkpt><trkpt lat="45.11265092257749" lon="8.323558046915348"><ele>138.20000000000002</ele><time>2026-04-16T11:31:33.976Z</time></trkpt><trkpt lat="45.11262293952706" lon="8.323688254898288"><ele>138.4</ele><time>2026-04-16T11:31:34.976Z</time></trkpt><trkpt lat="45.11259832934024" lon="8.323808385281888"><ele>138.60000000000002</ele><time>2026-04-16T11:31:35.976Z</time></trkpt><trkpt lat="45.11256548848012" lon="8.323915018362882"><ele>138.8</ele><time>2026-04-16T11:31:36.976Z</time></trkpt><trkpt lat="45.11254437345201" lon="8.324009500889634"><ele>139.0</ele><time>2026-04-16T11:31:37.976Z</time></trkpt><trkpt lat="45.11263640566037" lon="8.324122081581512"><ele>138.4</ele><time>2026-04-16T11:31:38.976Z</time></trkpt><trkpt lat="45.112702741265544" lon="8.324168632407567"><ele>137.8</ele><time>2026-04-16T11:31:39.976Z</time></trkpt><trkpt lat="45.11278821520796" lon="8.324177382773346"><ele>137.2</ele><time>2026-04-16T11:31:40.976Z</time></trkpt><trkpt lat="45.11287538693636" lon="8.324146777197246"><ele>136.6</ele><time>2026-04-16T11:31:41.976Z</time></trkpt><trkpt lat="45.112951502229805" lon="8.324091668115514"><ele>136.0</ele><time>2026-04-16T11:31:42.976Z</time></trkpt><trkpt lat="45.11300498791855" lon="8.32394419388573"><ele>136.0</ele><time>2026-04-16T11:31:43.976Z</time></trkpt><trkpt lat="45.11306581252245" lon="8.32377913776573"><ele>136.0</ele><time>2026-04-16T11:31:44.976Z</time></trkpt><trkpt lat="45.11313583447832" lon="8.323594795794694"><ele>136.0</ele><time>2026-04-16T11:31:45.976Z</time></trkpt><trkpt lat="45.1132165217936" lon="8.32339882985368"><ele>136.0</ele><time>2026-04-16T11:31:46.976Z</time></trkpt><trkpt lat="45.11330702318165" lon="8.323222591293234"><ele>136.33333333333334</ele><time>2026-04-16T11:31:47.976Z</time></trkpt><trkpt lat="45.11336867140478" lon="8.323032640625922"><ele>136.66666666666666</ele><time>2026-04-16T11:31:48.976Z</time></trkpt><trkpt lat="45.11346765428532" lon="8.322857844370368"><ele>137.0</ele><time>2026-04-16T11:31:49.973Z</time></trkpt><trkpt lat="45.11353600261478" lon="8.322664650996655"><ele>137.0</ele><time>2026-04-16T11:31:50.974Z</time></trkpt><trkpt lat="45.11362451655961" lon="8.322506317020812"><ele>137.0</ele><time>2026-04-16T11:31:51.974Z</time></trkpt><trkpt lat="45.113729673638424" lon="8.322360287998329"><ele>137.0</ele><time>2026-04-16T11:31:52.973Z</time></trkpt><trkpt lat="45.11385593498064" lon="8.322248124561582"><ele>137.0</ele><time>2026-04-16T11:31:53.973Z</time></trkpt><trkpt lat="45.11399259207782" lon="8.322176689524506"><ele>136.33333333333331</ele><time>2026-04-16T11:31:54.973Z</time></trkpt><trkpt lat="45.11414192654036" lon="8.322152457508086"><ele>135.66666666666666</ele><time>2026-04-16T11:31:55.973Z</time></trkpt><trkpt lat="45.11429651157185" lon="8.322178211174245"><ele>135.0</ele><time>2026-04-16T11:31:56.973Z</time></trkpt><trkpt lat="45.11446579139762" lon="8.32221319083549"><ele>135.0</ele><time>2026-04-16T11:31:57.973Z</time></trkpt><trkpt lat="45.11464407916798" lon="8.322281287461157"><ele>135.0</ele><time>2026-04-16T11:31:58.973Z</time></trkpt><trkpt lat="45.114797881012095" lon="8.322515026659879"><ele>135.0</ele><time>2026-04-16T11:31:59.974Z</time></trkpt><trkpt lat="45.11496057271305" lon="8.322660644837296"><ele>135.0</ele><time>2026-04-16T11:32:00.974Z</time></trkpt><trkpt lat="45.115113245008" lon="8.322793203388118"><ele>135.0</ele><time>2026-04-16T11:32:01.973Z</time></trkpt><trkpt lat="45.11528107933152" lon="8.322932125251455"><ele>135.0</ele><time>2026-04-16T11:32:02.973Z</time></trkpt><trkpt lat="45.115456208991176" lon="8.32308297158842"><ele>135.0</ele><time>2026-04-16T11:32:03.973Z</time></trkpt><trkpt lat="45.11563380995383" lon="8.323247175434751"><ele>135.0</ele><time>2026-04-16T11:32:04.973Z</time></trkpt><trkpt lat="45.1158151865934" lon="8.323417135679303"><ele>135.0</ele><time>2026-04-16T11:32:05.973Z</time></trkpt><trkpt lat="45.116002764675656" lon="8.323590426923456"><ele>135.0</ele><time>2026-04-16T11:32:06.973Z</time></trkpt><trkpt lat="45.11620072021751" lon="8.323771257603862"><ele>135.0</ele><time>2026-04-16T11:32:07.973Z</time></trkpt><trkpt lat="45.11639191361" lon="8.32393276206998"><ele>135.33333333333334</ele><time>2026-04-16T11:32:08.973Z</time></trkpt><trkpt lat="45.1165722190086" lon="8.324089746623477"><ele>135.66666666666669</ele><time>2026-04-16T11:32:09.973Z</time></trkpt><trkpt lat="45.11674985935783" lon="8.324258248743208"><ele>136.0</ele><time>2026-04-16T11:32:10.973Z</time></trkpt><trkpt lat="45.11692438135333" lon="8.324431884517054"><ele>136.0</ele><time>2026-04-16T11:32:11.973Z</time></trkpt><trkpt lat="45.11709982105689" lon="8.324604720021226"><ele>136.0</ele><time>2026-04-16T11:32:12.973Z</time></trkpt><trkpt lat="45.11728185735442" lon="8.3247686570598"><ele>136.0</ele><time>2026-04-16T11:32:13.973Z</time></trkpt><trkpt lat="45.11747000074948" lon="8.324933125659953"><ele>136.0</ele><time>2026-04-16T11:32:14.973Z</time></trkpt><trkpt lat="45.11766067854867" lon="8.325104465912554"><ele>136.0</ele><time>2026-04-16T11:32:15.973Z</time></trkpt><trkpt lat="45.11785058822293" lon="8.325283385809772"><ele>136.0</ele><time>2026-04-16T11:32:16.973Z</time></trkpt><trkpt lat="45.11804177097388" lon="8.325463331638927"><ele>136.0</ele><time>2026-04-16T11:32:17.973Z</time></trkpt><trkpt lat="45.118235736657034" lon="8.325645358007602"><ele>136.5</ele><time>2026-04-16T11:32:18.973Z</time></trkpt><trkpt lat="45.11843047664504" lon="8.325827431722468"><ele>137.0</ele><time>2026-04-16T11:32:19.973Z</time></trkpt><trkpt lat="45.11862748166976" lon="8.326009551126175"><ele>137.0</ele><time>2026-04-16T11:32:20.973Z</time></trkpt><trkpt lat="45.1188222577655" lon="8.326191856358912"><ele>137.0</ele><time>2026-04-16T11:32:21.973Z</time></trkpt><trkpt lat="45.11900558982876" lon="8.32635854542447"><ele>137.66666666666666</ele><time>2026-04-16T11:32:22.973Z</time></trkpt><trkpt lat="45.11918309774863" lon="8.326530640190105"><ele>138.33333333333334</ele><time>2026-04-16T11:32:23.973Z</time></trkpt><trkpt lat="45.11936371275332" lon="8.32670818099839"><ele>139.0</ele><time>2026-04-16T11:32:24.973Z</time></trkpt><trkpt lat="45.11954873130965" lon="8.326883315854339"><ele>139.0</ele><time>2026-04-16T11:32:25.973Z</time></trkpt><trkpt lat="45.11973570315636" lon="8.327060964402216"><ele>139.0</ele><time>2026-04-16T11:32:26.973Z</time></trkpt><trkpt lat="45.11992528613119" lon="8.327239079089857"><ele>140.5</ele><time>2026-04-16T11:32:27.973Z</time></trkpt><trkpt lat="45.12011271249888" lon="8.32742482554117"><ele>142.0</ele><time>2026-04-16T11:32:28.973Z</time></trkpt><trkpt lat="45.12030497705835" lon="8.327611750065207"><ele>142.0</ele><time>2026-04-16T11:32:29.973Z</time></trkpt><trkpt lat="45.12050067137633" lon="8.32779745092362"><ele>142.0</ele><time>2026-04-16T11:32:30.973Z</time></trkpt><trkpt lat="45.12069727767218" lon="8.327964543489086"><ele>142.0</ele><time>2026-04-16T11:32:31.973Z</time></trkpt><trkpt lat="45.120881876928834" lon="8.328123730565482"><ele>142.0</ele><time>2026-04-16T11:32:32.973Z</time></trkpt><trkpt lat="45.12105639578124" lon="8.328275156283688"><ele>142.0</ele><time>2026-04-16T11:32:33.973Z</time></trkpt><trkpt lat="45.121221364610165" lon="8.328431348286117"><ele>142.0</ele><time>2026-04-16T11:32:34.973Z</time></trkpt><trkpt lat="45.12138288997736" lon="8.328586647287425"><ele>142.0</ele><time>2026-04-16T11:32:35.973Z</time></trkpt><trkpt lat="45.12154570847192" lon="8.328748984619848"><ele>142.0</ele><time>2026-04-16T11:32:36.973Z</time></trkpt><trkpt lat="45.12171467552394" lon="8.328910843650062"><ele>141.33333333333334</ele><time>2026-04-16T11:32:37.973Z</time></trkpt><trkpt lat="45.12188221858004" lon="8.329066337184061"><ele>140.66666666666666</ele><time>2026-04-16T11:32:38.973Z</time></trkpt><trkpt lat="45.12203684345612" lon="8.329209790234936"><ele>140.0</ele><time>2026-04-16T11:32:39.973Z</time></trkpt><trkpt lat="45.12218066132857" lon="8.329348722070646"><ele>140.0</ele><time>2026-04-16T11:32:40.973Z</time></trkpt><trkpt lat="45.122466914160675" lon="8.329626155260591"><ele>140.0</ele><time>2026-04-16T11:32:42.973Z</time></trkpt><trkpt lat="45.12261115683944" lon="8.32976270107015"><ele>139.66666666666666</ele><time>2026-04-16T11:32:43.973Z</time></trkpt><trkpt lat="45.12275425748333" lon="8.329900084933058"><ele>139.33333333333334</ele><time>2026-04-16T11:32:44.973Z</time></trkpt><trkpt lat="45.12290124998304" lon="8.330037491120262"><ele>139.0</ele><time>2026-04-16T11:32:45.973Z</time></trkpt><trkpt lat="45.12305577087888" lon="8.330179718816455"><ele>139.0</ele><time>2026-04-16T11:32:46.973Z</time></trkpt><trkpt lat="45.1232197578338" lon="8.330323407037652"><ele>139.0</ele><time>2026-04-16T11:32:47.973Z</time></trkpt><trkpt lat="45.12338188776789" lon="8.330476844717694"><ele>139.0</ele><time>2026-04-16T11:32:48.973Z</time></trkpt><trkpt lat="45.123550928131024" lon="8.330631282339866"><ele>139.0</ele><time>2026-04-16T11:32:49.973Z</time></trkpt><trkpt lat="45.123720484703576" lon="8.330787177250418"><ele>139.0</ele><time>2026-04-16T11:32:50.973Z</time></trkpt><trkpt lat="45.12389702195158" lon="8.330939980746578"><ele>139.0</ele><time>2026-04-16T11:32:51.973Z</time></trkpt><trkpt lat="45.12407478852042" lon="8.331107617938914"><ele>139.0</ele><time>2026-04-16T11:32:52.973Z</time></trkpt><trkpt lat="45.124257110748985" lon="8.331277504757885"><ele>139.0</ele><time>2026-04-16T11:32:53.973Z</time></trkpt><trkpt lat="45.12444453940053" lon="8.331449918596567"><ele>139.0</ele><time>2026-04-16T11:32:54.973Z</time></trkpt><trkpt lat="45.12463594700383" lon="8.331621916061179"><ele>139.0</ele><time>2026-04-16T11:32:55.973Z</time></trkpt><trkpt lat="45.12482701777254" lon="8.331803368907599"><ele>139.0</ele><time>2026-04-16T11:32:56.973Z</time></trkpt><trkpt lat="45.125022956795824" lon="8.331982212426437"><ele>139.0</ele><time>2026-04-16T11:32:57.973Z</time></trkpt><trkpt lat="45.12521927253175" lon="8.332160782582092"><ele>139.0</ele><time>2026-04-16T11:32:58.973Z</time></trkpt><trkpt lat="45.125416145597256" lon="8.33233872534827"><ele>138.5</ele><time>2026-04-16T11:32:59.973Z</time></trkpt><trkpt lat="45.12561339021536" lon="8.332522468211097"><ele>138.0</ele><time>2026-04-16T11:33:00.973Z</time></trkpt><trkpt lat="45.125810530528014" lon="8.33270879350553"><ele>137.5</ele><time>2026-04-16T11:33:01.973Z</time></trkpt><trkpt lat="45.12600784615343" lon="8.332896044322485"><ele>137.0</ele><time>2026-04-16T11:33:02.973Z</time></trkpt><trkpt lat="45.126204836093756" lon="8.333081791979179"><ele>137.0</ele><time>2026-04-16T11:33:03.973Z</time></trkpt><trkpt lat="45.12640216605249" lon="8.333268477759653"><ele>137.0</ele><time>2026-04-16T11:33:04.973Z</time></trkpt><trkpt lat="45.12660022066125" lon="8.33345071349523"><ele>137.5</ele><time>2026-04-16T11:33:05.973Z</time></trkpt><trkpt lat="45.12679809522566" lon="8.333634601619496"><ele>138.0</ele><time>2026-04-16T11:33:06.973Z</time></trkpt><trkpt lat="45.12699415210902" lon="8.333816532584022"><ele>136.0</ele><time>2026-04-16T11:33:07.973Z</time></trkpt><trkpt lat="45.12718850815998" lon="8.333999986117632"><ele>134.0</ele><time>2026-04-16T11:33:08.973Z</time></trkpt><trkpt lat="45.1273832848458" lon="8.334192235913731"><ele>135.5</ele><time>2026-04-16T11:33:09.973Z</time></trkpt><trkpt lat="45.12758369273358" lon="8.334377319896237"><ele>137.0</ele><time>2026-04-16T11:33:10.973Z</time></trkpt><trkpt lat="45.127782112404546" lon="8.334558136068262"><ele>134.5</ele><time>2026-04-16T11:33:11.973Z</time></trkpt><trkpt lat="45.127977214570684" lon="8.334733064815032"><ele>132.0</ele><time>2026-04-16T11:33:12.973Z</time></trkpt><trkpt lat="45.12817165223198" lon="8.334909215324457"><ele>133.5</ele><time>2026-04-16T11:33:13.973Z</time></trkpt><trkpt lat="45.12836464049198" lon="8.33508809879806"><ele>135.0</ele><time>2026-04-16T11:33:14.973Z</time></trkpt><trkpt lat="45.128555366649465" lon="8.335271903000299"><ele>135.0</ele><time>2026-04-16T11:33:15.973Z</time></trkpt><trkpt lat="45.12874604376201" lon="8.335452673929298"><ele>135.0</ele><time>2026-04-16T11:33:16.973Z</time></trkpt><trkpt lat="45.12893835620891" lon="8.335631080859509"><ele>133.0</ele><time>2026-04-16T11:33:17.973Z</time></trkpt><trkpt lat="45.12912870262004" lon="8.335807554982498"><ele>131.0</ele><time>2026-04-16T11:33:18.973Z</time></trkpt><trkpt lat="45.12931838167832" lon="8.335982850539011"><ele>131.0</ele><time>2026-04-16T11:33:19.973Z</time></trkpt><trkpt lat="45.129510739596704" lon="8.336160420448989"><ele>131.0</ele><time>2026-04-16T11:33:20.973Z</time></trkpt><trkpt lat="45.12969359801951" lon="8.336353868507775"><ele>130.5</ele><time>2026-04-16T11:33:21.973Z</time></trkpt><trkpt lat="45.12988779977285" lon="8.33652997246276"><ele>130.0</ele><time>2026-04-16T11:33:22.973Z</time></trkpt><trkpt lat="45.13007984334463" lon="8.336706474063066"><ele>130.0</ele><time>2026-04-16T11:33:23.973Z</time></trkpt><trkpt lat="45.130271040406434" lon="8.336882953090461"><ele>130.0</ele><time>2026-04-16T11:33:24.973Z</time></trkpt><trkpt lat="45.13044593850625" lon="8.337064020054607"><ele>130.0</ele><time>2026-04-16T11:33:25.973Z</time></trkpt><trkpt lat="45.13062219072842" lon="8.337228547169712"><ele>130.0</ele><time>2026-04-16T11:33:26.973Z</time></trkpt><trkpt lat="45.13078740353529" lon="8.337387284848118"><ele>130.0</ele><time>2026-04-16T11:33:27.973Z</time></trkpt><trkpt lat="45.130944985003765" lon="8.337543559705026"><ele>130.0</ele><time>2026-04-16T11:33:28.973Z</time></trkpt><trkpt lat="45.131101106170384" lon="8.337700840210582"><ele>130.0</ele><time>2026-04-16T11:33:29.973Z</time></trkpt><trkpt lat="45.131252341287684" lon="8.337872348257141"><ele>130.0</ele><time>2026-04-16T11:33:30.973Z</time></trkpt><trkpt lat="45.13140617988792" lon="8.338047928476938"><ele>130.0</ele><time>2026-04-16T11:33:31.973Z</time></trkpt><trkpt lat="45.13155854372749" lon="8.338230712160412"><ele>130.0</ele><time>2026-04-16T11:33:32.973Z</time></trkpt><trkpt lat="45.131713378377924" lon="8.338417113906623"><ele>130.0</ele><time>2026-04-16T11:33:33.973Z</time></trkpt><trkpt lat="45.131871190770596" lon="8.338612008190095"><ele>130.0</ele><time>2026-04-16T11:33:34.973Z</time></trkpt><trkpt lat="45.13203418629014" lon="8.338803131129293"><ele>130.66666666666669</ele><time>2026-04-16T11:33:35.973Z</time></trkpt><trkpt lat="45.13219910439575" lon="8.339003169525206"><ele>131.33333333333334</ele><time>2026-04-16T11:33:36.973Z</time></trkpt><trkpt lat="45.132369672799584" lon="8.339207354813931"><ele>132.0</ele><time>2026-04-16T11:33:37.973Z</time></trkpt><trkpt lat="45.13254765586774" lon="8.3394170198314"><ele>132.0</ele><time>2026-04-16T11:33:38.973Z</time></trkpt><trkpt lat="45.13272731529781" lon="8.339636508238158"><ele>132.0</ele><time>2026-04-16T11:33:39.973Z</time></trkpt><trkpt lat="45.132911578134845" lon="8.339873371470013"><ele>131.5</ele><time>2026-04-16T11:33:40.973Z</time></trkpt><trkpt lat="45.13309702958311" lon="8.340113187185244"><ele>131.0</ele><time>2026-04-16T11:33:41.973Z</time></trkpt><trkpt lat="45.13328534838293" lon="8.340353656195338"><ele>130.0</ele><time>2026-04-16T11:33:42.973Z</time></trkpt><trkpt lat="45.133476987077294" lon="8.340596037222182"><ele>129.0</ele><time>2026-04-16T11:33:43.973Z</time></trkpt><trkpt lat="45.1336706174404" lon="8.340838129377751"><ele>129.0</ele><time>2026-04-16T11:33:44.973Z</time></trkpt><trkpt lat="45.1338503763513" lon="8.341070967156526"><ele>129.0</ele><time>2026-04-16T11:33:45.973Z</time></trkpt><trkpt lat="45.13403193358984" lon="8.341292297813213"><ele>128.0</ele><time>2026-04-16T11:33:46.973Z</time></trkpt><trkpt lat="45.134216787111356" lon="8.34151263437783"><ele>127.0</ele><time>2026-04-16T11:33:47.973Z</time></trkpt><trkpt lat="45.13440004902555" lon="8.341732266582802"><ele>127.0</ele><time>2026-04-16T11:33:48.973Z</time></trkpt><trkpt lat="45.1345838774971" lon="8.341950385852794"><ele>127.0</ele><time>2026-04-16T11:33:49.973Z</time></trkpt><trkpt lat="45.134764201334015" lon="8.342172175452832"><ele>127.0</ele><time>2026-04-16T11:33:50.973Z</time></trkpt><trkpt lat="45.13494444772943" lon="8.34238690616638"><ele>127.0</ele><time>2026-04-16T11:33:51.973Z</time></trkpt><trkpt lat="45.13513258323842" lon="8.342586626687238"><ele>127.0</ele><time>2026-04-16T11:33:52.973Z</time></trkpt><trkpt lat="45.13532513735892" lon="8.34277788340103"><ele>127.0</ele><time>2026-04-16T11:33:53.973Z</time></trkpt><trkpt lat="45.13552538807843" lon="8.342960500518014"><ele>127.0</ele><time>2026-04-16T11:33:54.973Z</time></trkpt><trkpt lat="45.13572992420861" lon="8.343138387719858"><ele>127.0</ele><time>2026-04-16T11:33:55.972Z</time></trkpt><trkpt lat="45.135939609691505" lon="8.34330622066548"><ele>127.0</ele><time>2026-04-16T11:33:56.972Z</time></trkpt><trkpt lat="45.13615489521294" lon="8.343464362849106"><ele>127.0</ele><time>2026-04-16T11:33:57.972Z</time></trkpt><trkpt lat="45.13637244030722" lon="8.343614183544968"><ele>127.0</ele><time>2026-04-16T11:33:58.972Z</time></trkpt><trkpt lat="45.13659520331145" lon="8.34374828173616"><ele>127.0</ele><time>2026-04-16T11:33:59.972Z</time></trkpt><trkpt lat="45.136818889706234" lon="8.343869385458726"><ele>126.5</ele><time>2026-04-16T11:34:00.972Z</time></trkpt><trkpt lat="45.137043004068076" lon="8.34397382847854"><ele>126.0</ele><time>2026-04-16T11:34:01.971Z</time></trkpt><trkpt lat="45.137259482670615" lon="8.344070234412424"><ele>125.66666666666666</ele><time>2026-04-16T11:34:02.972Z</time></trkpt><trkpt lat="45.13747563350732" lon="8.344151172175666"><ele>125.33333333333333</ele><time>2026-04-16T11:34:03.972Z</time></trkpt><trkpt lat="45.13768953108988" lon="8.344220461170101"><ele>125.0</ele><time>2026-04-16T11:34:04.971Z</time></trkpt><trkpt lat="45.13790158146797" lon="8.344275186664234"><ele>125.0</ele><time>2026-04-16T11:34:05.971Z</time></trkpt><trkpt lat="45.138109887830765" lon="8.34432172153545"><ele>125.0</ele><time>2026-04-16T11:34:06.971Z</time></trkpt><trkpt lat="45.13831460167025" lon="8.344359432196178"><ele>125.0</ele><time>2026-04-16T11:34:07.971Z</time></trkpt><trkpt lat="45.13851970560597" lon="8.344389822015335"><ele>125.0</ele><time>2026-04-16T11:34:08.971Z</time></trkpt><trkpt lat="45.13871994240279" lon="8.34441234018583"><ele>125.0</ele><time>2026-04-16T11:34:09.971Z</time></trkpt><trkpt lat="45.13891902732809" lon="8.34442360193773"><ele>125.0</ele><time>2026-04-16T11:34:10.971Z</time></trkpt><trkpt lat="45.13911624242848" lon="8.344425168509334"><ele>125.66666666666666</ele><time>2026-04-16T11:34:11.971Z</time></trkpt><trkpt lat="45.13931088959233" lon="8.3444182606558"><ele>126.33333333333334</ele><time>2026-04-16T11:34:12.971Z</time></trkpt><trkpt lat="45.139500793030884" lon="8.344405349075318"><ele>127.0</ele><time>2026-04-16T11:34:13.971Z</time></trkpt><trkpt lat="45.13968320182124" lon="8.344383123235813"><ele>127.0</ele><time>2026-04-16T11:34:14.971Z</time></trkpt><trkpt lat="45.13986243150636" lon="8.344360003538736"><ele>127.0</ele><time>2026-04-16T11:34:15.971Z</time></trkpt><trkpt lat="45.14003893847783" lon="8.344334265491984"><ele>127.0</ele><time>2026-04-16T11:34:16.971Z</time></trkpt><trkpt lat="45.14021101046376" lon="8.344300836526024"><ele>127.33333333333334</ele><time>2026-04-16T11:34:17.971Z</time></trkpt><trkpt lat="45.140381989385084" lon="8.344258530189592"><ele>127.66666666666666</ele><time>2026-04-16T11:34:18.971Z</time></trkpt><trkpt lat="45.14055299837015" lon="8.344210501379806"><ele>128.0</ele><time>2026-04-16T11:34:19.971Z</time></trkpt><trkpt lat="45.140724268369276" lon="8.344158631382225"><ele>128.33333333333331</ele><time>2026-04-16T11:34:20.971Z</time></trkpt><trkpt lat="45.14089965918592" lon="8.344112035269323"><ele>128.66666666666666</ele><time>2026-04-16T11:34:21.971Z</time></trkpt><trkpt lat="45.14107281718039" lon="8.344062881579978"><ele>129.0</ele><time>2026-04-16T11:34:22.971Z</time></trkpt><trkpt lat="45.1412485328471" lon="8.344012309104958"><ele>129.0</ele><time>2026-04-16T11:34:23.971Z</time></trkpt><trkpt lat="45.14142928243058" lon="8.343962439757568"><ele>129.0</ele><time>2026-04-16T11:34:24.971Z</time></trkpt><trkpt lat="45.14161575263966" lon="8.343908696862059"><ele>129.0</ele><time>2026-04-16T11:34:25.971Z</time></trkpt><trkpt lat="45.14180456627682" lon="8.34385374072776"><ele>129.0</ele><time>2026-04-16T11:34:26.971Z</time></trkpt><trkpt lat="45.14199662345389" lon="8.343796458416515"><ele>129.0</ele><time>2026-04-16T11:34:27.971Z</time></trkpt><trkpt lat="45.14219121555015" lon="8.343738207654999"><ele>129.0</ele><time>2026-04-16T11:34:28.971Z</time></trkpt><trkpt lat="45.14238976103072" lon="8.343677453233129"><ele>129.0</ele><time>2026-04-16T11:34:29.971Z</time></trkpt><trkpt lat="45.14258660470355" lon="8.343620582720858"><ele>129.0</ele><time>2026-04-16T11:34:30.971Z</time></trkpt><trkpt lat="45.142778317517184" lon="8.343565567522006"><ele>129.0</ele><time>2026-04-16T11:34:31.971Z</time></trkpt><trkpt lat="45.14296699177346" lon="8.343502909660364"><ele>129.0</ele><time>2026-04-16T11:34:32.971Z</time></trkpt><trkpt lat="45.14315310696264" lon="8.343434924166145"><ele>129.0</ele><time>2026-04-16T11:34:33.971Z</time></trkpt><trkpt lat="45.1433407540698" lon="8.343355766680785"><ele>129.0</ele><time>2026-04-16T11:34:34.971Z</time></trkpt><trkpt lat="45.14352798349215" lon="8.343274754348187"><ele>129.0</ele><time>2026-04-16T11:34:35.971Z</time></trkpt><trkpt lat="45.14371394117621" lon="8.343187824942396"><ele>129.0</ele><time>2026-04-16T11:34:36.971Z</time></trkpt><trkpt lat="45.143899565604194" lon="8.343091411519781"><ele>129.0</ele><time>2026-04-16T11:34:37.971Z</time></trkpt><trkpt lat="45.14408299966025" lon="8.342989736099154"><ele>128.66666666666666</ele><time>2026-04-16T11:34:38.972Z</time></trkpt><trkpt lat="45.1442669988835" lon="8.342876902856899"><ele>128.33333333333331</ele><time>2026-04-16T11:34:39.972Z</time></trkpt><trkpt lat="45.14444784702247" lon="8.34275420368708"><ele>128.0</ele><time>2026-04-16T11:34:40.972Z</time></trkpt><trkpt lat="45.14462659696923" lon="8.342621525868266"><ele>128.0</ele><time>2026-04-16T11:34:41.972Z</time></trkpt><trkpt lat="45.1448046183715" lon="8.342480330749657"><ele>128.0</ele><time>2026-04-16T11:34:42.972Z</time></trkpt><trkpt lat="45.14497815757243" lon="8.342332751602573"><ele>128.0</ele><time>2026-04-16T11:34:43.972Z</time></trkpt><trkpt lat="45.14515161935611" lon="8.342179482246987"><ele>128.0</ele><time>2026-04-16T11:34:44.972Z</time></trkpt><trkpt lat="45.14532347796966" lon="8.342026572420902"><ele>128.0</ele><time>2026-04-16T11:34:45.972Z</time></trkpt><trkpt lat="45.14549350327923" lon="8.3418802968367"><ele>128.0</ele><time>2026-04-16T11:34:46.972Z</time></trkpt><trkpt lat="45.1456588493203" lon="8.34173471825746"><ele>128.33333333333331</ele><time>2026-04-16T11:34:47.972Z</time></trkpt><trkpt lat="45.14581853867598" lon="8.34159003681059"><ele>128.66666666666666</ele><time>2026-04-16T11:34:48.972Z</time></trkpt><trkpt lat="45.14597661370911" lon="8.341452393279349"><ele>129.0</ele><time>2026-04-16T11:34:49.972Z</time></trkpt><trkpt lat="45.14612975964576" lon="8.34131832810885"><ele>127.33333333333334</ele><time>2026-04-16T11:34:50.972Z</time></trkpt><trkpt lat="45.14627893818181" lon="8.341186515021715"><ele>125.66666666666667</ele><time>2026-04-16T11:34:51.972Z</time></trkpt><trkpt lat="45.146423658774445" lon="8.341054836620083"><ele>124.0</ele><time>2026-04-16T11:34:52.972Z</time></trkpt><trkpt lat="45.14656832344735" lon="8.340918626855984"><ele>121.33333333333334</ele><time>2026-04-16T11:34:53.972Z</time></trkpt><trkpt lat="45.14671702351537" lon="8.340784663964392"><ele>118.66666666666666</ele><time>2026-04-16T11:34:54.972Z</time></trkpt><trkpt lat="45.14686864196715" lon="8.340647371551036"><ele>116.0</ele><time>2026-04-16T11:34:55.972Z</time></trkpt><trkpt lat="45.14702299473452" lon="8.340509472893277"><ele>116.0</ele><time>2026-04-16T11:34:56.972Z</time></trkpt><trkpt lat="45.1471788951156" lon="8.340366637943264"><ele>116.0</ele><time>2026-04-16T11:34:57.972Z</time></trkpt><trkpt lat="45.1473412622862" lon="8.340223260614232"><ele>116.0</ele><time>2026-04-16T11:34:58.972Z</time></trkpt><trkpt lat="45.14750950537772" lon="8.340072151957271"><ele>115.66666666666666</ele><time>2026-04-16T11:34:59.972Z</time></trkpt><trkpt lat="45.14767734339908" lon="8.339929758437377"><ele>115.33333333333334</ele><time>2026-04-16T11:35:00.972Z</time></trkpt><trkpt lat="45.14784322247054" lon="8.339785871201277"><ele>115.0</ele><time>2026-04-16T11:35:01.972Z</time></trkpt><trkpt lat="45.148003544594594" lon="8.33964695683935"><ele>115.66666666666667</ele><time>2026-04-16T11:35:02.972Z</time></trkpt><trkpt lat="45.14816246239634" lon="8.33950985480474"><ele>116.33333333333334</ele><time>2026-04-16T11:35:03.972Z</time></trkpt><trkpt lat="45.148319533463194" lon="8.339373921850415"><ele>117.0</ele><time>2026-04-16T11:35:04.972Z</time></trkpt><trkpt lat="45.14847341729435" lon="8.339238590070535"><ele>117.66666666666666</ele><time>2026-04-16T11:35:05.972Z</time></trkpt><trkpt lat="45.14862548443847" lon="8.339100468902341"><ele>118.33333333333333</ele><time>2026-04-16T11:35:06.972Z</time></trkpt><trkpt lat="45.148778562118586" lon="8.338962895086805"><ele>119.0</ele><time>2026-04-16T11:35:07.972Z</time></trkpt><trkpt lat="45.148933509593334" lon="8.338828950631237"><ele>120.0</ele><time>2026-04-16T11:35:08.972Z</time></trkpt><trkpt lat="45.14908827134853" lon="8.338695809863072"><ele>121.0</ele><time>2026-04-16T11:35:09.972Z</time></trkpt><trkpt lat="45.14924690468703" lon="8.338566068545603"><ele>122.0</ele><time>2026-04-16T11:35:10.972Z</time></trkpt><trkpt lat="45.149405547700084" lon="8.338427518056521"><ele>122.0</ele><time>2026-04-16T11:35:11.972Z</time></trkpt><trkpt lat="45.14956435950794" lon="8.338284591656553"><ele>122.0</ele><time>2026-04-16T11:35:12.972Z</time></trkpt><trkpt lat="45.1497238237029" lon="8.338138242100108"><ele>122.0</ele><time>2026-04-16T11:35:13.972Z</time></trkpt><trkpt lat="45.14988331015068" lon="8.337992718020258"><ele>122.0</ele><time>2026-04-16T11:35:14.972Z</time></trkpt><trkpt lat="45.15004021821698" lon="8.337844197554176"><ele>122.0</ele><time>2026-04-16T11:35:15.972Z</time></trkpt><trkpt lat="45.1501960987353" lon="8.337702372683657"><ele>122.0</ele><time>2026-04-16T11:35:16.972Z</time></trkpt><trkpt lat="45.15035116493365" lon="8.337571022718764"><ele>122.0</ele><time>2026-04-16T11:35:17.972Z</time></trkpt><trkpt lat="45.150504532096434" lon="8.337438325251995"><ele>122.0</ele><time>2026-04-16T11:35:18.972Z</time></trkpt><trkpt lat="45.1506583849551" lon="8.337300720587345"><ele>122.0</ele><time>2026-04-16T11:35:19.972Z</time></trkpt><trkpt lat="45.15081227680407" lon="8.337154958587401"><ele>122.0</ele><time>2026-04-16T11:35:20.972Z</time></trkpt><trkpt lat="45.15097038286485" lon="8.337004584482399"><ele>122.0</ele><time>2026-04-16T11:35:21.972Z</time></trkpt><trkpt lat="45.1511332801811" lon="8.33685449627429"><ele>122.0</ele><time>2026-04-16T11:35:22.972Z</time></trkpt><trkpt lat="45.151303782899205" lon="8.33670149459806"><ele>122.0</ele><time>2026-04-16T11:35:23.972Z</time></trkpt><trkpt lat="45.15147644938383" lon="8.336539278727635"><ele>122.0</ele><time>2026-04-16T11:35:24.972Z</time></trkpt><trkpt lat="45.15165256532467" lon="8.336377973380783"><ele>122.0</ele><time>2026-04-16T11:35:25.972Z</time></trkpt><trkpt lat="45.15182843420898" lon="8.336213287903922"><ele>122.0</ele><time>2026-04-16T11:35:26.972Z</time></trkpt><trkpt lat="45.152005930136056" lon="8.336048790242707"><ele>122.0</ele><time>2026-04-16T11:35:27.972Z</time></trkpt><trkpt lat="45.152183138163" lon="8.335894978117082"><ele>122.0</ele><time>2026-04-16T11:35:28.972Z</time></trkpt><trkpt lat="45.152353832370146" lon="8.335740714639263"><ele>122.0</ele><time>2026-04-16T11:35:29.972Z</time></trkpt><trkpt lat="45.15252927978238" lon="8.335607935357315"><ele>122.0</ele><time>2026-04-16T11:35:30.972Z</time></trkpt><trkpt lat="45.15269269793302" lon="8.335461753161725"><ele>122.0</ele><time>2026-04-16T11:35:31.972Z</time></trkpt><trkpt lat="45.1528433910448" lon="8.335301743206847"><ele>121.66666666666666</ele><time>2026-04-16T11:35:32.972Z</time></trkpt><trkpt lat="45.153007601624104" lon="8.335180062834365"><ele>121.33333333333334</ele><time>2026-04-16T11:35:33.972Z</time></trkpt><trkpt lat="45.153161432910466" lon="8.335042456364866"><ele>121.0</ele><time>2026-04-16T11:35:34.972Z</time></trkpt><trkpt lat="45.1533126680867" lon="8.334907172190842"><ele>121.0</ele><time>2026-04-16T11:35:35.972Z</time></trkpt><trkpt lat="45.153465078192916" lon="8.33477083700573"><ele>121.0</ele><time>2026-04-16T11:35:36.972Z</time></trkpt><trkpt lat="45.153620788975665" lon="8.334635269175049"><ele>121.0</ele><time>2026-04-16T11:35:37.972Z</time></trkpt><trkpt lat="45.153761340966405" lon="8.334461461913776"><ele>121.0</ele><time>2026-04-16T11:35:38.972Z</time></trkpt><trkpt lat="45.15391958784798" lon="8.334319261826005"><ele>121.0</ele><time>2026-04-16T11:35:39.972Z</time></trkpt><trkpt lat="45.15408006422299" lon="8.334185254257974"><ele>121.0</ele><time>2026-04-16T11:35:40.972Z</time></trkpt><trkpt lat="45.154243891678504" lon="8.334049320531589"><ele>121.33333333333334</ele><time>2026-04-16T11:35:41.972Z</time></trkpt><trkpt lat="45.154417453748096" lon="8.33393121047374"><ele>121.66666666666666</ele><time>2026-04-16T11:35:42.972Z</time></trkpt><trkpt lat="45.15458000019775" lon="8.333788910413492"><ele>122.0</ele><time>2026-04-16T11:35:43.972Z</time></trkpt><trkpt lat="45.15473389459157" lon="8.333630745438528"><ele>122.66666666666666</ele><time>2026-04-16T11:35:44.972Z</time></trkpt><trkpt lat="45.15489759089597" lon="8.333498786238268"><ele>123.33333333333334</ele><time>2026-04-16T11:35:45.972Z</time></trkpt><trkpt lat="45.15506132209828" lon="8.333370984360947"><ele>124.0</ele><time>2026-04-16T11:35:46.972Z</time></trkpt><trkpt lat="45.155226843930684" lon="8.333248987301706"><ele>124.0</ele><time>2026-04-16T11:35:47.972Z</time></trkpt><trkpt lat="45.15539180590149" lon="8.333132109276617"><ele>124.0</ele><time>2026-04-16T11:35:48.972Z</time></trkpt><trkpt lat="45.15555793054804" lon="8.333018272007278"><ele>124.0</ele><time>2026-04-16T11:35:49.972Z</time></trkpt><trkpt lat="45.15572764445451" lon="8.33290760698549"><ele>123.66666666666667</ele><time>2026-04-16T11:35:50.972Z</time></trkpt><trkpt lat="45.15590131512407" lon="8.3327990685947"><ele>123.33333333333334</ele><time>2026-04-16T11:35:51.972Z</time></trkpt><trkpt lat="45.15608158793711" lon="8.332696052393295"><ele>123.0</ele><time>2026-04-16T11:35:52.972Z</time></trkpt><trkpt lat="45.15626812549821" lon="8.332596708053307"><ele>123.0</ele><time>2026-04-16T11:35:53.972Z</time></trkpt><trkpt lat="45.156453661553215" lon="8.332505039702227"><ele>123.0</ele><time>2026-04-16T11:35:54.972Z</time></trkpt><trkpt lat="45.156640661290346" lon="8.332420013908653"><ele>123.0</ele><time>2026-04-16T11:35:55.972Z</time></trkpt><trkpt lat="45.15682708035473" lon="8.33234516422589"><ele>123.33333333333334</ele><time>2026-04-16T11:35:56.972Z</time></trkpt><trkpt lat="45.15700861777442" lon="8.332273429565312"><ele>123.66666666666667</ele><time>2026-04-16T11:35:57.972Z</time></trkpt><trkpt lat="45.15718091857548" lon="8.332210321368326"><ele>124.0</ele><time>2026-04-16T11:35:58.972Z</time></trkpt><trkpt lat="45.15734899211518" lon="8.33215315555851"><ele>124.33333333333334</ele><time>2026-04-16T11:35:59.972Z</time></trkpt><trkpt lat="45.157516881385966" lon="8.332099919332283"><ele>124.66666666666666</ele><time>2026-04-16T11:36:00.972Z</time></trkpt><trkpt lat="45.157688063790715" lon="8.332051430012573"><ele>125.0</ele><time>2026-04-16T11:36:01.97Z</time></trkpt><trkpt lat="45.157861486885146" lon="8.332005996239252"><ele>125.0</ele><time>2026-04-16T11:36:02.969Z</time></trkpt><trkpt lat="45.15803665890096" lon="8.331968657281335"><ele>125.0</ele><time>2026-04-16T11:36:03.969Z</time></trkpt><trkpt lat="45.15821319398559" lon="8.331937525625525"><ele>125.0</ele><time>2026-04-16T11:36:04.969Z</time></trkpt><trkpt lat="45.15839212689424" lon="8.331907965723609"><ele>124.33333333333333</ele><time>2026-04-16T11:36:05.97Z</time></trkpt><trkpt lat="45.15857270989643" lon="8.331883036769007"><ele>123.66666666666666</ele><time>2026-04-16T11:36:06.97Z</time></trkpt><trkpt lat="45.158755945711654" lon="8.331863067490726"><ele>123.0</ele><time>2026-04-16T11:36:07.969Z</time></trkpt><trkpt lat="45.1589423916526" lon="8.33184854290895"><ele>123.33333333333334</ele><time>2026-04-16T11:36:08.969Z</time></trkpt><trkpt lat="45.15913442603913" lon="8.331838379677349"><ele>123.66666666666667</ele><time>2026-04-16T11:36:09.969Z</time></trkpt><trkpt lat="45.15933549061175" lon="8.331832026410448"><ele>124.0</ele><time>2026-04-16T11:36:10.97Z</time></trkpt><trkpt lat="45.15954096215232" lon="8.331856265241914"><ele>124.0</ele><time>2026-04-16T11:36:11.97Z</time></trkpt><trkpt lat="45.15975791790448" lon="8.331862970690857"><ele>124.0</ele><time>2026-04-16T11:36:12.97Z</time></trkpt><trkpt lat="45.1599908463235" lon="8.33187099573762"><ele>123.5</ele><time>2026-04-16T11:36:13.97Z</time></trkpt><trkpt lat="45.16023292002018" lon="8.331879925031705"><ele>123.0</ele><time>2026-04-16T11:36:14.969Z</time></trkpt><trkpt lat="45.160491029589544" lon="8.331890961751421"><ele>123.0</ele><time>2026-04-16T11:36:15.969Z</time></trkpt><trkpt lat="45.16076667958566" lon="8.331902748503246"><ele>123.0</ele><time>2026-04-16T11:36:16.969Z</time></trkpt><trkpt lat="45.161058080299526" lon="8.331915208758291"><ele>123.0</ele><time>2026-04-16T11:36:17.969Z</time></trkpt><trkpt lat="45.1613536002894" lon="8.33192784512041"><ele>123.0</ele><time>2026-04-16T11:36:18.969Z</time></trkpt><trkpt lat="45.161647291778706" lon="8.331922195068426"><ele>123.5</ele><time>2026-04-16T11:36:19.969Z</time></trkpt><trkpt lat="45.16192668207915" lon="8.331941288853198"><ele>124.0</ele><time>2026-04-16T11:36:20.969Z</time></trkpt><trkpt lat="45.162201147061985" lon="8.331962633015813"><ele>124.0</ele><time>2026-04-16T11:36:21.969Z</time></trkpt><trkpt lat="45.16247113926563" lon="8.33197986235538"><ele>124.0</ele><time>2026-04-16T11:36:22.969Z</time></trkpt><trkpt lat="45.16273525125042" lon="8.3319968840102"><ele>124.0</ele><time>2026-04-16T11:36:23.969Z</time></trkpt><trkpt lat="45.16299566175495" lon="8.332011381813984"><ele>124.0</ele><time>2026-04-16T11:36:24.969Z</time></trkpt><trkpt lat="45.16325247762826" lon="8.332024952132855"><ele>124.5</ele><time>2026-04-16T11:36:25.969Z</time></trkpt><trkpt lat="45.1635080249284" lon="8.332033314787353"><ele>125.0</ele><time>2026-04-16T11:36:26.969Z</time></trkpt><trkpt lat="45.16376536274437" lon="8.332042069841028"><ele>125.0</ele><time>2026-04-16T11:36:27.969Z</time></trkpt><trkpt lat="45.16402147104488" lon="8.332053269354448"><ele>125.0</ele><time>2026-04-16T11:36:28.969Z</time></trkpt><trkpt lat="45.16427605144975" lon="8.332064779937788"><ele>124.5</ele><time>2026-04-16T11:36:29.969Z</time></trkpt><trkpt lat="45.164531019531445" lon="8.332072979996644"><ele>124.0</ele><time>2026-04-16T11:36:30.969Z</time></trkpt><trkpt lat="45.16478482060557" lon="8.332078267239815"><ele>124.5</ele><time>2026-04-16T11:36:31.969Z</time></trkpt><trkpt lat="45.16504060451107" lon="8.332086156716656"><ele>125.0</ele><time>2026-04-16T11:36:32.969Z</time></trkpt><trkpt lat="45.16529941818886" lon="8.332098150375318"><ele>125.0</ele><time>2026-04-16T11:36:33.969Z</time></trkpt><trkpt lat="45.16555888990751" lon="8.332107875216211"><ele>125.0</ele><time>2026-04-16T11:36:34.969Z</time></trkpt><trkpt lat="45.16581884430685" lon="8.332118916042068"><ele>124.5</ele><time>2026-04-16T11:36:35.969Z</time></trkpt><trkpt lat="45.166080006326716" lon="8.33212976343256"><ele>124.0</ele><time>2026-04-16T11:36:36.969Z</time></trkpt><trkpt lat="45.16634360419889" lon="8.33214184118137"><ele>124.5</ele><time>2026-04-16T11:36:37.969Z</time></trkpt><trkpt lat="45.16660537128939" lon="8.332154236646682"><ele>125.0</ele><time>2026-04-16T11:36:38.969Z</time></trkpt><trkpt lat="45.16687044291323" lon="8.3321642327034"><ele>125.0</ele><time>2026-04-16T11:36:39.969Z</time></trkpt><trkpt lat="45.16713778719675" lon="8.332171199277683"><ele>125.0</ele><time>2026-04-16T11:36:40.969Z</time></trkpt><trkpt lat="45.16740396848768" lon="8.332176400419405"><ele>124.0</ele><time>2026-04-16T11:36:41.969Z</time></trkpt><trkpt lat="45.16767139986661" lon="8.332183655722531"><ele>123.0</ele><time>2026-04-16T11:36:42.969Z</time></trkpt><trkpt lat="45.167939582461166" lon="8.332193755220866"><ele>123.5</ele><time>2026-04-16T11:36:43.969Z</time></trkpt><trkpt lat="45.16820846364432" lon="8.332207675196447"><ele>124.0</ele><time>2026-04-16T11:36:44.969Z</time></trkpt><trkpt lat="45.168479201987985" lon="8.332221317864272"><ele>124.5</ele><time>2026-04-16T11:36:45.969Z</time></trkpt><trkpt lat="45.16874960030294" lon="8.332238659899273"><ele>125.0</ele><time>2026-04-16T11:36:46.969Z</time></trkpt><trkpt lat="45.16902110144891" lon="8.332250473505075"><ele>125.5</ele><time>2026-04-16T11:36:47.969Z</time></trkpt><trkpt lat="45.169292758476644" lon="8.332268993323016"><ele>126.0</ele><time>2026-04-16T11:36:48.969Z</time></trkpt><trkpt lat="45.16956709989015" lon="8.332275357043951"><ele>126.0</ele><time>2026-04-16T11:36:49.969Z</time></trkpt><trkpt lat="45.169836957885835" lon="8.332286710614117"><ele>126.0</ele><time>2026-04-16T11:36:50.969Z</time></trkpt><trkpt lat="45.170113819609234" lon="8.332303475903874"><ele>126.0</ele><time>2026-04-16T11:36:51.969Z</time></trkpt><trkpt lat="45.170413870978116" lon="8.332299274486768"><ele>126.0</ele><time>2026-04-16T11:36:52.969Z</time></trkpt><trkpt lat="45.17071593120293" lon="8.332299175645078"><ele>125.0</ele><time>2026-04-16T11:36:53.969Z</time></trkpt><trkpt lat="45.17102871191327" lon="8.332289463488136"><ele>124.0</ele><time>2026-04-16T11:36:54.969Z</time></trkpt><trkpt lat="45.171338866462314" lon="8.332267127327034"><ele>124.0</ele><time>2026-04-16T11:36:55.969Z</time></trkpt><trkpt lat="45.17163834468831" lon="8.332258750243044"><ele>124.0</ele><time>2026-04-16T11:36:56.969Z</time></trkpt><trkpt lat="45.17193472761656" lon="8.332259650146572"><ele>124.0</ele><time>2026-04-16T11:36:57.969Z</time></trkpt><trkpt lat="45.17219202809726" lon="8.332282746342052"><ele>124.0</ele><time>2026-04-16T11:36:58.969Z</time></trkpt><trkpt lat="45.172435478733576" lon="8.332304206079993"><ele>124.0</ele><time>2026-04-16T11:36:59.969Z</time></trkpt><trkpt lat="45.1726244231395" lon="8.332362443983726"><ele>124.0</ele><time>2026-04-16T11:37:00.969Z</time></trkpt><trkpt lat="45.17285167042621" lon="8.332390151720404"><ele>124.0</ele><time>2026-04-16T11:37:01.969Z</time></trkpt><trkpt lat="45.17307980831203" lon="8.332415947213638"><ele>124.33333333333334</ele><time>2026-04-16T11:37:02.969Z</time></trkpt><trkpt lat="45.17329643612982" lon="8.332448935311279"><ele>124.66666666666666</ele><time>2026-04-16T11:37:03.969Z</time></trkpt><trkpt lat="45.173499239275685" lon="8.332474918758933"><ele>125.0</ele><time>2026-04-16T11:37:04.969Z</time></trkpt><trkpt lat="45.17368629182478" lon="8.33249035754674"><ele>125.0</ele><time>2026-04-16T11:37:05.969Z</time></trkpt><trkpt lat="45.173863097295936" lon="8.332499420243806"><ele>125.0</ele><time>2026-04-16T11:37:06.969Z</time></trkpt><trkpt lat="45.17403097312074" lon="8.332509652962754"><ele>125.0</ele><time>2026-04-16T11:37:07.969Z</time></trkpt><trkpt lat="45.17418917703054" lon="8.33252020799926"><ele>124.75</ele><time>2026-04-16T11:37:08.969Z</time></trkpt><trkpt lat="45.17433950653623" lon="8.33254433181794"><ele>124.5</ele><time>2026-04-16T11:37:09.969Z</time></trkpt><trkpt lat="45.17448051903232" lon="8.332578447492367"><ele>124.25</ele><time>2026-04-16T11:37:10.969Z</time></trkpt><trkpt lat="45.174614273803904" lon="8.33262592287568"><ele>124.0</ele><time>2026-04-16T11:37:11.969Z</time></trkpt><trkpt lat="45.17474879051765" lon="8.332703438065547"><ele>124.0</ele><time>2026-04-16T11:37:12.969Z</time></trkpt><trkpt lat="45.17487851818194" lon="8.332811037646985"><ele>124.0</ele><time>2026-04-16T11:37:13.969Z</time></trkpt><trkpt lat="45.17499427982299" lon="8.332951276834915"><ele>124.0</ele><time>2026-04-16T11:37:14.969Z</time></trkpt><trkpt lat="45.17509766258959" lon="8.333120920608595"><ele>124.0</ele><time>2026-04-16T11:37:15.969Z</time></trkpt><trkpt lat="45.17518629727461" lon="8.333312912346853"><ele>124.0</ele><time>2026-04-16T11:37:16.969Z</time></trkpt><trkpt lat="45.17525637967674" lon="8.333526415934434"><ele>124.0</ele><time>2026-04-16T11:37:17.969Z</time></trkpt><trkpt lat="45.17529628162809" lon="8.333748446154152"><ele>124.0</ele><time>2026-04-16T11:37:18.969Z</time></trkpt><trkpt lat="45.17532283563831" lon="8.333951897276842"><ele>124.0</ele><time>2026-04-16T11:37:19.969Z</time></trkpt><trkpt lat="45.175351638513746" lon="8.334140234904435"><ele>124.0</ele><time>2026-04-16T11:37:20.969Z</time></trkpt><trkpt lat="45.17537783653541" lon="8.334308286232627"><ele>124.0</ele><time>2026-04-16T11:37:21.969Z</time></trkpt><trkpt lat="45.175401489416394" lon="8.334458541372378"><ele>124.00000000000001</ele><time>2026-04-16T11:37:22.969Z</time></trkpt><trkpt lat="45.17542154470015" lon="8.334590517809715"><ele>124.0</ele><time>2026-04-16T11:37:23.969Z</time></trkpt><trkpt lat="45.17543616662435" lon="8.334710667773699"><ele>124.0</ele><time>2026-04-16T11:37:24.969Z</time></trkpt><trkpt lat="45.17544747195875" lon="8.334822948479859"><ele>124.0</ele><time>2026-04-16T11:37:25.969Z</time></trkpt><trkpt lat="45.17545267240851" lon="8.334923531563318"><ele>124.00000000000001</ele><time>2026-04-16T11:37:26.969Z</time></trkpt><trkpt lat="45.175481953978675" lon="8.335069355422572"><ele>124.0</ele><time>2026-04-16T11:37:28.969Z</time></trkpt><trkpt lat="45.17553887653217" lon="8.335156873415755"><ele>124.0</ele><time>2026-04-16T11:37:30.969Z</time></trkpt><trkpt lat="45.175589837078604" lon="8.335216268214927"><ele>124.0</ele><time>2026-04-16T11:37:34.969Z</time></trkpt><trkpt lat="45.1756734572364" lon="8.335179925834899"><ele>124.0</ele><time>2026-04-16T11:37:47.969Z</time></trkpt><trkpt lat="45.1757308154898" lon="8.33510164892366"><ele>124.0</ele><time>2026-04-16T11:37:48.969Z</time></trkpt><trkpt lat="45.17579563635259" lon="8.33497203604327"><ele>124.0</ele><time>2026-04-16T11:37:49.969Z</time></trkpt><trkpt lat="45.17586379477558" lon="8.33484800810698"><ele>124.0</ele><time>2026-04-16T11:37:50.969Z</time></trkpt><trkpt lat="45.175920267263784" lon="8.33474096420694"><ele>124.0</ele><time>2026-04-16T11:37:51.969Z</time></trkpt><trkpt lat="45.17598462257444" lon="8.334609456960818"><ele>124.0</ele><time>2026-04-16T11:37:52.969Z</time></trkpt><trkpt lat="45.17605716359275" lon="8.33445242632155"><ele>124.0</ele><time>2026-04-16T11:37:53.969Z</time></trkpt><trkpt lat="45.17613339747187" lon="8.33428192180977"><ele>124.66666666666667</ele><time>2026-04-16T11:37:54.969Z</time></trkpt><trkpt lat="45.17621117853108" lon="8.334100942480339"><ele>125.33333333333334</ele><time>2026-04-16T11:37:55.969Z</time></trkpt><trkpt lat="45.17629176072126" lon="8.333912126663046"><ele>126.0</ele><time>2026-04-16T11:37:56.969Z</time></trkpt><trkpt lat="45.17638902996537" lon="8.333710112127884"><ele>126.0</ele><time>2026-04-16T11:37:57.969Z</time></trkpt><trkpt lat="45.17646488117018" lon="8.333543925163438"><ele>126.0</ele><time>2026-04-16T11:37:58.969Z</time></trkpt><trkpt lat="45.17653812543438" lon="8.333389737117539"><ele>126.0</ele><time>2026-04-16T11:37:59.969Z</time></trkpt><trkpt lat="45.176613533175654" lon="8.3332224585049"><ele>126.0</ele><time>2026-04-16T11:38:00.969Z</time></trkpt><trkpt lat="45.176693776301896" lon="8.333042253624047"><ele>126.0</ele><time>2026-04-16T11:38:01.969Z</time></trkpt><trkpt lat="45.17677875770022" lon="8.332854847050632"><ele>126.0</ele><time>2026-04-16T11:38:02.969Z</time></trkpt><trkpt lat="45.17687062575098" lon="8.332661044730283"><ele>126.0</ele><time>2026-04-16T11:38:03.969Z</time></trkpt><trkpt lat="45.17697691941648" lon="8.332455778470257"><ele>126.0</ele><time>2026-04-16T11:38:04.969Z</time></trkpt><trkpt lat="45.17709423952522" lon="8.33224175162298"><ele>126.0</ele><time>2026-04-16T11:38:05.969Z</time></trkpt><trkpt lat="45.177219945742415" lon="8.332014712924451"><ele>126.0</ele><time>2026-04-16T11:38:06.969Z</time></trkpt><trkpt lat="45.17735018051449" lon="8.331778340023297"><ele>126.33333333333334</ele><time>2026-04-16T11:38:07.968Z</time></trkpt><trkpt lat="45.17746827459288" lon="8.331561635387638"><ele>126.66666666666667</ele><time>2026-04-16T11:38:08.968Z</time></trkpt><trkpt lat="45.17758876310337" lon="8.331350958697426"><ele>127.0</ele><time>2026-04-16T11:38:09.968Z</time></trkpt><trkpt lat="45.17771978300206" lon="8.331127460961206"><ele>127.0</ele><time>2026-04-16T11:38:10.967Z</time></trkpt><trkpt lat="45.17786347862156" lon="8.330890112258453"><ele>127.0</ele><time>2026-04-16T11:38:11.967Z</time></trkpt><trkpt lat="45.17801550333825" lon="8.330646991261387"><ele>126.5</ele><time>2026-04-16T11:38:12.967Z</time></trkpt><trkpt lat="45.17816810310435" lon="8.33039101077203"><ele>126.0</ele><time>2026-04-16T11:38:13.967Z</time></trkpt><trkpt lat="45.17832459117562" lon="8.33013132697969"><ele>125.5</ele><time>2026-04-16T11:38:14.967Z</time></trkpt><trkpt lat="45.1784780873432" lon="8.329865568785698"><ele>125.0</ele><time>2026-04-16T11:38:15.967Z</time></trkpt><trkpt lat="45.17863305713408" lon="8.329596997263033"><ele>124.5</ele><time>2026-04-16T11:38:16.967Z</time></trkpt><trkpt lat="45.178785464148476" lon="8.329338471866805"><ele>124.0</ele><time>2026-04-16T11:38:17.967Z</time></trkpt><trkpt lat="45.17892669766861" lon="8.329090006569102"><ele>124.5</ele><time>2026-04-16T11:38:18.967Z</time></trkpt><trkpt lat="45.17906444150524" lon="8.32884057914144"><ele>125.0</ele><time>2026-04-16T11:38:19.967Z</time></trkpt><trkpt lat="45.179204040083015" lon="8.32858116649036"><ele>125.0</ele><time>2026-04-16T11:38:20.967Z</time></trkpt><trkpt lat="45.17934560351645" lon="8.328317491254522"><ele>125.0</ele><time>2026-04-16T11:38:21.967Z</time></trkpt><trkpt lat="45.179486358744995" lon="8.32804858203308"><ele>125.0</ele><time>2026-04-16T11:38:22.967Z</time></trkpt><trkpt lat="45.179627163513494" lon="8.327774915182232"><ele>125.0</ele><time>2026-04-16T11:38:23.967Z</time></trkpt><trkpt lat="45.17976765412099" lon="8.327503109264804"><ele>125.0</ele><time>2026-04-16T11:38:24.967Z</time></trkpt><trkpt lat="45.17990430746727" lon="8.32723288018431"><ele>125.0</ele><time>2026-04-16T11:38:25.967Z</time></trkpt><trkpt lat="45.18004488255087" lon="8.326980798850649"><ele>125.0</ele><time>2026-04-16T11:38:26.967Z</time></trkpt><trkpt lat="45.180168286545396" lon="8.326735829641745"><ele>125.0</ele><time>2026-04-16T11:38:27.967Z</time></trkpt><trkpt lat="45.180289204970954" lon="8.326500718803137"><ele>125.0</ele><time>2026-04-16T11:38:28.967Z</time></trkpt><trkpt lat="45.18040746572449" lon="8.32627094849427"><ele>125.33333333333333</ele><time>2026-04-16T11:38:29.967Z</time></trkpt><trkpt lat="45.18052314652345" lon="8.326045414069519"><ele>125.66666666666666</ele><time>2026-04-16T11:38:30.967Z</time></trkpt><trkpt lat="45.18063488934253" lon="8.325824185963532"><ele>126.0</ele><time>2026-04-16T11:38:31.967Z</time></trkpt><trkpt lat="45.18074946914659" lon="8.325607626124292"><ele>126.33333333333334</ele><time>2026-04-16T11:38:32.967Z</time></trkpt><trkpt lat="45.18086281455367" lon="8.325394557270196"><ele>126.66666666666667</ele><time>2026-04-16T11:38:33.967Z</time></trkpt><trkpt lat="45.18097289205208" lon="8.325178119693495"><ele>127.0</ele><time>2026-04-16T11:38:34.967Z</time></trkpt><trkpt lat="45.1810795708971" lon="8.324960486823926"><ele>127.0</ele><time>2026-04-16T11:38:35.967Z</time></trkpt><trkpt lat="45.181182336248185" lon="8.324750732668061"><ele>127.0</ele><time>2026-04-16T11:38:36.967Z</time></trkpt><trkpt lat="45.18127953840143" lon="8.324557072986298"><ele>127.0</ele><time>2026-04-16T11:38:37.967Z</time></trkpt><trkpt lat="45.181373769250335" lon="8.3243769839379"><ele>127.0</ele><time>2026-04-16T11:38:38.967Z</time></trkpt><trkpt lat="45.18146187797237" lon="8.324209704739859"><ele>127.0</ele><time>2026-04-16T11:38:39.967Z</time></trkpt><trkpt lat="45.18155032562591" lon="8.324047857304297"><ele>127.0</ele><time>2026-04-16T11:38:40.967Z</time></trkpt><trkpt lat="45.18164282700693" lon="8.323889010444178"><ele>127.0</ele><time>2026-04-16T11:38:41.967Z</time></trkpt><trkpt lat="45.181726164359176" lon="8.323731446676458"><ele>126.75</ele><time>2026-04-16T11:38:42.967Z</time></trkpt><trkpt lat="45.18180137623677" lon="8.32358837937123"><ele>126.5</ele><time>2026-04-16T11:38:43.967Z</time></trkpt><trkpt lat="45.18188652957519" lon="8.3234647018063"><ele>126.25</ele><time>2026-04-16T11:38:44.967Z</time></trkpt><trkpt lat="45.18199192152698" lon="8.323376528348712"><ele>126.0</ele><time>2026-04-16T11:38:45.967Z</time></trkpt><trkpt lat="45.18213241988995" lon="8.323344914504853"><ele>126.0</ele><time>2026-04-16T11:38:46.967Z</time></trkpt><trkpt lat="45.18228038628289" lon="8.323316372911144"><ele>126.0</ele><time>2026-04-16T11:38:47.967Z</time></trkpt><trkpt lat="45.1824356142353" lon="8.323339639546647"><ele>126.0</ele><time>2026-04-16T11:38:48.967Z</time></trkpt><trkpt lat="45.182576120215295" lon="8.323328936689837"><ele>126.0</ele><time>2026-04-16T11:38:49.967Z</time></trkpt><trkpt lat="45.18271053029473" lon="8.323271519821807"><ele>126.0</ele><time>2026-04-16T11:38:50.967Z</time></trkpt><trkpt lat="45.182812594432086" lon="8.323107484064062"><ele>126.0</ele><time>2026-04-16T11:38:51.967Z</time></trkpt><trkpt lat="45.18290123346747" lon="8.32291321384875"><ele>126.0</ele><time>2026-04-16T11:38:52.967Z</time></trkpt><trkpt lat="45.182963156578865" lon="8.322671364534223"><ele>126.33333333333334</ele><time>2026-04-16T11:38:53.967Z</time></trkpt><trkpt lat="45.1830525349877" lon="8.322409702914701"><ele>126.66666666666667</ele><time>2026-04-16T11:38:54.967Z</time></trkpt><trkpt lat="45.183140139181646" lon="8.322139431532761"><ele>127.0</ele><time>2026-04-16T11:38:55.967Z</time></trkpt><trkpt lat="45.183229750374934" lon="8.321862511570684"><ele>127.0</ele><time>2026-04-16T11:38:56.967Z</time></trkpt><trkpt lat="45.18331227350384" lon="8.32160749527454"><ele>127.0</ele><time>2026-04-16T11:38:57.967Z</time></trkpt><trkpt lat="45.183388443201174" lon="8.321372112714952"><ele>127.0</ele><time>2026-04-16T11:38:58.967Z</time></trkpt><trkpt lat="45.18345659483146" lon="8.32116150782046"><ele>127.0</ele><time>2026-04-16T11:38:59.967Z</time></trkpt><trkpt lat="45.18352128467933" lon="8.320961600698777"><ele>127.0</ele><time>2026-04-16T11:39:00.967Z</time></trkpt><trkpt lat="45.18357034307369" lon="8.320756356156355"><ele>127.0</ele><time>2026-04-16T11:39:01.967Z</time></trkpt><trkpt lat="45.183634691668175" lon="8.320562452090867"><ele>126.75</ele><time>2026-04-16T11:39:02.967Z</time></trkpt><trkpt lat="45.18371355934677" lon="8.320381507458977"><ele>126.5</ele><time>2026-04-16T11:39:03.967Z</time></trkpt><trkpt lat="45.183789622479196" lon="8.320211220353942"><ele>126.25</ele><time>2026-04-16T11:39:04.967Z</time></trkpt><trkpt lat="45.18388705110566" lon="8.320071530599419"><ele>126.0</ele><time>2026-04-16T11:39:05.967Z</time></trkpt><trkpt lat="45.18399624370647" lon="8.319951681808556"><ele>126.25</ele><time>2026-04-16T11:39:06.967Z</time></trkpt><trkpt lat="45.184122200693174" lon="8.319852553720402"><ele>126.5</ele><time>2026-04-16T11:39:07.967Z</time></trkpt><trkpt lat="45.18425893338915" lon="8.319788203697014"><ele>126.75</ele><time>2026-04-16T11:39:08.967Z</time></trkpt><trkpt lat="45.184405127606865" lon="8.319753466881952"><ele>127.0</ele><time>2026-04-16T11:39:09.967Z</time></trkpt><trkpt lat="45.18455737840471" lon="8.319723122158894"><ele>127.0</ele><time>2026-04-16T11:39:10.967Z</time></trkpt><trkpt lat="45.184712783980224" lon="8.319696354253407"><ele>127.0</ele><time>2026-04-16T11:39:11.967Z</time></trkpt><trkpt lat="45.18486143446641" lon="8.319670962827692"><ele>127.0</ele><time>2026-04-16T11:39:12.967Z</time></trkpt><trkpt lat="45.18500238314611" lon="8.319646907607586"><ele>127.0</ele><time>2026-04-16T11:39:13.967Z</time></trkpt><trkpt lat="45.18515050450567" lon="8.319617893981599"><ele>127.0</ele><time>2026-04-16T11:39:14.967Z</time></trkpt><trkpt lat="45.185299207844885" lon="8.31955942977713"><ele>127.0</ele><time>2026-04-16T11:39:15.967Z</time></trkpt><trkpt lat="45.18543480837125" lon="8.319461086166065"><ele>127.0</ele><time>2026-04-16T11:39:16.967Z</time></trkpt><trkpt lat="45.18555454028752" lon="8.319342948093373"><ele>127.0</ele><time>2026-04-16T11:39:17.967Z</time></trkpt><trkpt lat="45.18566288209253" lon="8.31920565692206"><ele>127.0</ele><time>2026-04-16T11:39:18.967Z</time></trkpt><trkpt lat="45.1857513121178" lon="8.319032075577422"><ele>127.0</ele><time>2026-04-16T11:39:19.967Z</time></trkpt><trkpt lat="45.185820052127724" lon="8.318844300189928"><ele>127.0</ele><time>2026-04-16T11:39:20.967Z</time></trkpt><trkpt lat="45.185876478171615" lon="8.318646398444843"><ele>127.0</ele><time>2026-04-16T11:39:21.967Z</time></trkpt><trkpt lat="45.18590503169816" lon="8.318433729013108"><ele>127.0</ele><time>2026-04-16T11:39:22.967Z</time></trkpt><trkpt lat="45.185905257528496" lon="8.318206667793556"><ele>127.0</ele><time>2026-04-16T11:39:23.967Z</time></trkpt><trkpt lat="45.18592282250508" lon="8.317960428674951"><ele>126.66666666666667</ele><time>2026-04-16T11:39:24.967Z</time></trkpt><trkpt lat="45.185938381229654" lon="8.317675539304508"><ele>126.33333333333334</ele><time>2026-04-16T11:39:25.967Z</time></trkpt><trkpt lat="45.185954723043146" lon="8.31736909444047"><ele>126.0</ele><time>2026-04-16T11:39:26.967Z</time></trkpt><trkpt lat="45.185970545025235" lon="8.317071184784973"><ele>126.0</ele><time>2026-04-16T11:39:27.967Z</time></trkpt><trkpt lat="45.18598055557729" lon="8.316793408130719"><ele>126.0</ele><time>2026-04-16T11:39:28.967Z</time></trkpt><trkpt lat="45.18599822737697" lon="8.316512656321928"><ele>126.0</ele><time>2026-04-16T11:39:29.967Z</time></trkpt><trkpt lat="45.186014231001884" lon="8.316220739871062"><ele>126.0</ele><time>2026-04-16T11:39:30.967Z</time></trkpt><trkpt lat="45.18603257746054" lon="8.315926886169706"><ele>126.0</ele><time>2026-04-16T11:39:31.967Z</time></trkpt><trkpt lat="45.18605089853706" lon="8.315646924730691"><ele>126.0</ele><time>2026-04-16T11:39:32.967Z</time></trkpt><trkpt lat="45.186091963253446" lon="8.315378727359263"><ele>126.0</ele><time>2026-04-16T11:39:33.967Z</time></trkpt><trkpt lat="45.186160436096344" lon="8.315114592284504"><ele>126.0</ele><time>2026-04-16T11:39:34.967Z</time></trkpt><trkpt lat="45.186248292239135" lon="8.314859323990492"><ele>126.0</ele><time>2026-04-16T11:39:35.967Z</time></trkpt><trkpt lat="45.18637200679141" lon="8.314632447979895"><ele>126.0</ele><time>2026-04-16T11:39:36.967Z</time></trkpt><trkpt lat="45.186492634478604" lon="8.314398279838995"><ele>126.0</ele><time>2026-04-16T11:39:37.967Z</time></trkpt><trkpt lat="45.186604324249586" lon="8.314153011297082"><ele>126.0</ele><time>2026-04-16T11:39:38.967Z</time></trkpt><trkpt lat="45.186726176322246" lon="8.313915736009278"><ele>126.0</ele><time>2026-04-16T11:39:39.967Z</time></trkpt><trkpt lat="45.186846461691616" lon="8.31367661297268"><ele>126.0</ele><time>2026-04-16T11:39:40.967Z</time></trkpt><trkpt lat="45.1869695503981" lon="8.31343828163273"><ele>126.0</ele><time>2026-04-16T11:39:41.967Z</time></trkpt><trkpt lat="45.18709367655257" lon="8.313202963538787"><ele>126.33333333333334</ele><time>2026-04-16T11:39:42.967Z</time></trkpt><trkpt lat="45.18721440725885" lon="8.312967318254094"><ele>126.66666666666667</ele><time>2026-04-16T11:39:43.967Z</time></trkpt><trkpt lat="45.187332349864406" lon="8.312731822511779"><ele>127.0</ele><time>2026-04-16T11:39:44.967Z</time></trkpt><trkpt lat="45.18745224817905" lon="8.312498100265328"><ele>127.0</ele><time>2026-04-16T11:39:45.967Z</time></trkpt><trkpt lat="45.1875714392599" lon="8.312268408734436"><ele>127.0</ele><time>2026-04-16T11:39:46.967Z</time></trkpt><trkpt lat="45.187692305390364" lon="8.312040517753358"><ele>127.0</ele><time>2026-04-16T11:39:47.967Z</time></trkpt><trkpt lat="45.187811792223144" lon="8.311812249157972"><ele>127.66666666666667</ele><time>2026-04-16T11:39:48.967Z</time></trkpt><trkpt lat="45.18792710633534" lon="8.311593076667918"><ele>128.33333333333334</ele><time>2026-04-16T11:39:49.967Z</time></trkpt><trkpt lat="45.188033073875694" lon="8.311383992458826"><ele>129.0</ele><time>2026-04-16T11:39:50.967Z</time></trkpt><trkpt lat="45.18813479996017" lon="8.311183088598778"><ele>128.66666666666666</ele><time>2026-04-16T11:39:51.967Z</time></trkpt><trkpt lat="45.18823492813717" lon="8.310986416843312"><ele>128.33333333333331</ele><time>2026-04-16T11:39:52.967Z</time></trkpt><trkpt lat="45.188345590453594" lon="8.310798944020274"><ele>128.0</ele><time>2026-04-16T11:39:53.967Z</time></trkpt><trkpt lat="45.18844299817602" lon="8.310599606715934"><ele>128.66666666666666</ele><time>2026-04-16T11:39:54.967Z</time></trkpt><trkpt lat="45.18854221012891" lon="8.310404432435108"><ele>129.33333333333334</ele><time>2026-04-16T11:39:55.967Z</time></trkpt><trkpt lat="45.188642053901575" lon="8.310209611587515"><ele>130.0</ele><time>2026-04-16T11:39:56.967Z</time></trkpt><trkpt lat="45.18874344822548" lon="8.310016295280889"><ele>130.0</ele><time>2026-04-16T11:39:57.967Z</time></trkpt><trkpt lat="45.18884356030116" lon="8.309825085117959"><ele>130.0</ele><time>2026-04-16T11:39:58.967Z</time></trkpt><trkpt lat="45.188943707066294" lon="8.30963349326409"><ele>130.0</ele><time>2026-04-16T11:39:59.967Z</time></trkpt><trkpt lat="45.189039618570085" lon="8.30943949694535"><ele>129.66666666666669</ele><time>2026-04-16T11:40:00.967Z</time></trkpt><trkpt lat="45.189136707346535" lon="8.309245053836143"><ele>129.33333333333334</ele><time>2026-04-16T11:40:01.967Z</time></trkpt><trkpt lat="45.18923486305166" lon="8.30905330164243"><ele>129.0</ele><time>2026-04-16T11:40:02.967Z</time></trkpt><trkpt lat="45.18933387202645" lon="8.308863517114524"><ele>129.0</ele><time>2026-04-16T11:40:03.967Z</time></trkpt><trkpt lat="45.1894305694544" lon="8.308675238501115"><ele>129.0</ele><time>2026-04-16T11:40:04.967Z</time></trkpt><trkpt lat="45.18952505511505" lon="8.30848992208299"><ele>129.0</ele><time>2026-04-16T11:40:05.967Z</time></trkpt><trkpt lat="45.18962019786982" lon="8.308306804297535"><ele>129.0</ele><time>2026-04-16T11:40:06.967Z</time></trkpt><trkpt lat="45.189712332134604" lon="8.308132760937221"><ele>129.0</ele><time>2026-04-16T11:40:07.967Z</time></trkpt><trkpt lat="45.189805405897694" lon="8.307946039251872"><ele>129.0</ele><time>2026-04-16T11:40:08.967Z</time></trkpt><trkpt lat="45.189900488872844" lon="8.307769690282974"><ele>129.0</ele><time>2026-04-16T11:40:09.967Z</time></trkpt><trkpt lat="45.18999242024929" lon="8.307594387626008"><ele>129.0</ele><time>2026-04-16T11:40:10.967Z</time></trkpt><trkpt lat="45.190094502056006" lon="8.30743472649736"><ele>129.0</ele><time>2026-04-16T11:40:11.967Z</time></trkpt><trkpt lat="45.19018058797872" lon="8.307268134387822"><ele>129.0</ele><time>2026-04-16T11:40:12.967Z</time></trkpt><trkpt lat="45.190266177910104" lon="8.307102500335"><ele>129.0</ele><time>2026-04-16T11:40:13.966Z</time></trkpt><trkpt lat="45.190350514381606" lon="8.306938809456597"><ele>129.0</ele><time>2026-04-16T11:40:14.965Z</time></trkpt><trkpt lat="45.19043605383514" lon="8.306772822326973"><ele>129.0</ele><time>2026-04-16T11:40:15.965Z</time></trkpt><trkpt lat="45.19052667998307" lon="8.306596964623603"><ele>129.0</ele><time>2026-04-16T11:40:16.965Z</time></trkpt><trkpt lat="45.19061781641791" lon="8.30642011679313"><ele>129.0</ele><time>2026-04-16T11:40:17.966Z</time></trkpt><trkpt lat="45.19069722698913" lon="8.306226662845754"><ele>129.0</ele><time>2026-04-16T11:40:18.966Z</time></trkpt><trkpt lat="45.19080487071708" lon="8.306057564762018"><ele>129.0</ele><time>2026-04-16T11:40:19.966Z</time></trkpt><trkpt lat="45.190902704956656" lon="8.30586608625733"><ele>129.0</ele><time>2026-04-16T11:40:20.965Z</time></trkpt><trkpt lat="45.190997119912005" lon="8.305671481062422"><ele>129.0</ele><time>2026-04-16T11:40:21.965Z</time></trkpt><trkpt lat="45.191094931127694" lon="8.305482014375784"><ele>129.33333333333334</ele><time>2026-04-16T11:40:22.965Z</time></trkpt><trkpt lat="45.19119157323949" lon="8.305289266320294"><ele>129.66666666666669</ele><time>2026-04-16T11:40:23.964Z</time></trkpt><trkpt lat="45.1912887116151" lon="8.305093458451005"><ele>130.0</ele><time>2026-04-16T11:40:24.964Z</time></trkpt><trkpt lat="45.19138876701999" lon="8.304896519521057"><ele>130.0</ele><time>2026-04-16T11:40:25.965Z</time></trkpt><trkpt lat="45.191490237808004" lon="8.304700273568486"><ele>130.0</ele><time>2026-04-16T11:40:26.966Z</time></trkpt><trkpt lat="45.19159752215193" lon="8.304510012969818"><ele>130.0</ele><time>2026-04-16T11:40:27.966Z</time></trkpt><trkpt lat="45.19170110207666" lon="8.304314093348992"><ele>130.0</ele><time>2026-04-16T11:40:28.966Z</time></trkpt><trkpt lat="45.19180650597229" lon="8.30411638534579"><ele>130.0</ele><time>2026-04-16T11:40:29.966Z</time></trkpt><trkpt lat="45.191907235946395" lon="8.3039162330521"><ele>130.0</ele><time>2026-04-16T11:40:30.966Z</time></trkpt><trkpt lat="45.192002183856" lon="8.303713800468275"><ele>130.0</ele><time>2026-04-16T11:40:31.966Z</time></trkpt><trkpt lat="45.19209221256655" lon="8.303528816529779"><ele>130.0</ele><time>2026-04-16T11:40:32.966Z</time></trkpt><trkpt lat="45.1921834430463" lon="8.30335498210175"><ele>130.0</ele><time>2026-04-16T11:40:33.966Z</time></trkpt><trkpt lat="45.19227130659252" lon="8.303184600708766"><ele>130.66666666666669</ele><time>2026-04-16T11:40:34.966Z</time></trkpt><trkpt lat="45.192362012337554" lon="8.303009758731422"><ele>131.33333333333334</ele><time>2026-04-16T11:40:35.966Z</time></trkpt><trkpt lat="45.19245726910462" lon="8.30283769838244"><ele>132.0</ele><time>2026-04-16T11:40:36.966Z</time></trkpt><trkpt lat="45.192551585154135" lon="8.302662368119456"><ele>132.0</ele><time>2026-04-16T11:40:37.966Z</time></trkpt><trkpt lat="45.192644535545824" lon="8.302486801219821"><ele>132.0</ele><time>2026-04-16T11:40:38.966Z</time></trkpt><trkpt lat="45.1927997505275" lon="8.302373409725314"><ele>132.0</ele><time>2026-04-16T11:40:39.966Z</time></trkpt><trkpt lat="45.19289075053007" lon="8.302195616857436"><ele>132.33333333333334</ele><time>2026-04-16T11:40:40.966Z</time></trkpt><trkpt lat="45.19298135000909" lon="8.302017634371706"><ele>132.66666666666669</ele><time>2026-04-16T11:40:41.966Z</time></trkpt><trkpt lat="45.19301304099192" lon="8.301784947718474"><ele>133.0</ele><time>2026-04-16T11:40:42.966Z</time></trkpt><trkpt lat="45.193100226927676" lon="8.301609639739702"><ele>133.0</ele><time>2026-04-16T11:40:43.966Z</time></trkpt><trkpt lat="45.19318652025234" lon="8.301435872015894"><ele>133.0</ele><time>2026-04-16T11:40:44.966Z</time></trkpt><trkpt lat="45.19326707213171" lon="8.30126345368193"><ele>133.0</ele><time>2026-04-16T11:40:45.966Z</time></trkpt><trkpt lat="45.19334265672633" lon="8.301099505440742"><ele>133.0</ele><time>2026-04-16T11:40:46.966Z</time></trkpt><trkpt lat="45.19341692485118" lon="8.300961228594778"><ele>132.8</ele><time>2026-04-16T11:40:47.966Z</time></trkpt><trkpt lat="45.19349370978546" lon="8.300836574247624"><ele>132.60000000000002</ele><time>2026-04-16T11:40:48.966Z</time></trkpt><trkpt lat="45.19355378450412" lon="8.30072133711347"><ele>132.39999999999998</ele><time>2026-04-16T11:40:49.966Z</time></trkpt><trkpt lat="45.193604450656814" lon="8.300624147821646"><ele>132.2</ele><time>2026-04-16T11:40:50.966Z</time></trkpt><trkpt lat="45.19364257949857" lon="8.300551007905499"><ele>132.0</ele><time>2026-04-16T11:40:51.966Z</time></trkpt><trkpt lat="45.19367893181322" lon="8.300445059217184"><ele>132.0</ele><time>2026-04-16T11:40:53.966Z</time></trkpt><trkpt lat="45.1937296793217" lon="8.300372366912583"><ele>132.0</ele><time>2026-04-16T11:40:56.966Z</time></trkpt><trkpt lat="45.19378441352408" lon="8.300298286875172"><ele>132.0</ele><time>2026-04-16T11:41:34.966Z</time></trkpt><trkpt lat="45.193835476201215" lon="8.300201212945854"><ele>132.0</ele><time>2026-04-16T11:41:36.966Z</time></trkpt><trkpt lat="45.193920484988226" lon="8.300097249578798"><ele>132.0</ele><time>2026-04-16T11:41:38.966Z</time></trkpt><trkpt lat="45.19400192852919" lon="8.30016406988874"><ele>132.0</ele><time>2026-04-16T11:41:39.966Z</time></trkpt><trkpt lat="45.19407656491858" lon="8.300197407916466"><ele>131.79999999999998</ele><time>2026-04-16T11:41:40.966Z</time></trkpt><trkpt lat="45.19416809984003" lon="8.300218369347215"><ele>131.6</ele><time>2026-04-16T11:41:41.966Z</time></trkpt><trkpt lat="45.19426182517926" lon="8.300277866825228"><ele>131.39999999999998</ele><time>2026-04-16T11:41:42.966Z</time></trkpt><trkpt lat="45.19437625840945" lon="8.300327453311793"><ele>131.2</ele><time>2026-04-16T11:41:43.966Z</time></trkpt><trkpt lat="45.194500655195014" lon="8.30037144273326"><ele>131.0</ele><time>2026-04-16T11:41:44.966Z</time></trkpt><trkpt lat="45.19463383107042" lon="8.300430004463195"><ele>131.0</ele><time>2026-04-16T11:41:45.966Z</time></trkpt><trkpt lat="45.19477003521613" lon="8.300501404174513"><ele>131.0</ele><time>2026-04-16T11:41:46.966Z</time></trkpt><trkpt lat="45.19490517158323" lon="8.300573018858074"><ele>131.0</ele><time>2026-04-16T11:41:47.966Z</time></trkpt><trkpt lat="45.19503411673776" lon="8.30063214086811"><ele>131.0</ele><time>2026-04-16T11:41:48.966Z</time></trkpt><trkpt lat="45.19515486327714" lon="8.300679606383365"><ele>131.0</ele><time>2026-04-16T11:41:49.966Z</time></trkpt><trkpt lat="45.1952685403177" lon="8.300725808366572"><ele>131.0</ele><time>2026-04-16T11:41:50.966Z</time></trkpt><trkpt lat="45.195372695773514" lon="8.300763667999671"><ele>131.0</ele><time>2026-04-16T11:41:51.966Z</time></trkpt><trkpt lat="45.19546471155248" lon="8.300820191055935"><ele>131.0</ele><time>2026-04-16T11:41:52.966Z</time></trkpt><trkpt lat="45.19554866543246" lon="8.300866760833937"><ele>131.0</ele><time>2026-04-16T11:41:53.966Z</time></trkpt><trkpt lat="45.195625443153034" lon="8.300884649438643"><ele>131.0</ele><time>2026-04-16T11:41:54.966Z</time></trkpt><trkpt lat="45.19569625555922" lon="8.300844668726159"><ele>131.0</ele><time>2026-04-16T11:41:55.966Z</time></trkpt><trkpt lat="45.195762252595394" lon="8.30073981730874"><ele>131.0</ele><time>2026-04-16T11:41:56.966Z</time></trkpt><trkpt lat="45.195821827133436" lon="8.300557872826491"><ele>131.0</ele><time>2026-04-16T11:41:57.966Z</time></trkpt><trkpt lat="45.195925625866046" lon="8.30036538433769"><ele>131.0</ele><time>2026-04-16T11:41:58.966Z</time></trkpt><trkpt lat="45.19603032575174" lon="8.300128173301415"><ele>131.0</ele><time>2026-04-16T11:41:59.966Z</time></trkpt><trkpt lat="45.19611482441759" lon="8.29989980331896"><ele>131.0</ele><time>2026-04-16T11:42:00.966Z</time></trkpt><trkpt lat="45.196219238980085" lon="8.299690906564008"><ele>131.33333333333331</ele><time>2026-04-16T11:42:01.966Z</time></trkpt><trkpt lat="45.19632004576723" lon="8.299465096183605"><ele>131.66666666666666</ele><time>2026-04-16T11:42:02.966Z</time></trkpt><trkpt lat="45.19641701635731" lon="8.299228347207036"><ele>132.0</ele><time>2026-04-16T11:42:03.966Z</time></trkpt><trkpt lat="45.196515773937335" lon="8.298988914263361"><ele>132.33333333333334</ele><time>2026-04-16T11:42:04.966Z</time></trkpt><trkpt lat="45.19663275451296" lon="8.298760795296797"><ele>132.66666666666669</ele><time>2026-04-16T11:42:05.966Z</time></trkpt><trkpt lat="45.19674167058489" lon="8.29851296115666"><ele>133.0</ele><time>2026-04-16T11:42:06.966Z</time></trkpt><trkpt lat="45.196852706729715" lon="8.29826056125084"><ele>133.66666666666669</ele><time>2026-04-16T11:42:07.966Z</time></trkpt><trkpt lat="45.1969598321826" lon="8.298017995721484"><ele>134.33333333333334</ele><time>2026-04-16T11:42:08.966Z</time></trkpt><trkpt lat="45.197060700991244" lon="8.297789784490666"><ele>135.0</ele><time>2026-04-16T11:42:09.966Z</time></trkpt><trkpt lat="45.1971571224083" lon="8.297571635295435"><ele>135.0</ele><time>2026-04-16T11:42:10.966Z</time></trkpt><trkpt lat="45.19724841541257" lon="8.297377368426307"><ele>135.0</ele><time>2026-04-16T11:42:11.966Z</time></trkpt><trkpt lat="45.197327571961026" lon="8.29725216099305"><ele>135.0</ele><time>2026-04-16T11:42:12.966Z</time></trkpt><trkpt lat="45.197483947596176" lon="8.297033572627818"><ele>134.66666666666666</ele><time>2026-04-16T11:42:13.966Z</time></trkpt><trkpt lat="45.197531543861864" lon="8.29693618640004"><ele>134.33333333333331</ele><time>2026-04-16T11:42:15.966Z</time></trkpt><trkpt lat="45.19773275671779" lon="8.296863676460571"><ele>134.0</ele><time>2026-04-16T11:42:21.964Z</time></trkpt><trkpt lat="45.19787513637878" lon="8.297362586906843"><ele>134.0</ele><time>2026-04-16T11:42:22.963Z</time></trkpt><trkpt lat="45.19800737591023" lon="8.297399502274159"><ele>134.0</ele><time>2026-04-16T11:42:23.964Z</time></trkpt><trkpt lat="45.19813696441753" lon="8.297433155100567"><ele>134.0</ele><time>2026-04-16T11:42:24.964Z</time></trkpt><trkpt lat="45.19828755929542" lon="8.297490192341739"><ele>134.0</ele><time>2026-04-16T11:42:25.963Z</time></trkpt><trkpt lat="45.19842085688085" lon="8.297640469917615"><ele>133.33333333333331</ele><time>2026-04-16T11:42:26.964Z</time></trkpt><trkpt lat="45.198575991060544" lon="8.297692806853567"><ele>132.66666666666666</ele><time>2026-04-16T11:42:27.964Z</time></trkpt><trkpt lat="45.198729694771075" lon="8.297744661188329"><ele>132.0</ele><time>2026-04-16T11:42:28.964Z</time></trkpt><trkpt lat="45.198881089428816" lon="8.297795736194338"><ele>132.25</ele><time>2026-04-16T11:42:29.963Z</time></trkpt><trkpt lat="45.19903144847664" lon="8.297845287926814"><ele>132.5</ele><time>2026-04-16T11:42:30.963Z</time></trkpt><trkpt lat="45.19917154827785" lon="8.297891714800825"><ele>132.75</ele><time>2026-04-16T11:42:31.963Z</time></trkpt><trkpt lat="45.19927866169549" lon="8.297927210515494"><ele>133.0</ele><time>2026-04-16T11:42:32.963Z</time></trkpt><trkpt lat="45.199398636975964" lon="8.297966968251378"><ele>133.0</ele><time>2026-04-16T11:42:33.963Z</time></trkpt><trkpt lat="45.199506835070146" lon="8.2980024506095"><ele>133.0</ele><time>2026-04-16T11:42:34.963Z</time></trkpt><trkpt lat="45.199622948264704" lon="8.29804062455339"><ele>133.0</ele><time>2026-04-16T11:42:35.963Z</time></trkpt><trkpt lat="45.199742602109225" lon="8.29807996060903"><ele>133.0</ele><time>2026-04-16T11:42:36.963Z</time></trkpt><trkpt lat="45.19985634545641" lon="8.298117353531577"><ele>132.75</ele><time>2026-04-16T11:42:37.963Z</time></trkpt><trkpt lat="45.19996898371697" lon="8.298154383179636"><ele>132.5</ele><time>2026-04-16T11:42:38.963Z</time></trkpt><trkpt lat="45.200080746083245" lon="8.298191124889541"><ele>132.25</ele><time>2026-04-16T11:42:39.963Z</time></trkpt><trkpt lat="45.200193175554766" lon="8.298228592629288"><ele>132.0</ele><time>2026-04-16T11:42:40.963Z</time></trkpt><trkpt lat="45.200303849023356" lon="8.298265575684361"><ele>132.0</ele><time>2026-04-16T11:42:41.963Z</time></trkpt><trkpt lat="45.200416256176986" lon="8.298303138116173"><ele>132.0</ele><time>2026-04-16T11:42:42.963Z</time></trkpt><trkpt lat="45.20053298304187" lon="8.298342143985503"><ele>132.0</ele><time>2026-04-16T11:42:43.963Z</time></trkpt><trkpt lat="45.2006440124185" lon="8.298379245982437"><ele>132.0</ele><time>2026-04-16T11:42:44.963Z</time></trkpt><trkpt lat="45.200754354431204" lon="8.298416117941912"><ele>132.25</ele><time>2026-04-16T11:42:45.963Z</time></trkpt><trkpt lat="45.20086998746961" lon="8.298452953572436"><ele>132.5</ele><time>2026-04-16T11:42:46.963Z</time></trkpt><trkpt lat="45.2009908677982" lon="8.298492050580997"><ele>132.75</ele><time>2026-04-16T11:42:47.963Z</time></trkpt><trkpt lat="45.20111340062084" lon="8.298531682048374"><ele>133.0</ele><time>2026-04-16T11:42:48.963Z</time></trkpt><trkpt lat="45.20124034734057" lon="8.29857274091297"><ele>133.0</ele><time>2026-04-16T11:42:49.963Z</time></trkpt><trkpt lat="45.2013732851963" lon="8.298617262254654"><ele>133.0</ele><time>2026-04-16T11:42:50.963Z</time></trkpt><trkpt lat="45.201525076038045" lon="8.29866086138193"><ele>133.0</ele><time>2026-04-16T11:42:51.963Z</time></trkpt><trkpt lat="45.20168785818588" lon="8.298721536138002"><ele>133.0</ele><time>2026-04-16T11:42:52.963Z</time></trkpt><trkpt lat="45.201853378877644" lon="8.298769550151949"><ele>133.0</ele><time>2026-04-16T11:42:53.963Z</time></trkpt><trkpt lat="45.201996892383356" lon="8.298820590569747"><ele>133.0</ele><time>2026-04-16T11:42:54.963Z</time></trkpt><trkpt lat="45.20214583535234" lon="8.298891832582243"><ele>133.0</ele><time>2026-04-16T11:42:55.963Z</time></trkpt><trkpt lat="45.2023184027916" lon="8.298956390675919"><ele>133.0</ele><time>2026-04-16T11:42:56.963Z</time></trkpt><trkpt lat="45.20250180840465" lon="8.299020734943264"><ele>133.0</ele><time>2026-04-16T11:42:57.963Z</time></trkpt><trkpt lat="45.202688324147225" lon="8.299070770475216"><ele>132.66666666666669</ele><time>2026-04-16T11:42:58.963Z</time></trkpt><trkpt lat="45.202865091432166" lon="8.299124007241502"><ele>132.33333333333334</ele><time>2026-04-16T11:42:59.963Z</time></trkpt><trkpt lat="45.20304192409499" lon="8.299190186047477"><ele>132.0</ele><time>2026-04-16T11:43:00.963Z</time></trkpt><trkpt lat="45.20321054733391" lon="8.299318419674222"><ele>132.0</ele><time>2026-04-16T11:43:01.963Z</time></trkpt><trkpt lat="45.20337678641517" lon="8.299463679723688"><ele>132.0</ele><time>2026-04-16T11:43:02.963Z</time></trkpt><trkpt lat="45.20353831282136" lon="8.299609355204444"><ele>132.0</ele><time>2026-04-16T11:43:03.963Z</time></trkpt><trkpt lat="45.20370948577554" lon="8.299764184058667"><ele>132.33333333333334</ele><time>2026-04-16T11:43:04.963Z</time></trkpt><trkpt lat="45.20387072556999" lon="8.299940291971534"><ele>132.66666666666669</ele><time>2026-04-16T11:43:05.963Z</time></trkpt><trkpt lat="45.20403311601359" lon="8.300092680625896"><ele>133.0</ele><time>2026-04-16T11:43:06.963Z</time></trkpt><trkpt lat="45.204179189971356" lon="8.30022935538441"><ele>133.0</ele><time>2026-04-16T11:43:07.963Z</time></trkpt><trkpt lat="45.20431331277134" lon="8.300352247662314"><ele>133.0</ele><time>2026-04-16T11:43:08.963Z</time></trkpt><trkpt lat="45.20443612131224" lon="8.30046896004551"><ele>133.0</ele><time>2026-04-16T11:43:09.963Z</time></trkpt><trkpt lat="45.20454506841983" lon="8.300578444165525"><ele>133.0</ele><time>2026-04-16T11:43:10.963Z</time></trkpt><trkpt lat="45.204651032086424" lon="8.300681001841415"><ele>133.0</ele><time>2026-04-16T11:43:11.963Z</time></trkpt><trkpt lat="45.204739199578135" lon="8.300772421116537"><ele>133.0</ele><time>2026-04-16T11:43:12.963Z</time></trkpt><trkpt lat="45.20480580668242" lon="8.300849649612726"><ele>133.0</ele><time>2026-04-16T11:43:13.963Z</time></trkpt><trkpt lat="45.204874804141085" lon="8.300906642992752"><ele>133.0</ele><time>2026-04-16T11:43:14.963Z</time></trkpt><trkpt lat="45.20493225071363" lon="8.300961252790707"><ele>133.0</ele><time>2026-04-16T11:43:15.963Z</time></trkpt><trkpt lat="45.204838611655376" lon="8.301277034904025"><ele>132.75</ele><time>2026-04-16T11:43:17.963Z</time></trkpt><trkpt lat="45.20476772474451" lon="8.301422005818859"><ele>132.5</ele><time>2026-04-16T11:43:18.963Z</time></trkpt><trkpt lat="45.20469939533869" lon="8.30160172133486"><ele>132.25</ele><time>2026-04-16T11:43:19.963Z</time></trkpt><trkpt lat="45.20461485240207" lon="8.301761316852557"><ele>132.0</ele><time>2026-04-16T11:43:20.963Z</time></trkpt><trkpt lat="45.2045449721341" lon="8.301918180941527"><ele>132.0</ele><time>2026-04-16T11:43:21.963Z</time></trkpt><trkpt lat="45.20448775006987" lon="8.302044447438867"><ele>132.0</ele><time>2026-04-16T11:43:22.963Z</time></trkpt><trkpt lat="45.20443056540275" lon="8.302121793812312"><ele>132.0</ele><time>2026-04-16T11:43:23.963Z</time></trkpt><trkpt lat="45.20437452630425" lon="8.302238391463982"><ele>132.0</ele><time>2026-04-16T11:43:25.963Z</time></trkpt><trkpt lat="45.2045056237476" lon="8.302394354927177"><ele>132.0</ele><time>2026-04-16T11:43:26.963Z</time></trkpt><trkpt lat="45.20457282793377" lon="8.302469339127653"><ele>132.0</ele><time>2026-04-16T11:43:27.963Z</time></trkpt><trkpt lat="45.20463968240193" lon="8.302518749947252"><ele>132.0</ele><time>2026-04-16T11:43:28.963Z</time></trkpt><trkpt lat="45.20473591494559" lon="8.302567219622745"><ele>132.0</ele><time>2026-04-16T11:43:30.963Z</time></trkpt><trkpt lat="45.20476897887829" lon="8.302653945042623"><ele>132.0</ele><time>2026-04-16T11:43:33.963Z</time></trkpt></trkseg></trk></gpx>